
Distance (Route):
Temperature : 0°C
Humidity : 0%
Pressure : 0hPa| Receiver | Frames | First received | Last received |
|---|---|---|---|
| 9A1FER-3 | 249 | 2026-09-01 11:54:40 | 2026-09-01 13:04:23 |
| 9A1FER-10 | 195 | 2026-09-01 11:54:05 | 2026-09-01 13:05:13 |
| 9A1FER-15 | 182 | 2026-09-01 12:14:59 | 2026-09-01 13:04:47 |
| PETON7-10 | 128 | 2026-09-01 12:21:51 | 2026-09-01 13:01:21 |
| OM5KV | 35 | 2026-09-01 12:48:39 | 2026-09-01 12:54:12 |
| OE3JTB-15 | 21 | 2026-09-01 11:55:11 | 2026-09-01 13:03:24 |
| Receiver | Date | Latitude | Longitude | Direction | Speed | Altitude | Climb | Temperature | Humidity | Pressure | Voltage | Killtimer | Uptime | BKT | XDATA |
|---|---|---|---|---|---|---|---|---|---|---|---|---|---|---|---|
| 9A1FER-10 | 2026-09-01 13:05:13 | 46.20931 | 15.55740 | 75° | 113km/h | 10529m | -17.9m/s | 0°C | 0% | 0hPa | 0V | 00:00:00 | 00:00:00 | 00:00:00 | |
| 9A1FER-10 | 2026-09-01 13:04:58 | 46.20824 | 15.55167 | 78° | 122km/h | 10813m | -18.4m/s | 0°C | 0% | 0hPa | 0V | 00:00:00 | 00:00:00 | 00:00:00 | |
| 9A1FER-15 | 2026-09-01 13:04:47 | 46.20753 | 15.54689 | 79° | 126km/h | 11028m | -19.4m/s | 0°C | 0% | 0hPa | 0V | 00:00:00 | 00:00:00 | 00:00:00 | |
| 9A1FER-10 | 2026-09-01 13:04:41 | 46.20719 | 15.54420 | 80° | 126km/h | 11151m | -20.9m/s | 0°C | 0% | 0hPa | 0V | 00:00:00 | 00:00:00 | 00:00:00 | |
| 9A1FER-15 | 2026-09-01 13:04:28 | 46.20650 | 15.53830 | 82° | 120km/h | 11414m | -20.7m/s | 0°C | 0% | 0hPa | 0V | 00:00:00 | 00:00:00 | 00:00:00 | |
| 9A1FER-10 | 2026-09-01 13:04:26 | 46.20641 | 15.53742 | 82° | 120km/h | 11455m | -21.2m/s | 0°C | 0% | 0hPa | 0V | 00:00:00 | 00:00:00 | 00:00:00 | |
| 9A1FER-3 | 2026-09-01 13:04:23 | 46.20626 | 15.53614 | 82° | 120km/h | 11518m | -21.1m/s | 0°C | 0% | 0hPa | 0V | 00:00:00 | 00:00:00 | 00:00:00 | |
| 9A1FER-15 | 2026-09-01 13:04:13 | 46.20572 | 15.53179 | 80° | 122km/h | 11710m | -16.3m/s | 0°C | 0% | 0hPa | 0V | 00:00:00 | 00:00:00 | 00:00:00 | |
| 9A1FER-10 | 2026-09-01 13:04:11 | 46.20562 | 15.53092 | 81° | 122km/h | 11742m | -15.8m/s | 0°C | 0% | 0hPa | 0V | 00:00:00 | 00:00:00 | 00:00:00 | |
| 9A1FER-3 | 2026-09-01 13:04:01 | 46.20512 | 15.52655 | 82° | 131km/h | 11908m | -16.6m/s | 0°C | 0% | 0hPa | 0V | 00:00:00 | 00:00:00 | 00:00:00 | |
| 9A1FER-15 | 2026-09-01 13:03:57 | 46.20490 | 15.52475 | 80° | 133km/h | 11973m | -17.3m/s | 0°C | 0% | 0hPa | 0V | 00:00:00 | 00:00:00 | 00:00:00 | |
| 9A1FER-10 | 2026-09-01 13:03:56 | 46.20484 | 15.52429 | 81° | 133km/h | 11991m | -17.5m/s | 0°C | 0% | 0hPa | 0V | 00:00:00 | 00:00:00 | 00:00:00 | |
| 9A1FER-3 | 2026-09-01 13:03:46 | 46.20435 | 15.51941 | 81° | 130km/h | 12174m | -18.7m/s | 0°C | 0% | 0hPa | 0V | 00:00:00 | 00:00:00 | 00:00:00 | |
| 9A1FER-15 | 2026-09-01 13:03:42 | 46.20412 | 15.51753 | 81° | 126km/h | 12250m | -19.2m/s | 0°C | 0% | 0hPa | 0V | 00:00:00 | 00:00:00 | 00:00:00 | |
| 9A1FER-10 | 2026-09-01 13:03:41 | 46.20407 | 15.51706 | 80° | 126km/h | 12269m | -18.8m/s | 0°C | 0% | 0hPa | 0V | 00:00:00 | 00:00:00 | 00:00:00 | |
| 9A1FER-3 | 2026-09-01 13:03:31 | 46.20357 | 15.51246 | 83° | 126km/h | 12451m | -17.7m/s | 0°C | 0% | 0hPa | 0V | 00:00:00 | 00:00:00 | 00:00:00 | |
| 9A1FER-15 | 2026-09-01 13:03:27 | 46.20341 | 15.51071 | 84° | 126km/h | 12522m | -18.1m/s | 0°C | 0% | 0hPa | 0V | 00:00:00 | 00:00:00 | 00:00:00 | |
| 9A1FER-10 | 2026-09-01 13:03:26 | 46.20337 | 15.51026 | 83° | 126km/h | 12541m | -18.4m/s | 0°C | 0% | 0hPa | 0V | 00:00:00 | 00:00:00 | 00:00:00 | |
| OE3JTB-15 | 2026-09-01 13:03:24 | 46.20329 | 15.50935 | 83° | 106km/h | 12578m | -18.2m/s | 0°C | 0% | 0hPa | 0V | 00:00:00 | 00:00:00 | 00:00:00 | |
| 9A1FER-3 | 2026-09-01 13:03:16 | 46.20293 | 15.50567 | 83° | 124km/h | 12724m | -18.4m/s | 0°C | 0% | 0hPa | 0V | 00:00:00 | 00:00:00 | 00:00:00 | |
| 9A1FER-15 | 2026-09-01 13:03:12 | 46.20276 | 15.50387 | 82° | 124km/h | 12799m | -18.6m/s | 0°C | 0% | 0hPa | 0V | 00:00:00 | 00:00:00 | 00:00:00 | |
| 9A1FER-10 | 2026-09-01 13:03:11 | 46.20271 | 15.50343 | 81° | 124km/h | 12817m | -18.4m/s | 0°C | 0% | 0hPa | 0V | 00:00:00 | 00:00:00 | 00:00:00 | |
| 9A1FER-3 | 2026-09-01 13:03:01 | 46.20220 | 15.49892 | 81° | 119km/h | 13003m | -18.7m/s | 0°C | 0% | 0hPa | 0V | 00:00:00 | 00:00:00 | 00:00:00 | |
| 9A1FER-15 | 2026-09-01 13:02:57 | 46.20199 | 15.49714 | 80° | 117km/h | 13077m | -18.6m/s | 0°C | 0% | 0hPa | 0V | 00:00:00 | 00:00:00 | 00:00:00 | |
| 9A1FER-10 | 2026-09-01 13:02:56 | 46.20193 | 15.49670 | 80° | 115km/h | 13096m | -18.7m/s | 0°C | 0% | 0hPa | 0V | 00:00:00 | 00:00:00 | 00:00:00 | |
| 9A1FER-3 | 2026-09-01 13:02:45 | 46.20144 | 15.49206 | 84° | 100km/h | 13302m | -19.0m/s | 0°C | 0% | 0hPa | 0V | 00:00:00 | 00:00:00 | 00:00:00 | |
| 9A1FER-15 | 2026-09-01 13:02:42 | 46.20136 | 15.49091 | 85° | 99km/h | 13359m | -19.0m/s | 0°C | 0% | 0hPa | 0V | 00:00:00 | 00:00:00 | 00:00:00 | |
| 9A1FER-10 | 2026-09-01 13:02:41 | 46.20133 | 15.49054 | 85° | 99km/h | 13378m | -18.9m/s | 0°C | 0% | 0hPa | 0V | 00:00:00 | 00:00:00 | 00:00:00 | |
| 9A1FER-3 | 2026-09-01 13:02:30 | 46.20119 | 15.48663 | 85° | 102km/h | 13591m | -19.8m/s | 0°C | 0% | 0hPa | 0V | 00:00:00 | 00:00:00 | 00:00:00 | |
| 9A1FER-15 | 2026-09-01 13:02:27 | 46.20112 | 15.48554 | 85° | 102km/h | 13651m | -19.9m/s | 0°C | 0% | 0hPa | 0V | 00:00:00 | 00:00:00 | 00:00:00 | |
| 9A1FER-10 | 2026-09-01 13:02:26 | 46.20109 | 15.48517 | 85° | 102km/h | 13671m | -19.5m/s | 0°C | 0% | 0hPa | 0V | 00:00:00 | 00:00:00 | 00:00:00 | |
| 9A1FER-3 | 2026-09-01 13:02:15 | 46.20068 | 15.48112 | 82° | 97km/h | 13889m | -19.9m/s | 0°C | 0% | 0hPa | 0V | 00:00:00 | 00:00:00 | 00:00:00 | |
| 9A1FER-15 | 2026-09-01 13:02:12 | 46.20058 | 15.48002 | 84° | 95km/h | 13949m | -20.1m/s | 0°C | 0% | 0hPa | 0V | 00:00:00 | 00:00:00 | 00:00:00 | |
| 9A1FER-10 | 2026-09-01 13:02:11 | 46.20056 | 15.47967 | 85° | 95km/h | 13969m | -20.3m/s | 0°C | 0% | 0hPa | 0V | 00:00:00 | 00:00:00 | 00:00:00 | |
| 9A1FER-3 | 2026-09-01 13:02:00 | 46.20032 | 15.47588 | 83° | 93km/h | 14210m | -23.4m/s | 0°C | 0% | 0hPa | 0V | 00:00:00 | 00:00:00 | 00:00:00 | |
| 9A1FER-15 | 2026-09-01 13:01:57 | 46.20023 | 15.47487 | 83° | 95km/h | 14281m | -23.6m/s | 0°C | 0% | 0hPa | 0V | 00:00:00 | 00:00:00 | 00:00:00 | |
| 9A1FER-10 | 2026-09-01 13:01:56 | 46.20020 | 15.47454 | 82° | 95km/h | 14305m | -23.4m/s | 0°C | 0% | 0hPa | 0V | 00:00:00 | 00:00:00 | 00:00:00 | |
| 9A1FER-3 | 2026-09-01 13:01:45 | 46.19993 | 15.47084 | 85° | 93km/h | 14539m | -19.5m/s | 0°C | 0% | 0hPa | 0V | 00:00:00 | 00:00:00 | 00:00:00 | |
| 9A1FER-15 | 2026-09-01 13:01:41 | 46.19983 | 15.46942 | 86° | 88km/h | 14621m | -20.7m/s | 0°C | 0% | 0hPa | 0V | 00:00:00 | 00:00:00 | 00:00:00 | |
| 9A1FER-3 | 2026-09-01 13:01:31 | 46.19961 | 15.46582 | 89° | 78km/h | 14854m | -21.8m/s | 0°C | 0% | 0hPa | 0V | 00:00:00 | 00:00:00 | 00:00:00 | |
| 9A1FER-15 | 2026-09-01 13:01:26 | 46.19958 | 15.46464 | 88° | 77km/h | 14943m | -22.9m/s | 0°C | 0% | 0hPa | 0V | 00:00:00 | 00:00:00 | 00:00:00 | |
| PETON7-10 | 2026-09-01 13:01:21 | 46.19949 | 15.46323 | 86° | 75km/h | 15058m | -22.4m/s | 0°C | 0% | 0hPa | 0V | 00:00:00 | 00:00:00 | 00:00:00 | |
| 9A1FER-3 | 2026-09-01 13:01:15 | 46.19941 | 15.46158 | 86° | 75km/h | 15190m | -22.4m/s | 0°C | 0% | 0hPa | 0V | 00:00:00 | 00:00:00 | 00:00:00 | |
| 9A1FER-15 | 2026-09-01 13:01:11 | 46.19937 | 15.46051 | 90° | 73km/h | 15283m | -24.2m/s | 0°C | 0% | 0hPa | 0V | 00:00:00 | 00:00:00 | 00:00:00 | |
| PETON7-10 | 2026-09-01 13:01:02 | 46.19941 | 15.45806 | 94° | 69km/h | 15499m | -24.4m/s | 0°C | 0% | 0hPa | 0V | 00:00:00 | 00:00:00 | 00:00:00 | |
| 9A1FER-3 | 2026-09-01 13:01:00 | 46.19944 | 15.45754 | 94° | 69km/h | 15547m | -23.5m/s | 0°C | 0% | 0hPa | 0V | 00:00:00 | 00:00:00 | 00:00:00 | |
| 9A1FER-15 | 2026-09-01 13:00:56 | 46.19948 | 15.45651 | 91° | 68km/h | 15643m | -24.1m/s | 0°C | 0% | 0hPa | 0V | 00:00:00 | 00:00:00 | 00:00:00 | |
| 9A1FER-3 | 2026-09-01 13:00:45 | 46.19936 | 15.45378 | 85° | 69km/h | 15910m | -24.6m/s | 0°C | 0% | 0hPa | 0V | 00:00:00 | 00:00:00 | 00:00:00 | |
| 9A1FER-10 | 2026-09-01 13:00:41 | 46.19925 | 15.45282 | 80° | 69km/h | 16008m | -24.9m/s | 0°C | 0% | 0hPa | 0V | 00:00:00 | 00:00:00 | 00:00:00 | |
| 9A1FER-3 | 2026-09-01 13:00:30 | 46.19907 | 15.45006 | 84° | 68km/h | 16285m | -25.5m/s | 0°C | 0% | 0hPa | 0V | 00:00:00 | 00:00:00 | 00:00:00 | |
| PETON7-10 | 2026-09-01 13:00:27 | 46.19898 | 15.44935 | 78° | 66km/h | 16362m | -25.7m/s | 0°C | 0% | 0hPa | 0V | 00:00:00 | 00:00:00 | 00:00:00 | |
| 9A1FER-15 | 2026-09-01 13:00:26 | 46.19895 | 15.44911 | 80° | 66km/h | 16387m | -25.1m/s | 0°C | 0% | 0hPa | 0V | 00:00:00 | 00:00:00 | 00:00:00 | |
| 9A1FER-3 | 2026-09-01 13:00:16 | 46.19862 | 15.44643 | 85° | 51km/h | 16670m | -25.5m/s | 0°C | 0% | 0hPa | 0V | 00:00:00 | 00:00:00 | 00:00:00 | |
| 9A1FER-15 | 2026-09-01 13:00:11 | 46.19861 | 15.44559 | 92° | 46km/h | 16774m | -26.6m/s | 0°C | 0% | 0hPa | 0V | 00:00:00 | 00:00:00 | 00:00:00 | |
| PETON7-10 | 2026-09-01 13:00:10 | 46.19862 | 15.44540 | 99° | 46km/h | 16801m | -25.6m/s | 0°C | 0% | 0hPa | 0V | 00:00:00 | 00:00:00 | 00:00:00 | |
| 9A1FER-3 | 2026-09-01 13:00:00 | 46.19880 | 15.44370 | 97° | 33km/h | 17065m | -26.7m/s | 0°C | 0% | 0hPa | 0V | 00:00:00 | 00:00:00 | 00:00:00 | |
| 9A1FER-15 | 2026-09-01 12:59:56 | 46.19887 | 15.44311 | 101° | 31km/h | 17174m | -27.1m/s | 0°C | 0% | 0hPa | 0V | 00:00:00 | 00:00:00 | 00:00:00 | |
| PETON7-10 | 2026-09-01 12:59:55 | 46.19889 | 15.44298 | 104° | 31km/h | 17201m | -27.0m/s | 0°C | 0% | 0hPa | 0V | 00:00:00 | 00:00:00 | 00:00:00 | |
| 9A1FER-3 | 2026-09-01 12:59:45 | 46.19878 | 15.44199 | 59° | 33km/h | 17470m | -27.1m/s | 0°C | 0% | 0hPa | 0V | 00:00:00 | 00:00:00 | 00:00:00 | |
| 9A1FER-15 | 2026-09-01 12:59:41 | 46.19860 | 15.44158 | 62° | 33km/h | 17579m | -27.5m/s | 0°C | 0% | 0hPa | 0V | 00:00:00 | 00:00:00 | 00:00:00 | |
| PETON7-10 | 2026-09-01 12:59:38 | 46.19850 | 15.44123 | 70° | 31km/h | 17663m | -28.2m/s | 0°C | 0% | 0hPa | 0V | 00:00:00 | 00:00:00 | 00:00:00 | |
| 9A1FER-3 | 2026-09-01 12:59:31 | 46.19843 | 15.44028 | 103° | 20km/h | 17894m | -29.0m/s | 0°C | 0% | 0hPa | 0V | 00:00:00 | 00:00:00 | 00:00:00 | |
| 9A1FER-15 | 2026-09-01 12:59:27 | 46.19852 | 15.43983 | 115° | 16km/h | 18011m | -29.5m/s | 0°C | 0% | 0hPa | 0V | 00:00:00 | 00:00:00 | 00:00:00 | |
| PETON7-10 | 2026-09-01 12:59:23 | 46.19860 | 15.43959 | 106° | 16km/h | 18101m | -30.0m/s | 0°C | 0% | 0hPa | 0V | 00:00:00 | 00:00:00 | 00:00:00 | |
| 9A1FER-3 | 2026-09-01 12:59:15 | 46.19859 | 15.43927 | 42° | 20km/h | 18340m | -29.3m/s | 0°C | 0% | 0hPa | 0V | 00:00:00 | 00:00:00 | 00:00:00 | |
| 9A1FER-15 | 2026-09-01 12:59:11 | 46.19844 | 15.43911 | 30° | 22km/h | 18462m | -30.7m/s | 0°C | 0% | 0hPa | 0V | 00:00:00 | 00:00:00 | 00:00:00 | |
| PETON7-10 | 2026-09-01 12:59:08 | 46.19830 | 15.43895 | 48° | 18km/h | 18555m | -30.6m/s | 0°C | 0% | 0hPa | 0V | 00:00:00 | 00:00:00 | 00:00:00 | |
| 9A1FER-3 | 2026-09-01 12:59:00 | 46.19810 | 15.43840 | 74° | 20km/h | 18800m | -31.2m/s | 0°C | 0% | 0hPa | 0V | 00:00:00 | 00:00:00 | 00:00:00 | |
| 9A1FER-15 | 2026-09-01 12:58:57 | 46.19805 | 15.43814 | 76° | 22km/h | 18927m | -32.2m/s | 0°C | 0% | 0hPa | 0V | 00:00:00 | 00:00:00 | 00:00:00 | |
| PETON7-10 | 2026-09-01 12:58:51 | 46.19794 | 15.43787 | 40° | 24km/h | 19085m | -31.4m/s | 0°C | 0% | 0hPa | 0V | 00:00:00 | 00:00:00 | 00:00:00 | |
| 9A1FER-3 | 2026-09-01 12:58:45 | 46.19768 | 15.43754 | 43° | 22km/h | 19276m | -32.5m/s | 0°C | 0% | 0hPa | 0V | 00:00:00 | 00:00:00 | 00:00:00 | |
| 9A1FER-15 | 2026-09-01 12:58:41 | 46.19749 | 15.43723 | 58° | 18km/h | 19405m | -32.6m/s | 0°C | 0% | 0hPa | 0V | 00:00:00 | 00:00:00 | 00:00:00 | |
| PETON7-10 | 2026-09-01 12:58:36 | 46.19735 | 15.43684 | 68° | 16km/h | 19569m | -33.4m/s | 0°C | 0% | 0hPa | 0V | 00:00:00 | 00:00:00 | 00:00:00 | |
| 9A1FER-3 | 2026-09-01 12:58:31 | 46.19732 | 15.43653 | 92° | 16km/h | 19771m | -33.9m/s | 0°C | 0% | 0hPa | 0V | 00:00:00 | 00:00:00 | 00:00:00 | |
| 9A1FER-15 | 2026-09-01 12:58:26 | 46.19727 | 15.43635 | 62° | 18km/h | 19907m | -32.0m/s | 0°C | 0% | 0hPa | 0V | 00:00:00 | 00:00:00 | 00:00:00 | |
| PETON7-10 | 2026-09-01 12:58:21 | 46.19709 | 15.43613 | 43° | 16km/h | 20076m | -34.7m/s | 0°C | 0% | 0hPa | 0V | 00:00:00 | 00:00:00 | 00:00:00 | |
| 9A1FER-3 | 2026-09-01 12:58:15 | 46.19689 | 15.43589 | 44° | 15km/h | 20286m | -34.8m/s | 0°C | 0% | 0hPa | 0V | 00:00:00 | 00:00:00 | 00:00:00 | |
| 9A1FER-15 | 2026-09-01 12:58:11 | 46.19676 | 15.43574 | 41° | 13km/h | 20427m | -35.5m/s | 0°C | 0% | 0hPa | 0V | 00:00:00 | 00:00:00 | 00:00:00 | |
| PETON7-10 | 2026-09-01 12:58:06 | 46.19668 | 15.43554 | 92° | 13km/h | 20606m | -36.2m/s | 0°C | 0% | 0hPa | 0V | 00:00:00 | 00:00:00 | 00:00:00 | |
| 9A1FER-3 | 2026-09-01 12:58:00 | 46.19673 | 15.43525 | 120° | 15km/h | 20821m | -36.2m/s | 0°C | 0% | 0hPa | 0V | 00:00:00 | 00:00:00 | 00:00:00 | |
| 9A1FER-15 | 2026-09-01 12:57:56 | 46.19672 | 15.43512 | 32° | 18km/h | 20968m | -36.8m/s | 0°C | 0% | 0hPa | 0V | 00:00:00 | 00:00:00 | 00:00:00 | |
| PETON7-10 | 2026-09-01 12:57:50 | 46.19651 | 15.43492 | 41° | 16km/h | 21197m | -37.4m/s | 0°C | 0% | 0hPa | 0V | 00:00:00 | 00:00:00 | 00:00:00 | |
| 9A1FER-3 | 2026-09-01 12:57:45 | 46.19633 | 15.43466 | 64° | 15km/h | 21386m | -37.8m/s | 0°C | 0% | 0hPa | 0V | 00:00:00 | 00:00:00 | 00:00:00 | |
| 9A1FER-15 | 2026-09-01 12:57:41 | 46.19625 | 15.43441 | 70° | 13km/h | 21541m | -39.4m/s | 0°C | 0% | 0hPa | 0V | 00:00:00 | 00:00:00 | 00:00:00 | |
| PETON7-10 | 2026-09-01 12:57:35 | 46.19611 | 15.43425 | 1° | 15km/h | 21782m | -40.6m/s | 0°C | 0% | 0hPa | 0V | 00:00:00 | 00:00:00 | 00:00:00 | |
| 9A1FER-3 | 2026-09-01 12:57:30 | 46.19597 | 15.43422 | 23° | 15km/h | 21982m | -40.9m/s | 0°C | 0% | 0hPa | 0V | 00:00:00 | 00:00:00 | 00:00:00 | |
| 9A1FER-15 | 2026-09-01 12:57:26 | 46.19582 | 15.43415 | 24° | 13km/h | 22150m | -42.0m/s | 0°C | 0% | 0hPa | 0V | 00:00:00 | 00:00:00 | 00:00:00 | |
| PETON7-10 | 2026-09-01 12:57:20 | 46.19559 | 15.43401 | 17° | 9km/h | 22395m | -39.2m/s | 0°C | 0% | 0hPa | 0V | 00:00:00 | 00:00:00 | 00:00:00 | |
| 9A1FER-3 | 2026-09-01 12:57:15 | 46.19548 | 15.43403 | 347° | 9km/h | 22598m | -42.7m/s | 0°C | 0% | 0hPa | 0V | 00:00:00 | 00:00:00 | 00:00:00 | |
| 9A1FER-15 | 2026-09-01 12:57:11 | 46.19541 | 15.43409 | 303° | 9km/h | 22773m | -43.6m/s | 0°C | 0% | 0hPa | 0V | 00:00:00 | 00:00:00 | 00:00:00 | |
| PETON7-10 | 2026-09-01 12:57:04 | 46.19535 | 15.43402 | 151° | 7km/h | 23077m | -44.4m/s | 0°C | 0% | 0hPa | 0V | 00:00:00 | 00:00:00 | 00:00:00 | |
| 9A1FER-3 | 2026-09-01 12:57:00 | 46.19546 | 15.43395 | 181° | 5km/h | 23249m | -42.5m/s | 0°C | 0% | 0hPa | 0V | 00:00:00 | 00:00:00 | 00:00:00 | |
| 9A1FER-15 | 2026-09-01 12:56:56 | 46.19554 | 15.43394 | 153° | 7km/h | 23426m | -44.8m/s | 0°C | 0% | 0hPa | 0V | 00:00:00 | 00:00:00 | 00:00:00 | |
| PETON7-10 | 2026-09-01 12:56:48 | 46.19556 | 15.43385 | 217° | 15km/h | 23798m | -48.0m/s | 0°C | 0% | 0hPa | 0V | 00:00:00 | 00:00:00 | 00:00:00 | |
| 9A1FER-3 | 2026-09-01 12:56:45 | 46.19560 | 15.43386 | 219° | 15km/h | 23943m | -48.9m/s | 0°C | 0% | 0hPa | 0V | 00:00:00 | 00:00:00 | 00:00:00 | |
| 9A1FER-15 | 2026-09-01 12:56:41 | 46.19567 | 15.43399 | 253° | 16km/h | 24147m | -52.4m/s | 0°C | 0% | 0hPa | 0V | 00:00:00 | 00:00:00 | 00:00:00 | |
| 9A1FER-10 | 2026-09-01 12:56:39 | 46.19568 | 15.43407 | 275° | 18km/h | 24252m | -53.1m/s | 0°C | 0% | 0hPa | 0V | 00:00:00 | 00:00:00 | 00:00:00 | |
| 9A1FER-3 | 2026-09-01 12:56:30 | 46.19542 | 15.43438 | 348° | 18km/h | 24729m | -51.2m/s | 0°C | 0% | 0hPa | 0V | 00:00:00 | 00:00:00 | 00:00:00 | |
| 9A1FER-15 | 2026-09-01 12:56:26 | 46.19521 | 15.43443 | 358° | 16km/h | 24923m | -46.5m/s | 0°C | 0% | 0hPa | 0V | 00:00:00 | 00:00:00 | 00:00:00 | |
| 9A1FER-10 | 2026-09-01 12:56:24 | 46.19513 | 15.43442 | 10° | 16km/h | 25017m | -45.5m/s | 0°C | 0% | 0hPa | 0V | 00:00:00 | 00:00:00 | 00:00:00 | |
| PETON7-10 | 2026-09-01 12:56:15 | 46.19475 | 15.43439 | 337° | 15km/h | 25387m | -25.0m/s | 0°C | 0% | 0hPa | 0V | 00:00:00 | 00:00:00 | 00:00:00 | |
| 9A1FER-15 | 2026-09-01 12:56:11 | 46.19467 | 15.43456 | 297° | 15km/h | 25433m | 6.2m/s | 0°C | 0% | 0hPa | 0V | 00:00:00 | 00:00:00 | 00:00:00 | |
| 9A1FER-10 | 2026-09-01 12:56:09 | 46.19462 | 15.43466 | 308° | 13km/h | 25421m | 5.8m/s | 0°C | 0% | 0hPa | 0V | 00:00:00 | 00:00:00 | 00:00:00 | |
| 9A1FER-3 | 2026-09-01 12:56:00 | 46.19444 | 15.43498 | 276° | 11km/h | 25371m | 5.5m/s | 0°C | 0% | 0hPa | 0V | 00:00:00 | 00:00:00 | 00:00:00 | |
| PETON7-10 | 2026-09-01 12:55:59 | 46.19444 | 15.43503 | 259° | 11km/h | 25366m | 4.1m/s | 0°C | 0% | 0hPa | 0V | 00:00:00 | 00:00:00 | 00:00:00 | |
| 9A1FER-15 | 2026-09-01 12:55:57 | 46.19444 | 15.43512 | 40° | 11km/h | 25350m | 5.6m/s | 0°C | 0% | 0hPa | 0V | 00:00:00 | 00:00:00 | 00:00:00 | |
| 9A1FER-10 | 2026-09-01 12:55:54 | 46.19443 | 15.43508 | 108° | 11km/h | 25339m | 6.0m/s | 0°C | 0% | 0hPa | 0V | 00:00:00 | 00:00:00 | 00:00:00 | |
| 9A1FER-3 | 2026-09-01 12:55:45 | 46.19440 | 15.43545 | 338° | 9km/h | 25290m | 6.3m/s | 0°C | 0% | 0hPa | 0V | 00:00:00 | 00:00:00 | 00:00:00 | |
| PETON7-10 | 2026-09-01 12:55:43 | 46.19435 | 15.43545 | 6° | 7km/h | 25280m | 4.8m/s | 0°C | 0% | 0hPa | 0V | 00:00:00 | 00:00:00 | 00:00:00 | |
| 9A1FER-15 | 2026-09-01 12:55:41 | 46.19434 | 15.43547 | 256° | 9km/h | 25269m | 4.7m/s | 0°C | 0% | 0hPa | 0V | 00:00:00 | 00:00:00 | 00:00:00 | |
| 9A1FER-10 | 2026-09-01 12:55:39 | 46.19434 | 15.43557 | 286° | 9km/h | 25259m | 5.8m/s | 0°C | 0% | 0hPa | 0V | 00:00:00 | 00:00:00 | 00:00:00 | |
| 9A1FER-3 | 2026-09-01 12:55:30 | 46.19420 | 15.43560 | 341° | 11km/h | 25212m | 6.1m/s | 0°C | 0% | 0hPa | 0V | 00:00:00 | 00:00:00 | 00:00:00 | |
| PETON7-10 | 2026-09-01 12:55:28 | 46.19418 | 15.43561 | 352° | 9km/h | 25201m | 5.0m/s | 0°C | 0% | 0hPa | 0V | 00:00:00 | 00:00:00 | 00:00:00 | |
| 9A1FER-15 | 2026-09-01 12:55:26 | 46.19414 | 15.43561 | 2° | 11km/h | 25190m | 5.0m/s | 0°C | 0% | 0hPa | 0V | 00:00:00 | 00:00:00 | 00:00:00 | |
| 9A1FER-10 | 2026-09-01 12:55:23 | 46.19409 | 15.43558 | 43° | 13km/h | 25173m | 4.2m/s | 0°C | 0% | 0hPa | 0V | 00:00:00 | 00:00:00 | 00:00:00 | |
| 9A1FER-3 | 2026-09-01 12:55:15 | 46.19382 | 15.43560 | 349° | 15km/h | 25130m | 4.0m/s | 0°C | 0% | 0hPa | 0V | 00:00:00 | 00:00:00 | 00:00:00 | |
| PETON7-10 | 2026-09-01 12:55:13 | 46.19377 | 15.43560 | 45° | 15km/h | 25119m | 5.7m/s | 0°C | 0% | 0hPa | 0V | 00:00:00 | 00:00:00 | 00:00:00 | |
| 9A1FER-15 | 2026-09-01 12:55:11 | 46.19375 | 15.43558 | 18° | 18km/h | 25109m | 4.7m/s | 0°C | 0% | 0hPa | 0V | 00:00:00 | 00:00:00 | 00:00:00 | |
| 9A1FER-10 | 2026-09-01 12:55:08 | 46.19359 | 15.43557 | 3° | 20km/h | 25092m | 4.5m/s | 0°C | 0% | 0hPa | 0V | 00:00:00 | 00:00:00 | 00:00:00 | |
| 9A1FER-3 | 2026-09-01 12:55:00 | 46.19332 | 15.43554 | 3° | 24km/h | 25050m | 3.7m/s | 0°C | 0% | 0hPa | 0V | 00:00:00 | 00:00:00 | 00:00:00 | |
| PETON7-10 | 2026-09-01 12:54:58 | 46.19322 | 15.43551 | 14° | 26km/h | 25039m | 6.6m/s | 0°C | 0% | 0hPa | 0V | 00:00:00 | 00:00:00 | 00:00:00 | |
| 9A1FER-15 | 2026-09-01 12:54:56 | 46.19307 | 15.43544 | 26° | 24km/h | 25029m | 5.7m/s | 0°C | 0% | 0hPa | 0V | 00:00:00 | 00:00:00 | 00:00:00 | |
| 9A1FER-10 | 2026-09-01 12:54:53 | 46.19294 | 15.43529 | 44° | 22km/h | 25013m | 5.8m/s | 0°C | 0% | 0hPa | 0V | 00:00:00 | 00:00:00 | 00:00:00 | |
| 9A1FER-3 | 2026-09-01 12:54:45 | 46.19249 | 15.43533 | 3° | 24km/h | 24970m | 3.4m/s | 0°C | 0% | 0hPa | 0V | 00:00:00 | 00:00:00 | 00:00:00 | |
| PETON7-10 | 2026-09-01 12:54:43 | 46.19234 | 15.43530 | 13° | 18km/h | 24959m | 6.5m/s | 0°C | 0% | 0hPa | 0V | 00:00:00 | 00:00:00 | 00:00:00 | |
| 9A1FER-15 | 2026-09-01 12:54:41 | 46.19228 | 15.43528 | 13° | 22km/h | 24947m | 5.6m/s | 0°C | 0% | 0hPa | 0V | 00:00:00 | 00:00:00 | 00:00:00 | |
| 9A1FER-10 | 2026-09-01 12:54:38 | 46.19215 | 15.43529 | 342° | 26km/h | 24932m | 5.4m/s | 0°C | 0% | 0hPa | 0V | 00:00:00 | 00:00:00 | 00:00:00 | |
| 9A1FER-3 | 2026-09-01 12:54:30 | 46.19169 | 15.43544 | 359° | 26km/h | 24892m | 5.2m/s | 0°C | 0% | 0hPa | 0V | 00:00:00 | 00:00:00 | 00:00:00 | |
| PETON7-10 | 2026-09-01 12:54:28 | 46.19165 | 15.43552 | 303° | 29km/h | 24881m | 5.5m/s | 0°C | 0% | 0hPa | 0V | 00:00:00 | 00:00:00 | 00:00:00 | |
| 9A1FER-15 | 2026-09-01 12:54:26 | 46.19155 | 15.43566 | 330° | 29km/h | 24870m | 5.6m/s | 0°C | 0% | 0hPa | 0V | 00:00:00 | 00:00:00 | 00:00:00 | |
| 9A1FER-10 | 2026-09-01 12:54:23 | 46.19132 | 15.43578 | 340° | 27km/h | 24855m | 5.6m/s | 0°C | 0% | 0hPa | 0V | 00:00:00 | 00:00:00 | 00:00:00 | |
| 9A1FER-3 | 2026-09-01 12:54:15 | 46.19088 | 15.43620 | 324° | 26km/h | 24810m | 5.6m/s | 0°C | 0% | 0hPa | 0V | 00:00:00 | 00:00:00 | 00:00:00 | |
| PETON7-10 | 2026-09-01 12:54:13 | 46.19072 | 15.43634 | 328° | 24km/h | 24800m | 5.2m/s | 0°C | 0% | 0hPa | 0V | 00:00:00 | 00:00:00 | 00:00:00 | |
| OM5KV | 2026-09-01 12:54:12 | 46.19065 | 15.43641 | 325° | 27km/h | 24794m | 5.7m/s | 0°C | 0% | 0hPa | 0V | 00:00:00 | 00:00:00 | 00:00:00 | |
| 9A1FER-15 | 2026-09-01 12:54:11 | 46.19060 | 15.43646 | 321° | 20km/h | 24789m | 5.4m/s | 0°C | 0% | 0hPa | 0V | 00:00:00 | 00:00:00 | 00:00:00 | |
| 9A1FER-10 | 2026-09-01 12:54:08 | 46.19049 | 15.43650 | 4° | 18km/h | 24771m | 4.8m/s | 0°C | 0% | 0hPa | 0V | 00:00:00 | 00:00:00 | 00:00:00 | |
| OM5KV | 2026-09-01 12:54:05 | 46.19037 | 15.43657 | 311° | 20km/h | 24755m | 4.9m/s | 0°C | 0% | 0hPa | 0V | 00:00:00 | 00:00:00 | 00:00:00 | |
| 9A1FER-3 | 2026-09-01 12:54:01 | 46.19013 | 15.43686 | 319° | 16km/h | 24729m | 6.3m/s | 0°C | 0% | 0hPa | 0V | 00:00:00 | 00:00:00 | 00:00:00 | |
| PETON7-10 | 2026-09-01 12:53:58 | 46.19006 | 15.43692 | 340° | 16km/h | 24717m | 7.2m/s | 0°C | 0% | 0hPa | 0V | 00:00:00 | 00:00:00 | 00:00:00 | |
| 9A1FER-15 | 2026-09-01 12:53:56 | 46.18999 | 15.43695 | 346° | 15km/h | 24705m | 4.8m/s | 0°C | 0% | 0hPa | 0V | 00:00:00 | 00:00:00 | 00:00:00 | |
| 9A1FER-10 | 2026-09-01 12:53:53 | 46.18992 | 15.43705 | 306° | 16km/h | 24688m | 5.4m/s | 0°C | 0% | 0hPa | 0V | 00:00:00 | 00:00:00 | 00:00:00 | |
| 9A1FER-3 | 2026-09-01 12:53:45 | 46.18967 | 15.43741 | 325° | 11km/h | 24644m | 6.3m/s | 0°C | 0% | 0hPa | 0V | 00:00:00 | 00:00:00 | 00:00:00 | |
| PETON7-10 | 2026-09-01 12:53:43 | 46.18967 | 15.43746 | 261° | 11km/h | 24633m | 4.2m/s | 0°C | 0% | 0hPa | 0V | 00:00:00 | 00:00:00 | 00:00:00 | |
| 9A1FER-15 | 2026-09-01 12:53:41 | 46.18965 | 15.43756 | 317° | 13km/h | 24623m | 6.0m/s | 0°C | 0% | 0hPa | 0V | 00:00:00 | 00:00:00 | 00:00:00 | |
| 9A1FER-10 | 2026-09-01 12:53:38 | 46.18953 | 15.43768 | 309° | 11km/h | 24606m | 6.5m/s | 0°C | 0% | 0hPa | 0V | 00:00:00 | 00:00:00 | 00:00:00 | |
| OM5KV | 2026-09-01 12:53:35 | 46.18952 | 15.43779 | 280° | 7km/h | 24590m | 5.7m/s | 0°C | 0% | 0hPa | 0V | 00:00:00 | 00:00:00 | 00:00:00 | |
| 9A1FER-3 | 2026-09-01 12:53:30 | 46.18955 | 15.43792 | 264° | 16km/h | 24564m | 4.6m/s | 0°C | 0% | 0hPa | 0V | 00:00:00 | 00:00:00 | 00:00:00 | |
| PETON7-10 | 2026-09-01 12:53:28 | 46.18953 | 15.43800 | 306° | 18km/h | 24553m | 4.9m/s | 0°C | 0% | 0hPa | 0V | 00:00:00 | 00:00:00 | 00:00:00 | |
| 9A1FER-15 | 2026-09-01 12:53:26 | 46.18967 | 15.43810 | 270° | 18km/h | 24542m | 5.3m/s | 0°C | 0% | 0hPa | 0V | 00:00:00 | 00:00:00 | 00:00:00 | |
| 9A1FER-10 | 2026-09-01 12:53:23 | 46.18954 | 15.43820 | 188° | 20km/h | 24526m | 5.5m/s | 0°C | 0% | 0hPa | 0V | 00:00:00 | 00:00:00 | 00:00:00 | |
| 9A1FER-3 | 2026-09-01 12:53:16 | 46.18954 | 15.43881 | 256° | 18km/h | 24482m | 4.4m/s | 0°C | 0% | 0hPa | 0V | 00:00:00 | 00:00:00 | 00:00:00 | |
| PETON7-10 | 2026-09-01 12:53:15 | 46.18958 | 15.43890 | 202° | 18km/h | 24469m | 5.9m/s | 0°C | 0% | 0hPa | 0V | 00:00:00 | 00:00:00 | 00:00:00 | |
| 9A1FER-15 | 2026-09-01 12:53:11 | 46.18963 | 15.43893 | 216° | 20km/h | 24459m | 5.8m/s | 0°C | 0% | 0hPa | 0V | 00:00:00 | 00:00:00 | 00:00:00 | |
| 9A1FER-10 | 2026-09-01 12:53:08 | 46.18968 | 15.43917 | 269° | 18km/h | 24443m | 5.6m/s | 0°C | 0% | 0hPa | 0V | 00:00:00 | 00:00:00 | 00:00:00 | |
| 9A1FER-3 | 2026-09-01 12:53:00 | 46.18985 | 15.43963 | 247° | 16km/h | 24400m | 4.9m/s | 0°C | 0% | 0hPa | 0V | 00:00:00 | 00:00:00 | 00:00:00 | |
| PETON7-10 | 2026-09-01 12:52:58 | 46.18988 | 15.43974 | 245° | 15km/h | 24388m | 5.2m/s | 0°C | 0% | 0hPa | 0V | 00:00:00 | 00:00:00 | 00:00:00 | |
| 9A1FER-15 | 2026-09-01 12:52:56 | 46.18993 | 15.43987 | 233° | 15km/h | 24377m | 6.0m/s | 0°C | 0% | 0hPa | 0V | 00:00:00 | 00:00:00 | 00:00:00 | |
| 9A1FER-10 | 2026-09-01 12:52:54 | 46.19004 | 15.43997 | 210° | 15km/h | 24361m | 5.7m/s | 0°C | 0% | 0hPa | 0V | 00:00:00 | 00:00:00 | 00:00:00 | |
| 9A1FER-3 | 2026-09-01 12:52:45 | 46.19028 | 15.44022 | 232° | 13km/h | 24318m | 6.3m/s | 0°C | 0% | 0hPa | 0V | 00:00:00 | 00:00:00 | 00:00:00 | |
| PETON7-10 | 2026-09-01 12:52:43 | 46.19032 | 15.44027 | 219° | 13km/h | 24307m | 5.2m/s | 0°C | 0% | 0hPa | 0V | 00:00:00 | 00:00:00 | 00:00:00 | |
| 9A1FER-15 | 2026-09-01 12:52:41 | 46.19039 | 15.44034 | 208° | 13km/h | 24296m | 4.7m/s | 0°C | 0% | 0hPa | 0V | 00:00:00 | 00:00:00 | 00:00:00 | |
| 9A1FER-10 | 2026-09-01 12:52:38 | 46.19048 | 15.44039 | 176° | 13km/h | 24279m | 4.9m/s | 0°C | 0% | 0hPa | 0V | 00:00:00 | 00:00:00 | 00:00:00 | |
| 9A1FER-3 | 2026-09-01 12:52:30 | 46.19051 | 15.44066 | 198° | 16km/h | 24234m | 6.0m/s | 0°C | 0% | 0hPa | 0V | 00:00:00 | 00:00:00 | 00:00:00 | |
| 9A1FER-15 | 2026-09-01 12:52:27 | 46.19063 | 15.44070 | 316° | 16km/h | 24214m | 4.9m/s | 0°C | 0% | 0hPa | 0V | 00:00:00 | 00:00:00 | 00:00:00 | |
| 9A1FER-3 | 2026-09-01 12:52:16 | 46.19076 | 15.44123 | 307° | 13km/h | 24153m | 6.3m/s | 0°C | 0% | 0hPa | 0V | 00:00:00 | 00:00:00 | 00:00:00 | |
| PETON7-10 | 2026-09-01 12:52:12 | 46.19069 | 15.44141 | 271° | 13km/h | 24136m | 4.3m/s | 0°C | 0% | 0hPa | 0V | 00:00:00 | 00:00:00 | 00:00:00 | |
| 9A1FER-15 | 2026-09-01 12:52:11 | 46.19070 | 15.44148 | 252° | 13km/h | 24131m | 4.1m/s | 0°C | 0% | 0hPa | 0V | 00:00:00 | 00:00:00 | 00:00:00 | |
| 9A1FER-10 | 2026-09-01 12:52:07 | 46.19079 | 15.44159 | 231° | 11km/h | 24110m | 5.6m/s | 0°C | 0% | 0hPa | 0V | 00:00:00 | 00:00:00 | 00:00:00 | |
| 9A1FER-3 | 2026-09-01 12:52:00 | 46.19084 | 15.44184 | 217° | 11km/h | 24071m | 5.1m/s | 0°C | 0% | 0hPa | 0V | 00:00:00 | 00:00:00 | 00:00:00 | |
| PETON7-10 | 2026-09-01 12:51:57 | 46.19095 | 15.44184 | 168° | 9km/h | 24055m | 4.1m/s | 0°C | 0% | 0hPa | 0V | 00:00:00 | 00:00:00 | 00:00:00 | |
| 9A1FER-15 | 2026-09-01 12:51:56 | 46.19098 | 15.44184 | 191° | 9km/h | 24050m | 6.3m/s | 0°C | 0% | 0hPa | 0V | 00:00:00 | 00:00:00 | 00:00:00 | |
| 9A1FER-10 | 2026-09-01 12:51:52 | 46.19106 | 15.44192 | 158° | 9km/h | 24029m | 5.6m/s | 0°C | 0% | 0hPa | 0V | 00:00:00 | 00:00:00 | 00:00:00 | |
| 9A1FER-3 | 2026-09-01 12:51:45 | 46.19121 | 15.44192 | 193° | 7km/h | 23990m | 7.4m/s | 0°C | 0% | 0hPa | 0V | 00:00:00 | 00:00:00 | 00:00:00 | |
| PETON7-10 | 2026-09-01 12:51:42 | 46.19126 | 15.44190 | 142° | 9km/h | 23972m | 5.4m/s | 0°C | 0% | 0hPa | 0V | 00:00:00 | 00:00:00 | 00:00:00 | |
| 9A1FER-15 | 2026-09-01 12:51:41 | 46.19128 | 15.44188 | 158° | 9km/h | 23967m | 5.3m/s | 0°C | 0% | 0hPa | 0V | 00:00:00 | 00:00:00 | 00:00:00 | |
| OM5KV | 2026-09-01 12:51:38 | 46.19136 | 15.44189 | 182° | 11km/h | 23951m | 5.8m/s | 0°C | 0% | 0hPa | 0V | 00:00:00 | 00:00:00 | 00:00:00 | |
| OM5KV | 2026-09-01 12:51:33 | 46.19144 | 15.44188 | 232° | 4km/h | 23918m | 5.6m/s | 0°C | 0% | 0hPa | 0V | 00:00:00 | 00:00:00 | 00:00:00 | |
| 9A1FER-3 | 2026-09-01 12:51:30 | 46.19146 | 15.44185 | 120° | 7km/h | 23907m | 5.0m/s | 0°C | 0% | 0hPa | 0V | 00:00:00 | 00:00:00 | 00:00:00 | |
| PETON7-10 | 2026-09-01 12:51:27 | 46.19151 | 15.44178 | 164° | 7km/h | 23890m | 5.0m/s | 0°C | 0% | 0hPa | 0V | 00:00:00 | 00:00:00 | 00:00:00 | |
| 9A1FER-15 | 2026-09-01 12:51:26 | 46.19153 | 15.44177 | 159° | 7km/h | 23884m | 6.9m/s | 0°C | 0% | 0hPa | 0V | 00:00:00 | 00:00:00 | 00:00:00 | |
| 9A1FER-10 | 2026-09-01 12:51:22 | 46.19154 | 15.44176 | 340° | 9km/h | 23862m | 3.6m/s | 0°C | 0% | 0hPa | 0V | 00:00:00 | 00:00:00 | 00:00:00 | |
| OM5KV | 2026-09-01 12:51:20 | 46.19150 | 15.44176 | 60° | 5km/h | 23852m | 5.8m/s | 0°C | 0% | 0hPa | 0V | 00:00:00 | 00:00:00 | 00:00:00 | |
| 9A1FER-3 | 2026-09-01 12:51:15 | 46.19155 | 15.44169 | 94° | 11km/h | 23826m | 4.6m/s | 0°C | 0% | 0hPa | 0V | 00:00:00 | 00:00:00 | 00:00:00 | |
| OM5KV | 2026-09-01 12:51:13 | 46.19152 | 15.44166 | 359° | 15km/h | 23815m | 6.4m/s | 0°C | 0% | 0hPa | 0V | 00:00:00 | 00:00:00 | 00:00:00 | |
| PETON7-10 | 2026-09-01 12:51:12 | 46.19148 | 15.44167 | 337° | 11km/h | 23810m | 4.4m/s | 0°C | 0% | 0hPa | 0V | 00:00:00 | 00:00:00 | 00:00:00 | |
| 9A1FER-15 | 2026-09-01 12:51:11 | 46.19144 | 15.44169 | 345° | 11km/h | 23805m | 5.7m/s | 0°C | 0% | 0hPa | 0V | 00:00:00 | 00:00:00 | 00:00:00 | |
| OM5KV | 2026-09-01 12:51:09 | 46.19139 | 15.44169 | 33° | 9km/h | 23794m | 5.1m/s | 0°C | 0% | 0hPa | 0V | 00:00:00 | 00:00:00 | 00:00:00 | |
| OM5KV | 2026-09-01 12:51:08 | 46.19137 | 15.44167 | 36° | 7km/h | 23788m | 5.0m/s | 0°C | 0% | 0hPa | 0V | 00:00:00 | 00:00:00 | 00:00:00 | |
| 9A1FER-10 | 2026-09-01 12:51:07 | 46.19136 | 15.44167 | 18° | 11km/h | 23783m | 5.2m/s | 0°C | 0% | 0hPa | 0V | 00:00:00 | 00:00:00 | 00:00:00 | |
| OM5KV | 2026-09-01 12:51:02 | 46.19129 | 15.44151 | 11° | 13km/h | 23755m | 6.5m/s | 0°C | 0% | 0hPa | 0V | 00:00:00 | 00:00:00 | 00:00:00 | |
| 9A1FER-3 | 2026-09-01 12:51:00 | 46.19122 | 15.44150 | 10° | 13km/h | 23744m | 6.1m/s | 0°C | 0% | 0hPa | 0V | 00:00:00 | 00:00:00 | 00:00:00 | |
| PETON7-10 | 2026-09-01 12:50:57 | 46.19113 | 15.44149 | 353° | 13km/h | 23727m | 4.8m/s | 0°C | 0% | 0hPa | 0V | 00:00:00 | 00:00:00 | 00:00:00 | |
| 9A1FER-15 | 2026-09-01 12:50:56 | 46.19110 | 15.44149 | 17° | 13km/h | 23723m | 4.7m/s | 0°C | 0% | 0hPa | 0V | 00:00:00 | 00:00:00 | 00:00:00 | |
| 9A1FER-10 | 2026-09-01 12:50:52 | 46.19104 | 15.44138 | 13° | 13km/h | 23701m | 5.6m/s | 0°C | 0% | 0hPa | 0V | 00:00:00 | 00:00:00 | 00:00:00 | |
| OM5KV | 2026-09-01 12:50:50 | 46.19097 | 15.44138 | 4° | 15km/h | 23690m | 6.5m/s | 0°C | 0% | 0hPa | 0V | 00:00:00 | 00:00:00 | 00:00:00 | |
| 9A1FER-3 | 2026-09-01 12:50:45 | 46.19079 | 15.44140 | 354° | 11km/h | 23663m | 4.8m/s | 0°C | 0% | 0hPa | 0V | 00:00:00 | 00:00:00 | 00:00:00 | |
| PETON7-10 | 2026-09-01 12:50:42 | 46.19069 | 15.44134 | 30° | 9km/h | 23646m | 6.1m/s | 0°C | 0% | 0hPa | 0V | 00:00:00 | 00:00:00 | 00:00:00 | |
| 9A1FER-15 | 2026-09-01 12:50:41 | 46.19066 | 15.44132 | 15° | 9km/h | 23641m | 4.2m/s | 0°C | 0% | 0hPa | 0V | 00:00:00 | 00:00:00 | 00:00:00 | |
| OM5KV | 2026-09-01 12:50:40 | 46.19063 | 15.44130 | 17° | 13km/h | 23637m | 4.9m/s | 0°C | 0% | 0hPa | 0V | 00:00:00 | 00:00:00 | 00:00:00 | |
| OM5KV | 2026-09-01 12:50:39 | 46.19060 | 15.44129 | 24° | 11km/h | 23631m | 5.3m/s | 0°C | 0% | 0hPa | 0V | 00:00:00 | 00:00:00 | 00:00:00 | |
| 9A1FER-10 | 2026-09-01 12:50:37 | 46.19055 | 15.44127 | 358° | 7km/h | 23622m | 5.8m/s | 0°C | 0% | 0hPa | 0V | 00:00:00 | 00:00:00 | 00:00:00 | |
| OM5KV | 2026-09-01 12:50:35 | 46.19047 | 15.44130 | 341° | 16km/h | 23611m | 3.8m/s | 0°C | 0% | 0hPa | 0V | 00:00:00 | 00:00:00 | 00:00:00 | |
| OM5KV | 2026-09-01 12:50:33 | 46.19042 | 15.44132 | 40° | 4km/h | 23600m | 5.3m/s | 0°C | 0% | 0hPa | 0V | 00:00:00 | 00:00:00 | 00:00:00 | |
| 9A1FER-3 | 2026-09-01 12:50:30 | 46.19041 | 15.44130 | 110° | 7km/h | 23584m | 4.2m/s | 0°C | 0% | 0hPa | 0V | 00:00:00 | 00:00:00 | 00:00:00 | |
| OM5KV | 2026-09-01 12:50:29 | 46.19041 | 15.44129 | 116° | 4km/h | 23578m | 6.6m/s | 0°C | 0% | 0hPa | 0V | 00:00:00 | 00:00:00 | 00:00:00 | |
| OM5KV | 2026-09-01 12:50:28 | 46.19042 | 15.44128 | 141° | 2km/h | 23574m | 3.6m/s | 0°C | 0% | 0hPa | 0V | 00:00:00 | 00:00:00 | 00:00:00 | |
| PETON7-10 | 2026-09-01 12:50:27 | 46.19042 | 15.44129 | 282° | 9km/h | 23569m | 5.5m/s | 0°C | 0% | 0hPa | 0V | 00:00:00 | 00:00:00 | 00:00:00 | |
| 9A1FER-15 | 2026-09-01 12:50:26 | 46.19041 | 15.44132 | 287° | 9km/h | 23563m | 5.8m/s | 0°C | 0% | 0hPa | 0V | 00:00:00 | 00:00:00 | 00:00:00 | |
| OM5KV | 2026-09-01 12:50:23 | 46.19040 | 15.44143 | 200° | 2km/h | 23548m | 5.7m/s | 0°C | 0% | 0hPa | 0V | 00:00:00 | 00:00:00 | 00:00:00 | |
| 9A1FER-10 | 2026-09-01 12:50:22 | 46.19041 | 15.44142 | 129° | 9km/h | 23542m | 4.7m/s | 0°C | 0% | 0hPa | 0V | 00:00:00 | 00:00:00 | 00:00:00 | |
| OM5KV | 2026-09-01 12:50:17 | 46.19046 | 15.44134 | 186° | 7km/h | 23516m | 4.9m/s | 0°C | 0% | 0hPa | 0V | 00:00:00 | 00:00:00 | 00:00:00 | |
| OM5KV | 2026-09-01 12:50:16 | 46.19048 | 15.44136 | 241° | 9km/h | 23510m | 7.1m/s | 0°C | 0% | 0hPa | 0V | 00:00:00 | 00:00:00 | 00:00:00 | |
| 9A1FER-3 | 2026-09-01 12:50:15 | 46.19049 | 15.44140 | 263° | 11km/h | 23504m | 4.7m/s | 0°C | 0% | 0hPa | 0V | 00:00:00 | 00:00:00 | 00:00:00 | |
| PETON7-10 | 2026-09-01 12:50:12 | 46.19052 | 15.44154 | 181° | 11km/h | 23491m | 6.0m/s | 0°C | 0% | 0hPa | 0V | 00:00:00 | 00:00:00 | 00:00:00 | |
| 9A1FER-15 | 2026-09-01 12:50:11 | 46.19053 | 15.44152 | 130° | 11km/h | 23485m | 5.3m/s | 0°C | 0% | 0hPa | 0V | 00:00:00 | 00:00:00 | 00:00:00 | |
| OM5KV | 2026-09-01 12:50:10 | 46.19055 | 15.44148 | 108° | 13km/h | 23480m | 6.2m/s | 0°C | 0% | 0hPa | 0V | 00:00:00 | 00:00:00 | 00:00:00 | |
| OM5KV | 2026-09-01 12:50:07 | 46.19057 | 15.44147 | 233° | 13km/h | 23459m | 5.5m/s | 0°C | 0% | 0hPa | 0V | 00:00:00 | 00:00:00 | 00:00:00 | |
| OM5KV | 2026-09-01 12:50:04 | 46.19060 | 15.44158 | 263° | 18km/h | 23449m | 6.9m/s | 0°C | 0% | 0hPa | 0V | 00:00:00 | 00:00:00 | 00:00:00 | |
| 9A1FER-3 | 2026-09-01 12:50:00 | 46.19066 | 15.44169 | 143° | 15km/h | 23427m | 4.6m/s | 0°C | 0% | 0hPa | 0V | 00:00:00 | 00:00:00 | 00:00:00 | |
| OM5KV | 2026-09-01 12:49:59 | 46.19068 | 15.44166 | 124° | 13km/h | 23422m | 6.4m/s | 0°C | 0% | 0hPa | 0V | 00:00:00 | 00:00:00 | 00:00:00 | |
| PETON7-10 | 2026-09-01 12:49:57 | 46.19071 | 15.44161 | 156° | 18km/h | 23411m | 5.4m/s | 0°C | 0% | 0hPa | 0V | 00:00:00 | 00:00:00 | 00:00:00 | |
| 9A1FER-15 | 2026-09-01 12:49:56 | 46.19073 | 15.44161 | 204° | 20km/h | 23406m | 5.1m/s | 0°C | 0% | 0hPa | 0V | 00:00:00 | 00:00:00 | 00:00:00 | |
| OM5KV | 2026-09-01 12:49:54 | 46.19078 | 15.44172 | 253° | 24km/h | 23396m | 7.4m/s | 0°C | 0% | 0hPa | 0V | 00:00:00 | 00:00:00 | 00:00:00 | |
| OM5KV | 2026-09-01 12:49:53 | 46.19080 | 15.44182 | 259° | 29km/h | 23389m | 4.7m/s | 0°C | 0% | 0hPa | 0V | 00:00:00 | 00:00:00 | 00:00:00 | |
| 9A1FER-10 | 2026-09-01 12:49:52 | 46.19082 | 15.44191 | 249° | 18km/h | 23385m | 3.8m/s | 0°C | 0% | 0hPa | 0V | 00:00:00 | 00:00:00 | 00:00:00 | |
| OM5KV | 2026-09-01 12:49:49 | 46.19093 | 15.44199 | 159° | 16km/h | 23370m | 5.2m/s | 0°C | 0% | 0hPa | 0V | 00:00:00 | 00:00:00 | 00:00:00 | |
| OM5KV | 2026-09-01 12:49:47 | 46.19098 | 15.44197 | 187° | 4km/h | 23360m | 4.1m/s | 0°C | 0% | 0hPa | 0V | 00:00:00 | 00:00:00 | 00:00:00 | |
| 9A1FER-3 | 2026-09-01 12:49:45 | 46.19101 | 15.44202 | 227° | 22km/h | 23351m | 6.1m/s | 0°C | 0% | 0hPa | 0V | 00:00:00 | 00:00:00 | 00:00:00 | |
| PETON7-10 | 2026-09-01 12:49:41 | 46.19122 | 15.44227 | 226° | 18km/h | 23329m | 5.3m/s | 0°C | 0% | 0hPa | 0V | 00:00:00 | 00:00:00 | 00:00:00 | |
| 9A1FER-10 | 2026-09-01 12:49:37 | 46.19137 | 15.44230 | 159° | 18km/h | 23307m | 4.7m/s | 0°C | 0% | 0hPa | 0V | 00:00:00 | 00:00:00 | 00:00:00 | |
| OM5KV | 2026-09-01 12:49:31 | 46.19167 | 15.44234 | 198° | 20km/h | 23275m | 5.9m/s | 0°C | 0% | 0hPa | 0V | 00:00:00 | 00:00:00 | 00:00:00 | |
| 9A1FER-3 | 2026-09-01 12:49:30 | 46.19171 | 15.44236 | 190° | 20km/h | 23269m | 5.9m/s | 0°C | 0% | 0hPa | 0V | 00:00:00 | 00:00:00 | 00:00:00 | |
| 9A1FER-15 | 2026-09-01 12:49:26 | 46.19185 | 15.44228 | 161° | 20km/h | 23247m | 4.4m/s | 0°C | 0% | 0hPa | 0V | 00:00:00 | 00:00:00 | 00:00:00 | |
| 9A1FER-10 | 2026-09-01 12:49:22 | 46.19207 | 15.44218 | 178° | 16km/h | 23224m | 5.3m/s | 0°C | 0% | 0hPa | 0V | 00:00:00 | 00:00:00 | 00:00:00 | |
| OM5KV | 2026-09-01 12:49:18 | 46.19221 | 15.44208 | 109° | 24km/h | 23204m | 4.4m/s | 0°C | 0% | 0hPa | 0V | 00:00:00 | 00:00:00 | 00:00:00 | |
| 9A1FER-3 | 2026-09-01 12:49:15 | 46.19232 | 15.44186 | 150° | 11km/h | 23188m | 4.6m/s | 0°C | 0% | 0hPa | 0V | 00:00:00 | 00:00:00 | 00:00:00 | |
| 9A1FER-15 | 2026-09-01 12:49:11 | 46.19244 | 15.44177 | 86° | 9km/h | 23167m | 4.3m/s | 0°C | 0% | 0hPa | 0V | 00:00:00 | 00:00:00 | 00:00:00 | |
| OM5KV | 2026-09-01 12:49:08 | 46.19249 | 15.44173 | 150° | 15km/h | 23152m | 4.9m/s | 0°C | 0% | 0hPa | 0V | 00:00:00 | 00:00:00 | 00:00:00 | |
| 9A1FER-10 | 2026-09-01 12:49:07 | 46.19251 | 15.44170 | 134° | 9km/h | 23146m | 6.4m/s | 0°C | 0% | 0hPa | 0V | 00:00:00 | 00:00:00 | 00:00:00 | |
| OM5KV | 2026-09-01 12:49:02 | 46.19263 | 15.44160 | 186° | 13km/h | 23118m | 3.9m/s | 0°C | 0% | 0hPa | 0V | 00:00:00 | 00:00:00 | 00:00:00 | |
| 9A1FER-3 | 2026-09-01 12:49:00 | 46.19267 | 15.44159 | 86° | 7km/h | 23108m | 5.5m/s | 0°C | 0% | 0hPa | 0V | 00:00:00 | 00:00:00 | 00:00:00 | |
| OM5KV | 2026-09-01 12:48:57 | 46.19267 | 15.44149 | 127° | 9km/h | 23092m | 4.9m/s | 0°C | 0% | 0hPa | 0V | 00:00:00 | 00:00:00 | 00:00:00 | |
| PETON7-10 | 2026-09-01 12:48:56 | 46.19268 | 15.44147 | 150° | 9km/h | 23088m | 4.1m/s | 0°C | 0% | 0hPa | 0V | 00:00:00 | 00:00:00 | 00:00:00 | |
| 9A1FER-10 | 2026-09-01 12:48:52 | 46.19266 | 15.44148 | 309° | 11km/h | 23067m | 5.6m/s | 0°C | 0% | 0hPa | 0V | 00:00:00 | 00:00:00 | 00:00:00 | |
| OM5KV | 2026-09-01 12:48:51 | 46.19266 | 15.44150 | 249° | 4km/h | 23062m | 4.7m/s | 0°C | 0% | 0hPa | 0V | 00:00:00 | 00:00:00 | 00:00:00 | |
| 9A1FER-3 | 2026-09-01 12:48:45 | 46.19256 | 15.44136 | 54° | 15km/h | 23029m | 5.1m/s | 0°C | 0% | 0hPa | 0V | 00:00:00 | 00:00:00 | 00:00:00 | |
| 9A1FER-15 | 2026-09-01 12:48:41 | 46.19245 | 15.44132 | 353° | 16km/h | 23008m | 7.5m/s | 0°C | 0% | 0hPa | 0V | 00:00:00 | 00:00:00 | 00:00:00 | |
| OM5KV | 2026-09-01 12:48:39 | 46.19235 | 15.44136 | 2° | 18km/h | 22991m | 5.4m/s | 0°C | 0% | 0hPa | 0V | 00:00:00 | 00:00:00 | 00:00:00 | |
| 9A1FER-10 | 2026-09-01 12:48:36 | 46.19225 | 15.44134 | 15° | 13km/h | 22983m | 4.9m/s | 0°C | 0% | 0hPa | 0V | 00:00:00 | 00:00:00 | 00:00:00 | |
| 9A1FER-3 | 2026-09-01 12:48:30 | 46.19204 | 15.44135 | 338° | 13km/h | 22950m | 5.7m/s | 0°C | 0% | 0hPa | 0V | 00:00:00 | 00:00:00 | 00:00:00 | |
| PETON7-10 | 2026-09-01 12:48:27 | 46.19189 | 15.44141 | 12° | 11km/h | 22928m | 4.1m/s | 0°C | 0% | 0hPa | 0V | 00:00:00 | 00:00:00 | 00:00:00 | |
| 9A1FER-15 | 2026-09-01 12:48:26 | 46.19189 | 15.44141 | 12° | 11km/h | 22928m | 4.1m/s | 0°C | 0% | 0hPa | 0V | 00:00:00 | 00:00:00 | 00:00:00 | |
| 9A1FER-10 | 2026-09-01 12:48:20 | 46.19173 | 15.44148 | 311° | 11km/h | 22887m | 7.2m/s | 0°C | 0% | 0hPa | 0V | 00:00:00 | 00:00:00 | 00:00:00 | |
| 9A1FER-3 | 2026-09-01 12:48:15 | 46.19162 | 15.44159 | 355° | 11km/h | 22865m | 5.1m/s | 0°C | 0% | 0hPa | 0V | 00:00:00 | 00:00:00 | 00:00:00 | |
| PETON7-10 | 2026-09-01 12:48:11 | 46.19161 | 15.44163 | 313° | 15km/h | 22843m | 5.8m/s | 0°C | 0% | 0hPa | 0V | 00:00:00 | 00:00:00 | 00:00:00 | |
| 9A1FER-10 | 2026-09-01 12:48:03 | 46.19152 | 15.44192 | 263° | 15km/h | 22799m | 5.4m/s | 0°C | 0% | 0hPa | 0V | 00:00:00 | 00:00:00 | 00:00:00 | |
| 9A1FER-3 | 2026-09-01 12:48:00 | 46.19153 | 15.44208 | 288° | 15km/h | 22784m | 6.2m/s | 0°C | 0% | 0hPa | 0V | 00:00:00 | 00:00:00 | 00:00:00 | |
| 9A1FER-15 | 2026-09-01 12:47:56 | 46.19145 | 15.44228 | 250° | 11km/h | 22764m | 6.4m/s | 0°C | 0% | 0hPa | 0V | 00:00:00 | 00:00:00 | 00:00:00 | |
| 9A1FER-10 | 2026-09-01 12:47:48 | 46.19147 | 15.44256 | 318° | 9km/h | 22722m | 5.3m/s | 0°C | 0% | 0hPa | 0V | 00:00:00 | 00:00:00 | 00:00:00 | |
| 9A1FER-3 | 2026-09-01 12:47:45 | 46.19142 | 15.44265 | 252° | 7km/h | 22706m | 5.8m/s | 0°C | 0% | 0hPa | 0V | 00:00:00 | 00:00:00 | 00:00:00 | |
| PETON7-10 | 2026-09-01 12:47:41 | 46.19142 | 15.44265 | 2° | 9km/h | 22684m | 4.8m/s | 0°C | 0% | 0hPa | 0V | 00:00:00 | 00:00:00 | 00:00:00 | |
| 9A1FER-10 | 2026-09-01 12:47:34 | 46.19131 | 15.44272 | 67° | 9km/h | 22642m | 5.7m/s | 0°C | 0% | 0hPa | 0V | 00:00:00 | 00:00:00 | 00:00:00 | |
| 9A1FER-3 | 2026-09-01 12:47:30 | 46.19124 | 15.44272 | 336° | 9km/h | 22625m | 6.0m/s | 0°C | 0% | 0hPa | 0V | 00:00:00 | 00:00:00 | 00:00:00 | |
| PETON7-10 | 2026-09-01 12:47:26 | 46.19120 | 15.44278 | 359° | 9km/h | 22605m | 4.9m/s | 0°C | 0% | 0hPa | 0V | 00:00:00 | 00:00:00 | 00:00:00 | |
| 9A1FER-10 | 2026-09-01 12:47:18 | 46.19108 | 15.44262 | 27° | 13km/h | 22560m | 6.5m/s | 0°C | 0% | 0hPa | 0V | 00:00:00 | 00:00:00 | 00:00:00 | |
| 9A1FER-3 | 2026-09-01 12:47:15 | 46.19100 | 15.44259 | 23° | 15km/h | 22544m | 4.0m/s | 0°C | 0% | 0hPa | 0V | 00:00:00 | 00:00:00 | 00:00:00 | |
| 9A1FER-15 | 2026-09-01 12:47:11 | 46.19093 | 15.44248 | 46° | 16km/h | 22523m | 6.1m/s | 0°C | 0% | 0hPa | 0V | 00:00:00 | 00:00:00 | 00:00:00 | |
| 9A1FER-10 | 2026-09-01 12:47:03 | 46.19064 | 15.44225 | 29° | 18km/h | 22479m | 5.6m/s | 0°C | 0% | 0hPa | 0V | 00:00:00 | 00:00:00 | 00:00:00 | |
| 9A1FER-3 | 2026-09-01 12:47:00 | 46.19055 | 15.44217 | 29° | 20km/h | 22463m | 3.7m/s | 0°C | 0% | 0hPa | 0V | 00:00:00 | 00:00:00 | 00:00:00 | |
| 9A1FER-15 | 2026-09-01 12:46:56 | 46.19039 | 15.44206 | 26° | 20km/h | 22441m | 5.9m/s | 0°C | 0% | 0hPa | 0V | 00:00:00 | 00:00:00 | 00:00:00 | |
| PETON7-10 | 2026-09-01 12:46:55 | 46.19033 | 15.44201 | 28° | 20km/h | 22435m | 5.1m/s | 0°C | 0% | 0hPa | 0V | 00:00:00 | 00:00:00 | 00:00:00 | |
| 9A1FER-10 | 2026-09-01 12:46:48 | 46.18998 | 15.44180 | 43° | 18km/h | 22399m | 6.7m/s | 0°C | 0% | 0hPa | 0V | 00:00:00 | 00:00:00 | 00:00:00 | |
| 9A1FER-3 | 2026-09-01 12:46:45 | 46.18991 | 15.44163 | 56° | 16km/h | 22382m | 5.2m/s | 0°C | 0% | 0hPa | 0V | 00:00:00 | 00:00:00 | 00:00:00 | |
| 9A1FER-15 | 2026-09-01 12:46:41 | 46.18977 | 15.44145 | 14° | 16km/h | 22359m | 5.0m/s | 0°C | 0% | 0hPa | 0V | 00:00:00 | 00:00:00 | 00:00:00 | |
| PETON7-10 | 2026-09-01 12:46:39 | 46.18968 | 15.44142 | 17° | 15km/h | 22349m | 3.8m/s | 0°C | 0% | 0hPa | 0V | 00:00:00 | 00:00:00 | 00:00:00 | |
| 9A1FER-10 | 2026-09-01 12:46:33 | 46.18955 | 15.44117 | 67° | 16km/h | 22316m | 4.7m/s | 0°C | 0% | 0hPa | 0V | 00:00:00 | 00:00:00 | 00:00:00 | |
| 9A1FER-3 | 2026-09-01 12:46:30 | 46.18949 | 15.44111 | 13° | 16km/h | 22300m | 6.0m/s | 0°C | 0% | 0hPa | 0V | 00:00:00 | 00:00:00 | 00:00:00 | |
| 9A1FER-15 | 2026-09-01 12:46:26 | 46.18930 | 15.44100 | 46° | 15km/h | 22277m | 5.6m/s | 0°C | 0% | 0hPa | 0V | 00:00:00 | 00:00:00 | 00:00:00 | |
| PETON7-10 | 2026-09-01 12:46:23 | 46.18923 | 15.44090 | 35° | 15km/h | 22261m | 5.8m/s | 0°C | 0% | 0hPa | 0V | 00:00:00 | 00:00:00 | 00:00:00 | |
| 9A1FER-10 | 2026-09-01 12:46:18 | 46.18903 | 15.44088 | 355° | 13km/h | 22234m | 6.2m/s | 0°C | 0% | 0hPa | 0V | 00:00:00 | 00:00:00 | 00:00:00 | |
| 9A1FER-3 | 2026-09-01 12:46:15 | 46.18890 | 15.44087 | 37° | 9km/h | 22216m | 5.6m/s | 0°C | 0% | 0hPa | 0V | 00:00:00 | 00:00:00 | 00:00:00 | |
| 9A1FER-15 | 2026-09-01 12:46:11 | 46.18886 | 15.44078 | 6° | 11km/h | 22195m | 5.1m/s | 0°C | 0% | 0hPa | 0V | 00:00:00 | 00:00:00 | 00:00:00 | |
| PETON7-10 | 2026-09-01 12:46:06 | 46.18867 | 15.44075 | 44° | 9km/h | 22168m | 4.4m/s | 0°C | 0% | 0hPa | 0V | 00:00:00 | 00:00:00 | 00:00:00 | |
| 9A1FER-10 | 2026-09-01 12:46:04 | 46.18865 | 15.44064 | 111° | 9km/h | 22152m | 6.4m/s | 0°C | 0% | 0hPa | 0V | 00:00:00 | 00:00:00 | 00:00:00 | |
| 9A1FER-3 | 2026-09-01 12:46:00 | 46.18865 | 15.44063 | 8° | 11km/h | 22135m | 6.0m/s | 0°C | 0% | 0hPa | 0V | 00:00:00 | 00:00:00 | 00:00:00 | |
| 9A1FER-15 | 2026-09-01 12:45:56 | 46.18851 | 15.44061 | 13° | 11km/h | 22114m | 4.0m/s | 0°C | 0% | 0hPa | 0V | 00:00:00 | 00:00:00 | 00:00:00 | |
| PETON7-10 | 2026-09-01 12:45:51 | 46.18852 | 15.44048 | 156° | 7km/h | 22087m | 5.6m/s | 0°C | 0% | 0hPa | 0V | 00:00:00 | 00:00:00 | 00:00:00 | |
| 9A1FER-10 | 2026-09-01 12:45:48 | 46.18849 | 15.44043 | 9° | 11km/h | 22071m | 5.6m/s | 0°C | 0% | 0hPa | 0V | 00:00:00 | 00:00:00 | 00:00:00 | |
| 9A1FER-3 | 2026-09-01 12:45:45 | 46.18839 | 15.44044 | 13° | 9km/h | 22055m | 6.2m/s | 0°C | 0% | 0hPa | 0V | 00:00:00 | 00:00:00 | 00:00:00 | |
| 9A1FER-15 | 2026-09-01 12:45:41 | 46.18839 | 15.44036 | 181° | 9km/h | 22034m | 5.1m/s | 0°C | 0% | 0hPa | 0V | 00:00:00 | 00:00:00 | 00:00:00 | |
| PETON7-10 | 2026-09-01 12:45:36 | 46.18834 | 15.44029 | 22° | 11km/h | 22007m | 5.2m/s | 0°C | 0% | 0hPa | 0V | 00:00:00 | 00:00:00 | 00:00:00 | |
| 9A1FER-10 | 2026-09-01 12:45:32 | 46.18834 | 15.44017 | 118° | 11km/h | 21985m | 5.5m/s | 0°C | 0% | 0hPa | 0V | 00:00:00 | 00:00:00 | 00:00:00 | |
| 9A1FER-3 | 2026-09-01 12:45:30 | 46.18838 | 15.44011 | 154° | 11km/h | 21974m | 4.6m/s | 0°C | 0% | 0hPa | 0V | 00:00:00 | 00:00:00 | 00:00:00 | |
| 9A1FER-15 | 2026-09-01 12:45:26 | 46.18830 | 15.44006 | 359° | 15km/h | 21952m | 6.4m/s | 0°C | 0% | 0hPa | 0V | 00:00:00 | 00:00:00 | 00:00:00 | |
| PETON7-10 | 2026-09-01 12:45:21 | 46.18821 | 15.43997 | 106° | 11km/h | 21925m | 7.3m/s | 0°C | 0% | 0hPa | 0V | 00:00:00 | 00:00:00 | 00:00:00 | |
| 9A1FER-3 | 2026-09-01 12:45:17 | 46.18809 | 15.43983 | 355° | 13km/h | 21893m | 5.9m/s | 0°C | 0% | 0hPa | 0V | 00:00:00 | 00:00:00 | 00:00:00 | |
| 9A1FER-15 | 2026-09-01 12:45:11 | 46.18794 | 15.43981 | 51° | 11km/h | 21873m | 5.6m/s | 0°C | 0% | 0hPa | 0V | 00:00:00 | 00:00:00 | 00:00:00 | |
| PETON7-10 | 2026-09-01 12:45:06 | 46.18787 | 15.43970 | 4° | 9km/h | 21845m | 5.8m/s | 0°C | 0% | 0hPa | 0V | 00:00:00 | 00:00:00 | 00:00:00 | |
| 9A1FER-3 | 2026-09-01 12:45:00 | 46.18772 | 15.43969 | 102° | 7km/h | 21812m | 6.8m/s | 0°C | 0% | 0hPa | 0V | 00:00:00 | 00:00:00 | 00:00:00 | |
| 9A1FER-15 | 2026-09-01 12:44:56 | 46.18776 | 15.43962 | 48° | 7km/h | 21790m | 6.4m/s | 0°C | 0% | 0hPa | 0V | 00:00:00 | 00:00:00 | 00:00:00 | |
| PETON7-10 | 2026-09-01 12:44:51 | 46.18766 | 15.43962 | 35° | 7km/h | 21761m | 5.9m/s | 0°C | 0% | 0hPa | 0V | 00:00:00 | 00:00:00 | 00:00:00 | |
| 9A1FER-10 | 2026-09-01 12:44:47 | 46.18768 | 15.43953 | 115° | 9km/h | 21739m | 7.9m/s | 0°C | 0% | 0hPa | 0V | 00:00:00 | 00:00:00 | 00:00:00 | |
| 9A1FER-3 | 2026-09-01 12:44:45 | 46.18770 | 15.43947 | 109° | 9km/h | 21727m | 6.3m/s | 0°C | 0% | 0hPa | 0V | 00:00:00 | 00:00:00 | 00:00:00 | |
| 9A1FER-15 | 2026-09-01 12:44:41 | 46.18770 | 15.43938 | 88° | 13km/h | 21705m | 5.3m/s | 0°C | 0% | 0hPa | 0V | 00:00:00 | 00:00:00 | 00:00:00 | |
| PETON7-10 | 2026-09-01 12:44:36 | 46.18773 | 15.43920 | 94° | 16km/h | 21676m | 5.0m/s | 0°C | 0% | 0hPa | 0V | 00:00:00 | 00:00:00 | 00:00:00 | |
| 9A1FER-3 | 2026-09-01 12:44:30 | 46.18775 | 15.43894 | 132° | 20km/h | 21643m | 5.3m/s | 0°C | 0% | 0hPa | 0V | 00:00:00 | 00:00:00 | 00:00:00 | |
| 9A1FER-15 | 2026-09-01 12:44:26 | 46.18779 | 15.43873 | 105° | 24km/h | 21620m | 6.3m/s | 0°C | 0% | 0hPa | 0V | 00:00:00 | 00:00:00 | 00:00:00 | |
| PETON7-10 | 2026-09-01 12:44:20 | 46.18779 | 15.43827 | 109° | 27km/h | 21589m | 5.2m/s | 0°C | 0% | 0hPa | 0V | 00:00:00 | 00:00:00 | 00:00:00 | |
| 9A1FER-3 | 2026-09-01 12:44:15 | 46.18787 | 15.43780 | 97° | 29km/h | 21558m | 5.0m/s | 0°C | 0% | 0hPa | 0V | 00:00:00 | 00:00:00 | 00:00:00 | |
| 9A1FER-10 | 2026-09-01 12:44:13 | 46.18787 | 15.43769 | 83° | 29km/h | 21552m | 5.7m/s | 0°C | 0% | 0hPa | 0V | 00:00:00 | 00:00:00 | 00:00:00 | |
| 9A1FER-15 | 2026-09-01 12:44:11 | 46.18784 | 15.43748 | 82° | 29km/h | 21541m | 5.9m/s | 0°C | 0% | 0hPa | 0V | 00:00:00 | 00:00:00 | 00:00:00 | |
| PETON7-10 | 2026-09-01 12:44:02 | 46.18781 | 15.43654 | 85° | 27km/h | 21497m | 5.2m/s | 0°C | 0% | 0hPa | 0V | 00:00:00 | 00:00:00 | 00:00:00 | |
| 9A1FER-3 | 2026-09-01 12:43:59 | 46.18776 | 15.43622 | 63° | 26km/h | 21481m | 5.2m/s | 0°C | 0% | 0hPa | 0V | 00:00:00 | 00:00:00 | 00:00:00 | |
| 9A1FER-10 | 2026-09-01 12:43:58 | 46.18773 | 15.43615 | 56° | 26km/h | 21476m | 6.1m/s | 0°C | 0% | 0hPa | 0V | 00:00:00 | 00:00:00 | 00:00:00 | |
| 9A1FER-15 | 2026-09-01 12:43:56 | 46.18766 | 15.43598 | 69° | 27km/h | 21465m | 4.8m/s | 0°C | 0% | 0hPa | 0V | 00:00:00 | 00:00:00 | 00:00:00 | |
| PETON7-10 | 2026-09-01 12:43:48 | 46.18748 | 15.43523 | 39° | 26km/h | 21415m | 5.3m/s | 0°C | 0% | 0hPa | 0V | 00:00:00 | 00:00:00 | 00:00:00 | |
| 9A1FER-3 | 2026-09-01 12:43:44 | 46.18737 | 15.43500 | 78° | 24km/h | 21398m | 5.2m/s | 0°C | 0% | 0hPa | 0V | 00:00:00 | 00:00:00 | 00:00:00 | |
| 9A1FER-10 | 2026-09-01 12:43:43 | 46.18736 | 15.43490 | 81° | 24km/h | 21393m | 6.1m/s | 0°C | 0% | 0hPa | 0V | 00:00:00 | 00:00:00 | 00:00:00 | |
| 9A1FER-15 | 2026-09-01 12:43:41 | 46.18731 | 15.43470 | 64° | 24km/h | 21384m | 3.6m/s | 0°C | 0% | 0hPa | 0V | 00:00:00 | 00:00:00 | 00:00:00 | |
| PETON7-10 | 2026-09-01 12:43:32 | 46.18697 | 15.43417 | 67° | 26km/h | 21336m | 5.8m/s | 0°C | 0% | 0hPa | 0V | 00:00:00 | 00:00:00 | 00:00:00 | |
| 9A1FER-3 | 2026-09-01 12:43:29 | 46.18685 | 15.43398 | 24° | 24km/h | 21320m | 4.6m/s | 0°C | 0% | 0hPa | 0V | 00:00:00 | 00:00:00 | 00:00:00 | |
| 9A1FER-10 | 2026-09-01 12:43:28 | 46.18679 | 15.43394 | 20° | 24km/h | 21315m | 5.3m/s | 0°C | 0% | 0hPa | 0V | 00:00:00 | 00:00:00 | 00:00:00 | |
| 9A1FER-15 | 2026-09-01 12:43:26 | 46.18665 | 15.43385 | 30° | 24km/h | 21304m | 5.0m/s | 0°C | 0% | 0hPa | 0V | 00:00:00 | 00:00:00 | 00:00:00 | |
| PETON7-10 | 2026-09-01 12:43:16 | 46.18616 | 15.43347 | 43° | 26km/h | 21251m | 4.1m/s | 0°C | 0% | 0hPa | 0V | 00:00:00 | 00:00:00 | 00:00:00 | |
| 9A1FER-3 | 2026-09-01 12:43:14 | 46.18608 | 15.43332 | 64° | 24km/h | 21241m | 5.0m/s | 0°C | 0% | 0hPa | 0V | 00:00:00 | 00:00:00 | 00:00:00 | |
| 9A1FER-10 | 2026-09-01 12:43:13 | 46.18606 | 15.43325 | 77° | 22km/h | 21236m | 4.4m/s | 0°C | 0% | 0hPa | 0V | 00:00:00 | 00:00:00 | 00:00:00 | |
| 9A1FER-15 | 2026-09-01 12:43:11 | 46.18602 | 15.43311 | 59° | 26km/h | 21226m | 3.8m/s | 0°C | 0% | 0hPa | 0V | 00:00:00 | 00:00:00 | 00:00:00 | |
| PETON7-10 | 2026-09-01 12:43:01 | 46.18546 | 15.43270 | 43° | 24km/h | 21173m | 5.8m/s | 0°C | 0% | 0hPa | 0V | 00:00:00 | 00:00:00 | 00:00:00 | |
| 9A1FER-3 | 2026-09-01 12:42:59 | 46.18536 | 15.43259 | 29° | 24km/h | 21164m | 5.4m/s | 0°C | 0% | 0hPa | 0V | 00:00:00 | 00:00:00 | 00:00:00 | |
| 9A1FER-10 | 2026-09-01 12:42:57 | 46.18524 | 15.43254 | 9° | 22km/h | 21153m | 4.5m/s | 0°C | 0% | 0hPa | 0V | 00:00:00 | 00:00:00 | 00:00:00 | |
| 9A1FER-15 | 2026-09-01 12:42:56 | 46.18518 | 15.43252 | 15° | 22km/h | 21148m | 6.0m/s | 0°C | 0% | 0hPa | 0V | 00:00:00 | 00:00:00 | 00:00:00 | |
| PETON7-10 | 2026-09-01 12:42:46 | 46.18469 | 15.43212 | 24° | 18km/h | 21096m | 7.1m/s | 0°C | 0% | 0hPa | 0V | 00:00:00 | 00:00:00 | 00:00:00 | |
| 9A1FER-3 | 2026-09-01 12:42:44 | 46.18460 | 15.43205 | 25° | 16km/h | 21085m | 5.1m/s | 0°C | 0% | 0hPa | 0V | 00:00:00 | 00:00:00 | 00:00:00 | |
| 9A1FER-10 | 2026-09-01 12:42:42 | 46.18449 | 15.43200 | 19° | 16km/h | 21075m | 4.4m/s | 0°C | 0% | 0hPa | 0V | 00:00:00 | 00:00:00 | 00:00:00 | |
| 9A1FER-15 | 2026-09-01 12:42:41 | 46.18445 | 15.43197 | 35° | 15km/h | 21070m | 6.8m/s | 0°C | 0% | 0hPa | 0V | 00:00:00 | 00:00:00 | 00:00:00 | |
| PETON7-10 | 2026-09-01 12:42:32 | 46.18416 | 15.43157 | 49° | 13km/h | 21014m | 4.8m/s | 0°C | 0% | 0hPa | 0V | 00:00:00 | 00:00:00 | 00:00:00 | |
| 9A1FER-3 | 2026-09-01 12:42:29 | 46.18412 | 15.43149 | 62° | 13km/h | 21003m | 6.1m/s | 0°C | 0% | 0hPa | 0V | 00:00:00 | 00:00:00 | 00:00:00 | |
| 9A1FER-15 | 2026-09-01 12:42:26 | 46.18410 | 15.43140 | 66° | 15km/h | 20986m | 6.3m/s | 0°C | 0% | 0hPa | 0V | 00:00:00 | 00:00:00 | 00:00:00 | |
| PETON7-10 | 2026-09-01 12:42:16 | 46.18391 | 15.43106 | 101° | 15km/h | 20935m | 4.2m/s | 0°C | 0% | 0hPa | 0V | 00:00:00 | 00:00:00 | 00:00:00 | |
| 9A1FER-3 | 2026-09-01 12:42:14 | 46.18390 | 15.43099 | 53° | 15km/h | 20924m | 4.6m/s | 0°C | 0% | 0hPa | 0V | 00:00:00 | 00:00:00 | 00:00:00 | |
| 9A1FER-15 | 2026-09-01 12:42:11 | 46.18381 | 15.43084 | 53° | 15km/h | 20909m | 4.1m/s | 0°C | 0% | 0hPa | 0V | 00:00:00 | 00:00:00 | 00:00:00 | |
| 9A1FER-10 | 2026-09-01 12:42:08 | 46.18375 | 15.43073 | 99° | 15km/h | 20894m | 4.4m/s | 0°C | 0% | 0hPa | 0V | 00:00:00 | 00:00:00 | 00:00:00 | |
| PETON7-10 | 2026-09-01 12:41:59 | 46.18375 | 15.43030 | 70° | 20km/h | 20846m | 4.0m/s | 0°C | 0% | 0hPa | 0V | 00:00:00 | 00:00:00 | 00:00:00 | |
| 9A1FER-15 | 2026-09-01 12:41:56 | 46.18376 | 15.43014 | 113° | 20km/h | 20829m | 6.7m/s | 0°C | 0% | 0hPa | 0V | 00:00:00 | 00:00:00 | 00:00:00 | |
| 9A1FER-10 | 2026-09-01 12:41:53 | 46.18380 | 15.42996 | 101° | 22km/h | 20812m | 5.6m/s | 0°C | 0% | 0hPa | 0V | 00:00:00 | 00:00:00 | 00:00:00 | |
| 9A1FER-3 | 2026-09-01 12:41:44 | 46.18392 | 15.42933 | 100° | 20km/h | 20765m | 4.8m/s | 0°C | 0% | 0hPa | 0V | 00:00:00 | 00:00:00 | 00:00:00 | |
| 9A1FER-15 | 2026-09-01 12:41:41 | 46.18390 | 15.42910 | 70° | 20km/h | 20748m | 4.9m/s | 0°C | 0% | 0hPa | 0V | 00:00:00 | 00:00:00 | 00:00:00 | |
| 9A1FER-10 | 2026-09-01 12:41:38 | 46.18384 | 15.42883 | 79° | 18km/h | 20734m | 4.0m/s | 0°C | 0% | 0hPa | 0V | 00:00:00 | 00:00:00 | 00:00:00 | |
| 9A1FER-3 | 2026-09-01 12:41:29 | 46.18376 | 15.42827 | 61° | 20km/h | 20689m | 5.9m/s | 0°C | 0% | 0hPa | 0V | 00:00:00 | 00:00:00 | 00:00:00 | |
| PETON7-10 | 2026-09-01 12:41:27 | 46.18368 | 15.42812 | 46° | 18km/h | 20680m | 6.2m/s | 0°C | 0% | 0hPa | 0V | 00:00:00 | 00:00:00 | 00:00:00 | |
| 9A1FER-15 | 2026-09-01 12:41:26 | 46.18364 | 15.42808 | 26° | 16km/h | 20674m | 5.9m/s | 0°C | 0% | 0hPa | 0V | 00:00:00 | 00:00:00 | 00:00:00 | |
| 9A1FER-10 | 2026-09-01 12:41:23 | 46.18356 | 15.42803 | 41° | 16km/h | 20658m | 5.0m/s | 0°C | 0% | 0hPa | 0V | 00:00:00 | 00:00:00 | 00:00:00 | |
| 9A1FER-3 | 2026-09-01 12:41:14 | 46.18325 | 15.42756 | 80° | 18km/h | 20614m | 5.2m/s | 0°C | 0% | 0hPa | 0V | 00:00:00 | 00:00:00 | 00:00:00 | |
| PETON7-10 | 2026-09-01 12:41:12 | 46.18324 | 15.42751 | 59° | 22km/h | 20603m | 4.6m/s | 0°C | 0% | 0hPa | 0V | 00:00:00 | 00:00:00 | 00:00:00 | |
| 9A1FER-15 | 2026-09-01 12:41:11 | 46.18322 | 15.42747 | 41° | 22km/h | 20598m | 4.9m/s | 0°C | 0% | 0hPa | 0V | 00:00:00 | 00:00:00 | 00:00:00 | |
| 9A1FER-10 | 2026-09-01 12:41:08 | 46.18306 | 15.42737 | 25° | 24km/h | 20581m | 6.6m/s | 0°C | 0% | 0hPa | 0V | 00:00:00 | 00:00:00 | 00:00:00 | |
| 9A1FER-3 | 2026-09-01 12:40:59 | 46.18266 | 15.42705 | 14° | 27km/h | 20537m | 5.4m/s | 0°C | 0% | 0hPa | 0V | 00:00:00 | 00:00:00 | 00:00:00 | |
| PETON7-10 | 2026-09-01 12:40:57 | 46.18251 | 15.42698 | 25° | 26km/h | 20526m | 5.5m/s | 0°C | 0% | 0hPa | 0V | 00:00:00 | 00:00:00 | 00:00:00 | |
| 9A1FER-15 | 2026-09-01 12:40:56 | 46.18244 | 15.42693 | 34° | 24km/h | 20521m | 5.3m/s | 0°C | 0% | 0hPa | 0V | 00:00:00 | 00:00:00 | 00:00:00 | |
| 9A1FER-10 | 2026-09-01 12:40:53 | 46.18230 | 15.42679 | 36° | 22km/h | 20504m | 4.0m/s | 0°C | 0% | 0hPa | 0V | 00:00:00 | 00:00:00 | 00:00:00 | |
| 9A1FER-3 | 2026-09-01 12:40:44 | 46.18178 | 15.42646 | 14° | 26km/h | 20458m | 6.2m/s | 0°C | 0% | 0hPa | 0V | 00:00:00 | 00:00:00 | 00:00:00 | |
| PETON7-10 | 2026-09-01 12:40:42 | 46.18168 | 15.42643 | 15° | 27km/h | 20447m | 6.3m/s | 0°C | 0% | 0hPa | 0V | 00:00:00 | 00:00:00 | 00:00:00 | |
| 9A1FER-15 | 2026-09-01 12:40:41 | 46.18163 | 15.42640 | 25° | 27km/h | 20441m | 4.8m/s | 0°C | 0% | 0hPa | 0V | 00:00:00 | 00:00:00 | 00:00:00 | |
| 9A1FER-10 | 2026-09-01 12:40:38 | 46.18144 | 15.42631 | 8° | 27km/h | 20426m | 5.7m/s | 0°C | 0% | 0hPa | 0V | 00:00:00 | 00:00:00 | 00:00:00 | |
| 9A1FER-3 | 2026-09-01 12:40:29 | 46.18082 | 15.42610 | 15° | 24km/h | 20376m | 4.3m/s | 0°C | 0% | 0hPa | 0V | 00:00:00 | 00:00:00 | 00:00:00 | |
| PETON7-10 | 2026-09-01 12:40:27 | 46.18069 | 15.42603 | 25° | 26km/h | 20366m | 5.6m/s | 0°C | 0% | 0hPa | 0V | 00:00:00 | 00:00:00 | 00:00:00 | |
| 9A1FER-15 | 2026-09-01 12:40:26 | 46.18062 | 15.42599 | 13° | 22km/h | 20360m | 5.8m/s | 0°C | 0% | 0hPa | 0V | 00:00:00 | 00:00:00 | 00:00:00 | |
| 9A1FER-10 | 2026-09-01 12:40:23 | 46.18047 | 15.42595 | 22° | 22km/h | 20345m | 6.5m/s | 0°C | 0% | 0hPa | 0V | 00:00:00 | 00:00:00 | 00:00:00 | |
| 9A1FER-3 | 2026-09-01 12:40:14 | 46.17998 | 15.42561 | 26° | 18km/h | 20297m | 5.5m/s | 0°C | 0% | 0hPa | 0V | 00:00:00 | 00:00:00 | 00:00:00 | |
| PETON7-10 | 2026-09-01 12:40:12 | 46.17989 | 15.42554 | 30° | 18km/h | 20286m | 5.1m/s | 0°C | 0% | 0hPa | 0V | 00:00:00 | 00:00:00 | 00:00:00 | |
| 9A1FER-15 | 2026-09-01 12:40:11 | 46.17986 | 15.42552 | 11° | 16km/h | 20280m | 6.1m/s | 0°C | 0% | 0hPa | 0V | 00:00:00 | 00:00:00 | 00:00:00 | |
| 9A1FER-10 | 2026-09-01 12:40:06 | 46.17969 | 15.42540 | 40° | 16km/h | 20254m | 6.2m/s | 0°C | 0% | 0hPa | 0V | 00:00:00 | 00:00:00 | 00:00:00 | |
| 9A1FER-3 | 2026-09-01 12:39:59 | 46.17940 | 15.42509 | 37° | 16km/h | 20216m | 4.5m/s | 0°C | 0% | 0hPa | 0V | 00:00:00 | 00:00:00 | 00:00:00 | |
| PETON7-10 | 2026-09-01 12:39:57 | 46.17934 | 15.42505 | 25° | 18km/h | 20205m | 3.7m/s | 0°C | 0% | 0hPa | 0V | 00:00:00 | 00:00:00 | 00:00:00 | |
| 9A1FER-15 | 2026-09-01 12:39:56 | 46.17932 | 15.42503 | 30° | 20km/h | 20201m | 5.3m/s | 0°C | 0% | 0hPa | 0V | 00:00:00 | 00:00:00 | 00:00:00 | |
| 9A1FER-10 | 2026-09-01 12:39:49 | 46.17899 | 15.42489 | 7° | 20km/h | 20165m | 4.8m/s | 0°C | 0% | 0hPa | 0V | 00:00:00 | 00:00:00 | 00:00:00 | |
| 9A1FER-3 | 2026-09-01 12:39:44 | 46.17880 | 15.42484 | 21° | 24km/h | 20139m | 5.8m/s | 0°C | 0% | 0hPa | 0V | 00:00:00 | 00:00:00 | 00:00:00 | |
| PETON7-10 | 2026-09-01 12:39:42 | 46.17869 | 15.42481 | 5° | 24km/h | 20128m | 4.3m/s | 0°C | 0% | 0hPa | 0V | 00:00:00 | 00:00:00 | 00:00:00 | |
| 9A1FER-15 | 2026-09-01 12:39:41 | 46.17862 | 15.42480 | 8° | 24km/h | 20123m | 5.6m/s | 0°C | 0% | 0hPa | 0V | 00:00:00 | 00:00:00 | 00:00:00 | |
| 9A1FER-10 | 2026-09-01 12:39:34 | 46.17824 | 15.42482 | 10° | 22km/h | 20087m | 5.1m/s | 0°C | 0% | 0hPa | 0V | 00:00:00 | 00:00:00 | 00:00:00 | |
| 9A1FER-3 | 2026-09-01 12:39:29 | 46.17798 | 15.42458 | 27° | 22km/h | 20065m | 6.0m/s | 0°C | 0% | 0hPa | 0V | 00:00:00 | 00:00:00 | 00:00:00 | |
| 9A1FER-15 | 2026-09-01 12:39:26 | 46.17783 | 15.42454 | 6° | 20km/h | 20048m | 4.8m/s | 0°C | 0% | 0hPa | 0V | 00:00:00 | 00:00:00 | 00:00:00 | |
| 9A1FER-10 | 2026-09-01 12:39:19 | 46.17746 | 15.42440 | 21° | 15km/h | 20014m | 5.5m/s | 0°C | 0% | 0hPa | 0V | 00:00:00 | 00:00:00 | 00:00:00 | |
| 9A1FER-3 | 2026-09-01 12:39:14 | 46.17722 | 15.42432 | 355° | 15km/h | 19989m | 6.1m/s | 0°C | 0% | 0hPa | 0V | 00:00:00 | 00:00:00 | 00:00:00 | |
| PETON7-10 | 2026-09-01 12:39:12 | 46.17716 | 15.42431 | 31° | 15km/h | 19981m | 4.0m/s | 0°C | 0% | 0hPa | 0V | 00:00:00 | 00:00:00 | 00:00:00 | |
| 9A1FER-15 | 2026-09-01 12:39:11 | 46.17714 | 15.42428 | 62° | 15km/h | 19976m | 6.1m/s | 0°C | 0% | 0hPa | 0V | 00:00:00 | 00:00:00 | 00:00:00 | |
| 9A1FER-3 | 2026-09-01 12:38:59 | 46.17689 | 15.42381 | 62° | 9km/h | 19916m | 6.6m/s | 0°C | 0% | 0hPa | 0V | 00:00:00 | 00:00:00 | 00:00:00 | |
| PETON7-10 | 2026-09-01 12:38:57 | 46.17686 | 15.42376 | 27° | 7km/h | 19904m | 5.4m/s | 0°C | 0% | 0hPa | 0V | 00:00:00 | 00:00:00 | 00:00:00 | |
| 9A1FER-15 | 2026-09-01 12:38:56 | 46.17685 | 15.42375 | 27° | 7km/h | 19899m | 5.0m/s | 0°C | 0% | 0hPa | 0V | 00:00:00 | 00:00:00 | 00:00:00 | |
| 9A1FER-3 | 2026-09-01 12:38:44 | 46.17678 | 15.42343 | 22° | 7km/h | 19840m | 7.1m/s | 0°C | 0% | 0hPa | 0V | 00:00:00 | 00:00:00 | 00:00:00 | |
| PETON7-10 | 2026-09-01 12:38:42 | 46.17677 | 15.42345 | 231° | 5km/h | 19829m | 3.6m/s | 0°C | 0% | 0hPa | 0V | 00:00:00 | 00:00:00 | 00:00:00 | |
| 9A1FER-15 | 2026-09-01 12:38:41 | 46.17678 | 15.42345 | 153° | 9km/h | 19824m | 5.8m/s | 0°C | 0% | 0hPa | 0V | 00:00:00 | 00:00:00 | 00:00:00 | |
| 9A1FER-10 | 2026-09-01 12:38:38 | 46.17682 | 15.42337 | 135° | 11km/h | 19810m | 5.1m/s | 0°C | 0% | 0hPa | 0V | 00:00:00 | 00:00:00 | 00:00:00 | |
| 9A1FER-3 | 2026-09-01 12:38:29 | 46.17693 | 15.42330 | 162° | 13km/h | 19764m | 6.3m/s | 0°C | 0% | 0hPa | 0V | 00:00:00 | 00:00:00 | 00:00:00 | |
| PETON7-10 | 2026-09-01 12:38:27 | 46.17699 | 15.42327 | 153° | 15km/h | 19753m | 5.0m/s | 0°C | 0% | 0hPa | 0V | 00:00:00 | 00:00:00 | 00:00:00 | |
| 9A1FER-15 | 2026-09-01 12:38:26 | 46.17700 | 15.42325 | 82° | 13km/h | 19748m | 5.9m/s | 0°C | 0% | 0hPa | 0V | 00:00:00 | 00:00:00 | 00:00:00 | |
| 9A1FER-3 | 2026-09-01 12:38:14 | 46.17724 | 15.42295 | 116° | 13km/h | 19686m | 5.8m/s | 0°C | 0% | 0hPa | 0V | 00:00:00 | 00:00:00 | 00:00:00 | |
| PETON7-10 | 2026-09-01 12:38:12 | 46.17726 | 15.42286 | 98° | 11km/h | 19676m | 4.7m/s | 0°C | 0% | 0hPa | 0V | 00:00:00 | 00:00:00 | 00:00:00 | |
| 9A1FER-15 | 2026-09-01 12:38:11 | 46.17727 | 15.42281 | 102° | 11km/h | 19670m | 6.1m/s | 0°C | 0% | 0hPa | 0V | 00:00:00 | 00:00:00 | 00:00:00 | |
| 9A1FER-3 | 2026-09-01 12:37:59 | 46.17736 | 15.42235 | 103° | 15km/h | 19611m | 5.3m/s | 0°C | 0% | 0hPa | 0V | 00:00:00 | 00:00:00 | 00:00:00 | |
| 9A1FER-10 | 2026-09-01 12:37:57 | 46.17736 | 15.42232 | 133° | 16km/h | 19600m | 4.4m/s | 0°C | 0% | 0hPa | 0V | 00:00:00 | 00:00:00 | 00:00:00 | |
| 9A1FER-15 | 2026-09-01 12:37:56 | 46.17737 | 15.42230 | 114° | 18km/h | 19595m | 5.8m/s | 0°C | 0% | 0hPa | 0V | 00:00:00 | 00:00:00 | 00:00:00 | |
| 9A1FER-15 | 2026-09-01 12:37:41 | 46.17718 | 15.42136 | 62° | 20km/h | 19522m | 5.5m/s | 0°C | 0% | 0hPa | 0V | 00:00:00 | 00:00:00 | 00:00:00 | |
| PETON7-10 | 2026-09-01 12:37:40 | 46.17716 | 15.42131 | 62° | 20km/h | 19517m | 4.1m/s | 0°C | 0% | 0hPa | 0V | 00:00:00 | 00:00:00 | 00:00:00 | |
| 9A1FER-3 | 2026-09-01 12:37:30 | 46.17693 | 15.42058 | 57° | 27km/h | 19459m | 5.4m/s | 0°C | 0% | 0hPa | 0V | 00:00:00 | 00:00:00 | 00:00:00 | |
| 9A1FER-15 | 2026-09-01 12:37:26 | 46.17684 | 15.42040 | 63° | 29km/h | 19443m | 5.9m/s | 0°C | 0% | 0hPa | 0V | 00:00:00 | 00:00:00 | 00:00:00 | |
| 9A1FER-10 | 2026-09-01 12:37:25 | 46.17681 | 15.42034 | 65° | 31km/h | 19438m | 4.9m/s | 0°C | 0% | 0hPa | 0V | 00:00:00 | 00:00:00 | 00:00:00 | |
| PETON7-10 | 2026-09-01 12:37:24 | 46.17679 | 15.42028 | 51° | 31km/h | 19433m | 5.7m/s | 0°C | 0% | 0hPa | 0V | 00:00:00 | 00:00:00 | 00:00:00 | |
| 9A1FER-3 | 2026-09-01 12:37:14 | 46.17631 | 15.41936 | 34° | 31km/h | 19381m | 4.4m/s | 0°C | 0% | 0hPa | 0V | 00:00:00 | 00:00:00 | 00:00:00 | |
| 9A1FER-15 | 2026-09-01 12:37:11 | 46.17612 | 15.41912 | 54° | 29km/h | 19366m | 4.1m/s | 0°C | 0% | 0hPa | 0V | 00:00:00 | 00:00:00 | 00:00:00 | |
| 9A1FER-10 | 2026-09-01 12:37:08 | 46.17595 | 15.41888 | 41° | 31km/h | 19351m | 4.9m/s | 0°C | 0% | 0hPa | 0V | 00:00:00 | 00:00:00 | 00:00:00 | |
| 9A1FER-3 | 2026-09-01 12:36:59 | 46.17545 | 15.41821 | 33° | 22km/h | 19304m | 4.4m/s | 0°C | 0% | 0hPa | 0V | 00:00:00 | 00:00:00 | 00:00:00 | |
| 9A1FER-15 | 2026-09-01 12:36:55 | 46.17526 | 15.41802 | 29° | 22km/h | 19284m | 3.7m/s | 0°C | 0% | 0hPa | 0V | 00:00:00 | 00:00:00 | 00:00:00 | |
| PETON7-10 | 2026-09-01 12:36:53 | 46.17516 | 15.41790 | 49° | 22km/h | 19273m | 6.3m/s | 0°C | 0% | 0hPa | 0V | 00:00:00 | 00:00:00 | 00:00:00 | |
| 9A1FER-3 | 2026-09-01 12:36:44 | 46.17481 | 15.41744 | 52° | 16km/h | 19225m | 5.0m/s | 0°C | 0% | 0hPa | 0V | 00:00:00 | 00:00:00 | 00:00:00 | |
| 9A1FER-15 | 2026-09-01 12:36:40 | 46.17461 | 15.41723 | 28° | 15km/h | 19205m | 5.3m/s | 0°C | 0% | 0hPa | 0V | 00:00:00 | 00:00:00 | 00:00:00 | |
| PETON7-10 | 2026-09-01 12:36:38 | 46.17453 | 15.41716 | 40° | 13km/h | 19194m | 5.0m/s | 0°C | 0% | 0hPa | 0V | 00:00:00 | 00:00:00 | 00:00:00 | |
| 9A1FER-3 | 2026-09-01 12:36:30 | 46.17434 | 15.41683 | 54° | 13km/h | 19147m | 4.7m/s | 0°C | 0% | 0hPa | 0V | 00:00:00 | 00:00:00 | 00:00:00 | |
| 9A1FER-15 | 2026-09-01 12:36:25 | 46.17426 | 15.41673 | 60° | 13km/h | 19127m | 6.4m/s | 0°C | 0% | 0hPa | 0V | 00:00:00 | 00:00:00 | 00:00:00 | |
| PETON7-10 | 2026-09-01 12:36:23 | 46.17423 | 15.41664 | 64° | 13km/h | 19116m | 6.2m/s | 0°C | 0% | 0hPa | 0V | 00:00:00 | 00:00:00 | 00:00:00 | |
| 9A1FER-3 | 2026-09-01 12:36:14 | 46.17408 | 15.41630 | 72° | 15km/h | 19069m | 6.0m/s | 0°C | 0% | 0hPa | 0V | 00:00:00 | 00:00:00 | 00:00:00 | |
| 9A1FER-15 | 2026-09-01 12:36:10 | 46.17404 | 15.41611 | 94° | 15km/h | 19048m | 3.7m/s | 0°C | 0% | 0hPa | 0V | 00:00:00 | 00:00:00 | 00:00:00 | |
| 9A1FER-10 | 2026-09-01 12:36:08 | 46.17402 | 15.41604 | 60° | 18km/h | 19038m | 4.2m/s | 0°C | 0% | 0hPa | 0V | 00:00:00 | 00:00:00 | 00:00:00 | |
| 9A1FER-3 | 2026-09-01 12:35:59 | 46.17403 | 15.41560 | 104° | 20km/h | 18994m | 5.8m/s | 0°C | 0% | 0hPa | 0V | 00:00:00 | 00:00:00 | 00:00:00 | |
| 9A1FER-15 | 2026-09-01 12:35:55 | 46.17403 | 15.41533 | 84° | 22km/h | 18975m | 4.6m/s | 0°C | 0% | 0hPa | 0V | 00:00:00 | 00:00:00 | 00:00:00 | |
| PETON7-10 | 2026-09-01 12:35:53 | 46.17401 | 15.41517 | 77° | 22km/h | 18964m | 4.0m/s | 0°C | 0% | 0hPa | 0V | 00:00:00 | 00:00:00 | 00:00:00 | |
| 9A1FER-10 | 2026-09-01 12:35:52 | 46.17417 | 15.41508 | 85° | 24km/h | 18959m | 5.5m/s | 0°C | 0% | 0hPa | 0V | 00:00:00 | 00:00:00 | 00:00:00 | |
| 9A1FER-3 | 2026-09-01 12:35:44 | 46.17404 | 15.41446 | 77° | 24km/h | 18917m | 4.6m/s | 0°C | 0% | 0hPa | 0V | 00:00:00 | 00:00:00 | 00:00:00 | |
| 9A1FER-15 | 2026-09-01 12:35:40 | 46.17406 | 15.41410 | 108° | 22km/h | 18899m | 5.2m/s | 0°C | 0% | 0hPa | 0V | 00:00:00 | 00:00:00 | 00:00:00 | |
| PETON7-10 | 2026-09-01 12:35:38 | 46.17407 | 15.41393 | 90° | 22km/h | 18888m | 5.1m/s | 0°C | 0% | 0hPa | 0V | 00:00:00 | 00:00:00 | 00:00:00 | |
| 9A1FER-10 | 2026-09-01 12:35:37 | 46.17407 | 15.41384 | 92° | 22km/h | 18882m | 6.2m/s | 0°C | 0% | 0hPa | 0V | 00:00:00 | 00:00:00 | 00:00:00 | |
| 9A1FER-3 | 2026-09-01 12:35:29 | 46.17407 | 15.41319 | 91° | 20km/h | 18841m | 5.6m/s | 0°C | 0% | 0hPa | 0V | 00:00:00 | 00:00:00 | 00:00:00 | |
| 9A1FER-15 | 2026-09-01 12:35:25 | 46.17408 | 15.41288 | 76° | 20km/h | 18820m | 4.0m/s | 0°C | 0% | 0hPa | 0V | 00:00:00 | 00:00:00 | 00:00:00 | |
| PETON7-10 | 2026-09-01 12:35:22 | 46.17406 | 15.41265 | 84° | 20km/h | 18805m | 4.6m/s | 0°C | 0% | 0hPa | 0V | 00:00:00 | 00:00:00 | 00:00:00 | |
| 9A1FER-10 | 2026-09-01 12:35:21 | 46.17406 | 15.41260 | 76° | 20km/h | 18800m | 5.1m/s | 0°C | 0% | 0hPa | 0V | 00:00:00 | 00:00:00 | 00:00:00 | |
| 9A1FER-3 | 2026-09-01 12:35:14 | 46.17403 | 15.41213 | 97° | 24km/h | 18764m | 5.8m/s | 0°C | 0% | 0hPa | 0V | 00:00:00 | 00:00:00 | 00:00:00 | |
| 9A1FER-15 | 2026-09-01 12:35:10 | 46.17401 | 15.41184 | 79° | 26km/h | 18743m | 6.2m/s | 0°C | 0% | 0hPa | 0V | 00:00:00 | 00:00:00 | 00:00:00 | |
| PETON7-10 | 2026-09-01 12:35:07 | 46.17395 | 15.41158 | 65° | 26km/h | 18727m | 4.0m/s | 0°C | 0% | 0hPa | 0V | 00:00:00 | 00:00:00 | 00:00:00 | |
| 9A1FER-10 | 2026-09-01 12:35:06 | 46.17393 | 15.41149 | 74° | 26km/h | 18722m | 6.5m/s | 0°C | 0% | 0hPa | 0V | 00:00:00 | 00:00:00 | 00:00:00 | |
| 9A1FER-3 | 2026-09-01 12:34:59 | 46.17380 | 15.41083 | 61° | 22km/h | 18685m | 5.8m/s | 0°C | 0% | 0hPa | 0V | 00:00:00 | 00:00:00 | 00:00:00 | |
| 9A1FER-15 | 2026-09-01 12:34:55 | 46.17366 | 15.41051 | 63° | 20km/h | 18664m | 5.5m/s | 0°C | 0% | 0hPa | 0V | 00:00:00 | 00:00:00 | 00:00:00 | |
| PETON7-10 | 2026-09-01 12:34:52 | 46.17358 | 15.41031 | 69° | 20km/h | 18649m | 5.6m/s | 0°C | 0% | 0hPa | 0V | 00:00:00 | 00:00:00 | 00:00:00 | |
| 9A1FER-10 | 2026-09-01 12:34:51 | 46.17356 | 15.41023 | 76° | 20km/h | 18644m | 4.5m/s | 0°C | 0% | 0hPa | 0V | 00:00:00 | 00:00:00 | 00:00:00 | |
| 9A1FER-3 | 2026-09-01 12:34:44 | 46.17336 | 15.40987 | 37° | 22km/h | 18608m | 4.1m/s | 0°C | 0% | 0hPa | 0V | 00:00:00 | 00:00:00 | 00:00:00 | |
| 9A1FER-15 | 2026-09-01 12:34:40 | 46.17325 | 15.40963 | 56° | 26km/h | 18587m | 5.0m/s | 0°C | 0% | 0hPa | 0V | 00:00:00 | 00:00:00 | 00:00:00 | |
| PETON7-10 | 2026-09-01 12:34:38 | 46.17314 | 15.40941 | 57° | 26km/h | 18571m | 4.2m/s | 0°C | 0% | 0hPa | 0V | 00:00:00 | 00:00:00 | 00:00:00 | |
| 9A1FER-10 | 2026-09-01 12:34:37 | 46.17310 | 15.40935 | 45° | 26km/h | 18567m | 3.7m/s | 0°C | 0% | 0hPa | 0V | 00:00:00 | 00:00:00 | 00:00:00 | |
| 9A1FER-3 | 2026-09-01 12:34:29 | 46.17277 | 15.40901 | 40° | 26km/h | 18533m | 4.3m/s | 0°C | 0% | 0hPa | 0V | 00:00:00 | 00:00:00 | 00:00:00 | |
| 9A1FER-15 | 2026-09-01 12:34:25 | 46.17254 | 15.40873 | 29° | 24km/h | 18513m | 3.9m/s | 0°C | 0% | 0hPa | 0V | 00:00:00 | 00:00:00 | 00:00:00 | |
| PETON7-10 | 2026-09-01 12:34:21 | 46.17236 | 15.40856 | 37° | 22km/h | 18493m | 3.5m/s | 0°C | 0% | 0hPa | 0V | 00:00:00 | 00:00:00 | 00:00:00 | |
| 9A1FER-3 | 2026-09-01 12:34:14 | 46.17203 | 15.40811 | 32° | 18km/h | 18460m | 5.5m/s | 0°C | 0% | 0hPa | 0V | 00:00:00 | 00:00:00 | 00:00:00 | |
| 9A1FER-15 | 2026-09-01 12:34:10 | 46.17188 | 15.40797 | 45° | 18km/h | 18440m | 6.4m/s | 0°C | 0% | 0hPa | 0V | 00:00:00 | 00:00:00 | 00:00:00 | |
| PETON7-10 | 2026-09-01 12:34:06 | 46.17171 | 15.40774 | 39° | 15km/h | 18420m | 5.4m/s | 0°C | 0% | 0hPa | 0V | 00:00:00 | 00:00:00 | 00:00:00 | |
| 9A1FER-3 | 2026-09-01 12:33:59 | 46.17151 | 15.40749 | 61° | 15km/h | 18387m | 4.4m/s | 0°C | 0% | 0hPa | 0V | 00:00:00 | 00:00:00 | 00:00:00 | |
| 9A1FER-15 | 2026-09-01 12:33:55 | 46.17140 | 15.40727 | 60° | 13km/h | 18366m | 5.8m/s | 0°C | 0% | 0hPa | 0V | 00:00:00 | 00:00:00 | 00:00:00 | |
| PETON7-10 | 2026-09-01 12:33:51 | 46.17136 | 15.40720 | 86° | 15km/h | 18347m | 4.9m/s | 0°C | 0% | 0hPa | 0V | 00:00:00 | 00:00:00 | 00:00:00 | |
| 9A1FER-10 | 2026-09-01 12:33:50 | 46.17136 | 15.40714 | 79° | 16km/h | 18342m | 4.8m/s | 0°C | 0% | 0hPa | 0V | 00:00:00 | 00:00:00 | 00:00:00 | |
| 9A1FER-3 | 2026-09-01 12:33:44 | 46.17128 | 15.40677 | 122° | 15km/h | 18311m | 6.6m/s | 0°C | 0% | 0hPa | 0V | 00:00:00 | 00:00:00 | 00:00:00 | |
| 9A1FER-15 | 2026-09-01 12:33:40 | 46.17131 | 15.40668 | 82° | 18km/h | 18290m | 4.6m/s | 0°C | 0% | 0hPa | 0V | 00:00:00 | 00:00:00 | 00:00:00 | |
| 9A1FER-10 | 2026-09-01 12:33:35 | 46.17125 | 15.40631 | 105° | 16km/h | 18264m | 6.2m/s | 0°C | 0% | 0hPa | 0V | 00:00:00 | 00:00:00 | 00:00:00 | |
| 9A1FER-3 | 2026-09-01 12:33:29 | 46.17134 | 15.40606 | 76° | 18km/h | 18232m | 3.8m/s | 0°C | 0% | 0hPa | 0V | 00:00:00 | 00:00:00 | 00:00:00 | |
| PETON7-10 | 2026-09-01 12:33:20 | 46.17142 | 15.40547 | 118° | 22km/h | 18186m | 4.5m/s | 0°C | 0% | 0hPa | 0V | 00:00:00 | 00:00:00 | 00:00:00 | |
| 9A1FER-3 | 2026-09-01 12:33:14 | 46.17145 | 15.40503 | 89° | 24km/h | 18156m | 4.9m/s | 0°C | 0% | 0hPa | 0V | 00:00:00 | 00:00:00 | 00:00:00 | |
| 9A1FER-15 | 2026-09-01 12:33:05 | 46.17162 | 15.40432 | 92° | 27km/h | 18111m | 4.7m/s | 0°C | 0% | 0hPa | 0V | 00:00:00 | 00:00:00 | 00:00:00 | |
| 9A1FER-3 | 2026-09-01 12:32:59 | 46.17173 | 15.40385 | 121° | 35km/h | 18082m | 6.8m/s | 0°C | 0% | 0hPa | 0V | 00:00:00 | 00:00:00 | 00:00:00 | |
| 9A1FER-15 | 2026-09-01 12:32:50 | 46.17193 | 15.40290 | 126° | 42km/h | 18035m | 5.1m/s | 0°C | 0% | 0hPa | 0V | 00:00:00 | 00:00:00 | 00:00:00 | |
| 9A1FER-3 | 2026-09-01 12:32:44 | 46.17220 | 15.40207 | 110° | 42km/h | 18004m | 6.9m/s | 0°C | 0% | 0hPa | 0V | 00:00:00 | 00:00:00 | 00:00:00 | |
| 9A1FER-10 | 2026-09-01 12:32:35 | 46.17246 | 15.40071 | 98° | 38km/h | 17960m | 5.3m/s | 0°C | 0% | 0hPa | 0V | 00:00:00 | 00:00:00 | 00:00:00 | |
| PETON7-10 | 2026-09-01 12:32:34 | 46.17248 | 15.40055 | 99° | 38km/h | 17955m | 5.0m/s | 0°C | 0% | 0hPa | 0V | 00:00:00 | 00:00:00 | 00:00:00 | |
| 9A1FER-3 | 2026-09-01 12:32:29 | 46.17254 | 15.39982 | 103° | 37km/h | 17931m | 5.0m/s | 0°C | 0% | 0hPa | 0V | 00:00:00 | 00:00:00 | 00:00:00 | |
| 9A1FER-15 | 2026-09-01 12:32:21 | 46.17256 | 15.39861 | 93° | 38km/h | 17889m | 5.7m/s | 0°C | 0% | 0hPa | 0V | 00:00:00 | 00:00:00 | 00:00:00 | |
| PETON7-10 | 2026-09-01 12:32:18 | 46.17257 | 15.39834 | 89° | 37km/h | 17880m | 6.4m/s | 0°C | 0% | 0hPa | 0V | 00:00:00 | 00:00:00 | 00:00:00 | |
| 9A1FER-3 | 2026-09-01 12:32:13 | 46.17252 | 15.39768 | 80° | 40km/h | 17854m | 4.3m/s | 0°C | 0% | 0hPa | 0V | 00:00:00 | 00:00:00 | 00:00:00 | |
| 9A1FER-15 | 2026-09-01 12:32:06 | 46.17239 | 15.39657 | 79° | 40km/h | 17815m | 4.9m/s | 0°C | 0% | 0hPa | 0V | 00:00:00 | 00:00:00 | 00:00:00 | |
| PETON7-10 | 2026-09-01 12:32:03 | 46.17235 | 15.39630 | 76° | 42km/h | 17805m | 3.5m/s | 0°C | 0% | 0hPa | 0V | 00:00:00 | 00:00:00 | 00:00:00 | |
| 9A1FER-3 | 2026-09-01 12:31:59 | 46.17223 | 15.39549 | 80° | 38km/h | 17782m | 5.3m/s | 0°C | 0% | 0hPa | 0V | 00:00:00 | 00:00:00 | 00:00:00 | |
| 9A1FER-15 | 2026-09-01 12:31:50 | 46.17202 | 15.39440 | 73° | 38km/h | 17744m | 4.3m/s | 0°C | 0% | 0hPa | 0V | 00:00:00 | 00:00:00 | 00:00:00 | |
| PETON7-10 | 2026-09-01 12:31:46 | 46.17188 | 15.39385 | 62° | 37km/h | 17726m | 6.2m/s | 0°C | 0% | 0hPa | 0V | 00:00:00 | 00:00:00 | 00:00:00 | |
| 9A1FER-3 | 2026-09-01 12:31:43 | 46.17177 | 15.39348 | 72° | 35km/h | 17711m | 4.2m/s | 0°C | 0% | 0hPa | 0V | 00:00:00 | 00:00:00 | 00:00:00 | |
| 9A1FER-10 | 2026-09-01 12:31:36 | 46.17148 | 15.39254 | 59° | 37km/h | 17672m | 3.8m/s | 0°C | 0% | 0hPa | 0V | 00:00:00 | 00:00:00 | 00:00:00 | |
| 9A1FER-15 | 2026-09-01 12:31:35 | 46.17148 | 15.39254 | 59° | 37km/h | 17672m | 3.8m/s | 0°C | 0% | 0hPa | 0V | 00:00:00 | 00:00:00 | 00:00:00 | |
| PETON7-10 | 2026-09-01 12:31:30 | 46.17128 | 15.39197 | 79° | 35km/h | 17648m | 4.1m/s | 0°C | 0% | 0hPa | 0V | 00:00:00 | 00:00:00 | 00:00:00 | |
| 9A1FER-3 | 2026-09-01 12:31:28 | 46.17123 | 15.39174 | 65° | 35km/h | 17639m | 4.1m/s | 0°C | 0% | 0hPa | 0V | 00:00:00 | 00:00:00 | 00:00:00 | |
| 9A1FER-15 | 2026-09-01 12:31:20 | 46.17084 | 15.39084 | 77° | 29km/h | 17601m | 4.5m/s | 0°C | 0% | 0hPa | 0V | 00:00:00 | 00:00:00 | 00:00:00 | |
| PETON7-10 | 2026-09-01 12:31:16 | 46.17069 | 15.39031 | 54° | 26km/h | 17577m | 5.3m/s | 0°C | 0% | 0hPa | 0V | 00:00:00 | 00:00:00 | 00:00:00 | |
| 9A1FER-3 | 2026-09-01 12:31:13 | 46.17060 | 15.39014 | 58° | 26km/h | 17568m | 4.5m/s | 0°C | 0% | 0hPa | 0V | 00:00:00 | 00:00:00 | 00:00:00 | |
| 9A1FER-15 | 2026-09-01 12:31:05 | 46.17039 | 15.38942 | 62° | 26km/h | 17531m | 3.8m/s | 0°C | 0% | 0hPa | 0V | 00:00:00 | 00:00:00 | 00:00:00 | |
| PETON7-10 | 2026-09-01 12:31:00 | 46.17028 | 15.38892 | 77° | 27km/h | 17499m | 3.8m/s | 0°C | 0% | 0hPa | 0V | 00:00:00 | 00:00:00 | 00:00:00 | |
| 9A1FER-3 | 2026-09-01 12:30:58 | 46.17026 | 15.38882 | 75° | 27km/h | 17494m | 5.3m/s | 0°C | 0% | 0hPa | 0V | 00:00:00 | 00:00:00 | 00:00:00 | |
| 9A1FER-15 | 2026-09-01 12:30:50 | 46.17018 | 15.38806 | 90° | 31km/h | 17454m | 5.4m/s | 0°C | 0% | 0hPa | 0V | 00:00:00 | 00:00:00 | 00:00:00 | |
| 9A1FER-3 | 2026-09-01 12:30:43 | 46.17018 | 15.38736 | 94° | 37km/h | 17419m | 5.0m/s | 0°C | 0% | 0hPa | 0V | 00:00:00 | 00:00:00 | 00:00:00 | |
| PETON7-10 | 2026-09-01 12:30:42 | 46.17018 | 15.38726 | 94° | 38km/h | 17414m | 5.2m/s | 0°C | 0% | 0hPa | 0V | 00:00:00 | 00:00:00 | 00:00:00 | |
| 9A1FER-15 | 2026-09-01 12:30:35 | 46.17030 | 15.38637 | 99° | 40km/h | 17380m | 5.8m/s | 0°C | 0% | 0hPa | 0V | 00:00:00 | 00:00:00 | 00:00:00 | |
| 9A1FER-3 | 2026-09-01 12:30:28 | 46.17039 | 15.38536 | 104° | 40km/h | 17346m | 5.3m/s | 0°C | 0% | 0hPa | 0V | 00:00:00 | 00:00:00 | 00:00:00 | |
| PETON7-10 | 2026-09-01 12:30:25 | 46.17043 | 15.38495 | 89° | 42km/h | 17332m | 4.4m/s | 0°C | 0% | 0hPa | 0V | 00:00:00 | 00:00:00 | 00:00:00 | |
| 9A1FER-15 | 2026-09-01 12:30:20 | 46.17049 | 15.38423 | 99° | 42km/h | 17309m | 4.9m/s | 0°C | 0% | 0hPa | 0V | 00:00:00 | 00:00:00 | 00:00:00 | |
| 9A1FER-3 | 2026-09-01 12:30:13 | 46.17056 | 15.38319 | 100° | 42km/h | 17275m | 3.9m/s | 0°C | 0% | 0hPa | 0V | 00:00:00 | 00:00:00 | 00:00:00 | |
| PETON7-10 | 2026-09-01 12:30:10 | 46.17063 | 15.38272 | 101° | 42km/h | 17261m | 3.8m/s | 0°C | 0% | 0hPa | 0V | 00:00:00 | 00:00:00 | 00:00:00 | |
| 9A1FER-15 | 2026-09-01 12:30:05 | 46.17071 | 15.38193 | 98° | 42km/h | 17237m | 6.3m/s | 0°C | 0% | 0hPa | 0V | 00:00:00 | 00:00:00 | 00:00:00 | |
| 9A1FER-3 | 2026-09-01 12:29:58 | 46.17080 | 15.38086 | 102° | 42km/h | 17203m | 5.4m/s | 0°C | 0% | 0hPa | 0V | 00:00:00 | 00:00:00 | 00:00:00 | |
| PETON7-10 | 2026-09-01 12:29:55 | 46.17085 | 15.38041 | 98° | 40km/h | 17189m | 3.4m/s | 0°C | 0% | 0hPa | 0V | 00:00:00 | 00:00:00 | 00:00:00 | |
| 9A1FER-15 | 2026-09-01 12:29:50 | 46.17089 | 15.37966 | 92° | 42km/h | 17165m | 5.5m/s | 0°C | 0% | 0hPa | 0V | 00:00:00 | 00:00:00 | 00:00:00 | |
| 9A1FER-3 | 2026-09-01 12:29:43 | 46.17104 | 15.37865 | 99° | 40km/h | 17131m | 4.1m/s | 0°C | 0% | 0hPa | 0V | 00:00:00 | 00:00:00 | 00:00:00 | |
| PETON7-10 | 2026-09-01 12:29:40 | 46.17105 | 15.37821 | 92° | 40km/h | 17118m | 6.1m/s | 0°C | 0% | 0hPa | 0V | 00:00:00 | 00:00:00 | 00:00:00 | |
| 9A1FER-15 | 2026-09-01 12:29:35 | 46.17112 | 15.37745 | 102° | 38km/h | 17093m | 3.4m/s | 0°C | 0% | 0hPa | 0V | 00:00:00 | 00:00:00 | 00:00:00 | |
| 9A1FER-3 | 2026-09-01 12:29:28 | 46.17116 | 15.37646 | 93° | 40km/h | 17059m | 4.6m/s | 0°C | 0% | 0hPa | 0V | 00:00:00 | 00:00:00 | 00:00:00 | |
| PETON7-10 | 2026-09-01 12:29:24 | 46.17123 | 15.37589 | 100° | 42km/h | 17041m | 5.5m/s | 0°C | 0% | 0hPa | 0V | 00:00:00 | 00:00:00 | 00:00:00 | |
| 9A1FER-10 | 2026-09-01 12:29:20 | 46.17128 | 15.37535 | 103° | 42km/h | 17022m | 3.6m/s | 0°C | 0% | 0hPa | 0V | 00:00:00 | 00:00:00 | 00:00:00 | |
| 9A1FER-3 | 2026-09-01 12:29:13 | 46.17142 | 15.37432 | 96° | 46km/h | 16991m | 5.2m/s | 0°C | 0% | 0hPa | 0V | 00:00:00 | 00:00:00 | 00:00:00 | |
| PETON7-10 | 2026-09-01 12:29:09 | 46.17151 | 15.37373 | 114° | 47km/h | 16972m | 5.2m/s | 0°C | 0% | 0hPa | 0V | 00:00:00 | 00:00:00 | 00:00:00 | |
| 9A1FER-10 | 2026-09-01 12:29:06 | 46.17164 | 15.37315 | 103° | 49km/h | 16955m | 5.1m/s | 0°C | 0% | 0hPa | 0V | 00:00:00 | 00:00:00 | 00:00:00 | |
| 9A1FER-15 | 2026-09-01 12:29:05 | 46.17164 | 15.37315 | 103° | 49km/h | 16955m | 5.1m/s | 0°C | 0% | 0hPa | 0V | 00:00:00 | 00:00:00 | 00:00:00 | |
| 9A1FER-3 | 2026-09-01 12:28:58 | 46.17182 | 15.37198 | 107° | 51km/h | 16920m | 2.9m/s | 0°C | 0% | 0hPa | 0V | 00:00:00 | 00:00:00 | 00:00:00 | |
| PETON7-10 | 2026-09-01 12:28:54 | 46.17198 | 15.37127 | 101° | 53km/h | 16901m | 5.0m/s | 0°C | 0% | 0hPa | 0V | 00:00:00 | 00:00:00 | 00:00:00 | |
| 9A1FER-3 | 2026-09-01 12:28:43 | 46.17218 | 15.36924 | 94° | 53km/h | 16851m | 4.8m/s | 0°C | 0% | 0hPa | 0V | 00:00:00 | 00:00:00 | 00:00:00 | |
| PETON7-10 | 2026-09-01 12:28:36 | 46.17214 | 15.36793 | 96° | 57km/h | 16817m | 4.3m/s | 0°C | 0% | 0hPa | 0V | 00:00:00 | 00:00:00 | 00:00:00 | |
| 9A1FER-15 | 2026-09-01 12:28:35 | 46.17215 | 15.36773 | 95° | 57km/h | 16811m | 7.4m/s | 0°C | 0% | 0hPa | 0V | 00:00:00 | 00:00:00 | 00:00:00 | |
| 9A1FER-3 | 2026-09-01 12:28:28 | 46.17218 | 15.36636 | 85° | 58km/h | 16780m | 4.8m/s | 0°C | 0% | 0hPa | 0V | 00:00:00 | 00:00:00 | 00:00:00 | |
| 9A1FER-15 | 2026-09-01 12:28:20 | 46.17220 | 15.36468 | 87° | 58km/h | 16741m | 5.9m/s | 0°C | 0% | 0hPa | 0V | 00:00:00 | 00:00:00 | 00:00:00 | |
| 9A1FER-3 | 2026-09-01 12:28:12 | 46.17204 | 15.36294 | 84° | 62km/h | 16705m | 5.2m/s | 0°C | 0% | 0hPa | 0V | 00:00:00 | 00:00:00 | 00:00:00 | |
| PETON7-10 | 2026-09-01 12:28:05 | 46.17180 | 15.36149 | 74° | 68km/h | 16672m | 6.0m/s | 0°C | 0% | 0hPa | 0V | 00:00:00 | 00:00:00 | 00:00:00 | |
| 9A1FER-3 | 2026-09-01 12:27:57 | 46.17153 | 15.35963 | 74° | 69km/h | 16634m | 5.3m/s | 0°C | 0% | 0hPa | 0V | 00:00:00 | 00:00:00 | 00:00:00 | |
| PETON7-10 | 2026-09-01 12:27:50 | 46.17119 | 15.35792 | 80° | 71km/h | 16600m | 4.7m/s | 0°C | 0% | 0hPa | 0V | 00:00:00 | 00:00:00 | 00:00:00 | |
| 9A1FER-3 | 2026-09-01 12:27:42 | 46.17077 | 15.35602 | 72° | 71km/h | 16563m | 3.2m/s | 0°C | 0% | 0hPa | 0V | 00:00:00 | 00:00:00 | 00:00:00 | |
| 9A1FER-15 | 2026-09-01 12:27:35 | 46.17041 | 15.35421 | 75° | 69km/h | 16529m | 4.4m/s | 0°C | 0% | 0hPa | 0V | 00:00:00 | 00:00:00 | 00:00:00 | |
| 9A1FER-3 | 2026-09-01 12:27:27 | 46.16998 | 15.35232 | 77° | 68km/h | 16490m | 5.9m/s | 0°C | 0% | 0hPa | 0V | 00:00:00 | 00:00:00 | 00:00:00 | |
| PETON7-10 | 2026-09-01 12:27:20 | 46.16961 | 15.35058 | 70° | 64km/h | 16457m | 5.2m/s | 0°C | 0% | 0hPa | 0V | 00:00:00 | 00:00:00 | 00:00:00 | |
| 9A1FER-3 | 2026-09-01 12:27:13 | 46.16920 | 15.34880 | 73° | 66km/h | 16421m | 4.0m/s | 0°C | 0% | 0hPa | 0V | 00:00:00 | 00:00:00 | 00:00:00 | |
| 9A1FER-15 | 2026-09-01 12:27:05 | 46.16881 | 15.34725 | 70° | 62km/h | 16385m | 6.1m/s | 0°C | 0% | 0hPa | 0V | 00:00:00 | 00:00:00 | 00:00:00 | |
| 9A1FER-3 | 2026-09-01 12:26:57 | 46.16834 | 15.34548 | 71° | 60km/h | 16346m | 6.0m/s | 0°C | 0% | 0hPa | 0V | 00:00:00 | 00:00:00 | 00:00:00 | |
| 9A1FER-10 | 2026-09-01 12:26:50 | 46.16799 | 15.34402 | 75° | 60km/h | 16310m | 6.4m/s | 0°C | 0% | 0hPa | 0V | 00:00:00 | 00:00:00 | 00:00:00 | |
| 9A1FER-3 | 2026-09-01 12:26:42 | 46.16768 | 15.34231 | 72° | 58km/h | 16270m | 6.8m/s | 0°C | 0% | 0hPa | 0V | 00:00:00 | 00:00:00 | 00:00:00 | |
| 9A1FER-10 | 2026-09-01 12:26:35 | 46.16747 | 15.34085 | 82° | 57km/h | 16233m | 4.9m/s | 0°C | 0% | 0hPa | 0V | 00:00:00 | 00:00:00 | 00:00:00 | |
| PETON7-10 | 2026-09-01 12:26:33 | 46.16740 | 15.34049 | 72° | 58km/h | 16224m | 5.6m/s | 0°C | 0% | 0hPa | 0V | 00:00:00 | 00:00:00 | 00:00:00 | |
| 9A1FER-3 | 2026-09-01 12:26:27 | 46.16726 | 15.33921 | 83° | 58km/h | 16194m | 3.7m/s | 0°C | 0% | 0hPa | 0V | 00:00:00 | 00:00:00 | 00:00:00 | |
| 9A1FER-10 | 2026-09-01 12:26:20 | 46.16714 | 15.33773 | 87° | 64km/h | 16158m | 6.5m/s | 0°C | 0% | 0hPa | 0V | 00:00:00 | 00:00:00 | 00:00:00 | |
| PETON7-10 | 2026-09-01 12:26:18 | 46.16712 | 15.33725 | 88° | 62km/h | 16149m | 5.9m/s | 0°C | 0% | 0hPa | 0V | 00:00:00 | 00:00:00 | 00:00:00 | |
| 9A1FER-3 | 2026-09-01 12:26:12 | 46.16704 | 15.33600 | 85° | 68km/h | 16119m | 5.2m/s | 0°C | 0% | 0hPa | 0V | 00:00:00 | 00:00:00 | 00:00:00 | |
| 9A1FER-15 | 2026-09-01 12:26:05 | 46.16699 | 15.33427 | 81° | 66km/h | 16087m | 4.7m/s | 0°C | 0% | 0hPa | 0V | 00:00:00 | 00:00:00 | 00:00:00 | |
| PETON7-10 | 2026-09-01 12:26:03 | 46.16694 | 15.33384 | 84° | 68km/h | 16078m | 3.3m/s | 0°C | 0% | 0hPa | 0V | 00:00:00 | 00:00:00 | 00:00:00 | |
| 9A1FER-3 | 2026-09-01 12:25:57 | 46.16686 | 15.33236 | 88° | 64km/h | 16049m | 4.7m/s | 0°C | 0% | 0hPa | 0V | 00:00:00 | 00:00:00 | 00:00:00 | |
| 9A1FER-15 | 2026-09-01 12:25:51 | 46.16670 | 15.33075 | 80° | 60km/h | 16018m | 4.1m/s | 0°C | 0% | 0hPa | 0V | 00:00:00 | 00:00:00 | 00:00:00 | |
| 9A1FER-10 | 2026-09-01 12:25:50 | 46.16670 | 15.33075 | 80° | 60km/h | 16018m | 4.1m/s | 0°C | 0% | 0hPa | 0V | 00:00:00 | 00:00:00 | 00:00:00 | |
| PETON7-10 | 2026-09-01 12:25:47 | 46.16659 | 15.33010 | 78° | 60km/h | 16003m | 6.0m/s | 0°C | 0% | 0hPa | 0V | 00:00:00 | 00:00:00 | 00:00:00 | |
| 9A1FER-3 | 2026-09-01 12:25:42 | 46.16642 | 15.32900 | 80° | 60km/h | 15979m | 5.3m/s | 0°C | 0% | 0hPa | 0V | 00:00:00 | 00:00:00 | 00:00:00 | |
| 9A1FER-10 | 2026-09-01 12:25:35 | 46.16619 | 15.32754 | 82° | 62km/h | 15943m | 5.4m/s | 0°C | 0% | 0hPa | 0V | 00:00:00 | 00:00:00 | 00:00:00 | |
| 9A1FER-15 | 2026-09-01 12:25:34 | 46.16616 | 15.32731 | 83° | 62km/h | 15938m | 5.0m/s | 0°C | 0% | 0hPa | 0V | 00:00:00 | 00:00:00 | 00:00:00 | |
| PETON7-10 | 2026-09-01 12:25:32 | 46.16612 | 15.32685 | 81° | 62km/h | 15929m | 4.6m/s | 0°C | 0% | 0hPa | 0V | 00:00:00 | 00:00:00 | 00:00:00 | |
| 9A1FER-3 | 2026-09-01 12:25:27 | 46.16598 | 15.32576 | 83° | 62km/h | 15905m | 4.8m/s | 0°C | 0% | 0hPa | 0V | 00:00:00 | 00:00:00 | 00:00:00 | |
| 9A1FER-10 | 2026-09-01 12:25:20 | 46.16586 | 15.32417 | 77° | 60km/h | 15873m | 5.7m/s | 0°C | 0% | 0hPa | 0V | 00:00:00 | 00:00:00 | 00:00:00 | |
| 9A1FER-15 | 2026-09-01 12:25:19 | 46.16582 | 15.32395 | 77° | 60km/h | 15868m | 4.2m/s | 0°C | 0% | 0hPa | 0V | 00:00:00 | 00:00:00 | 00:00:00 | |
| PETON7-10 | 2026-09-01 12:25:16 | 46.16574 | 15.32333 | 82° | 62km/h | 15853m | 4.9m/s | 0°C | 0% | 0hPa | 0V | 00:00:00 | 00:00:00 | 00:00:00 | |
| 9A1FER-3 | 2026-09-01 12:25:12 | 46.16566 | 15.32245 | 86° | 58km/h | 15834m | 3.5m/s | 0°C | 0% | 0hPa | 0V | 00:00:00 | 00:00:00 | 00:00:00 | |
| 9A1FER-10 | 2026-09-01 12:25:05 | 46.16560 | 15.32091 | 82° | 62km/h | 15800m | 4.0m/s | 0°C | 0% | 0hPa | 0V | 00:00:00 | 00:00:00 | 00:00:00 | |
| 9A1FER-15 | 2026-09-01 12:25:03 | 46.16555 | 15.32050 | 81° | 62km/h | 15791m | 4.7m/s | 0°C | 0% | 0hPa | 0V | 00:00:00 | 00:00:00 | 00:00:00 | |
| 9A1FER-3 | 2026-09-01 12:24:57 | 46.16544 | 15.31922 | 86° | 66km/h | 15765m | 4.9m/s | 0°C | 0% | 0hPa | 0V | 00:00:00 | 00:00:00 | 00:00:00 | |
| PETON7-10 | 2026-09-01 12:24:56 | 46.16543 | 15.31897 | 87° | 66km/h | 15762m | 3.2m/s | 0°C | 0% | 0hPa | 0V | 00:00:00 | 00:00:00 | 00:00:00 | |
| 9A1FER-10 | 2026-09-01 12:24:50 | 46.16537 | 15.31756 | 90° | 66km/h | 15734m | 3.5m/s | 0°C | 0% | 0hPa | 0V | 00:00:00 | 00:00:00 | 00:00:00 | |
| 9A1FER-15 | 2026-09-01 12:24:48 | 46.16535 | 15.31710 | 85° | 66km/h | 15726m | 3.8m/s | 0°C | 0% | 0hPa | 0V | 00:00:00 | 00:00:00 | 00:00:00 | |
| 9A1FER-3 | 2026-09-01 12:24:42 | 46.16529 | 15.31566 | 92° | 68km/h | 15698m | 6.5m/s | 0°C | 0% | 0hPa | 0V | 00:00:00 | 00:00:00 | 00:00:00 | |
| PETON7-10 | 2026-09-01 12:24:38 | 46.16529 | 15.31469 | 85° | 68km/h | 15679m | 5.4m/s | 0°C | 0% | 0hPa | 0V | 00:00:00 | 00:00:00 | 00:00:00 | |
| 9A1FER-10 | 2026-09-01 12:24:35 | 46.16524 | 15.31397 | 85° | 71km/h | 15666m | 5.1m/s | 0°C | 0% | 0hPa | 0V | 00:00:00 | 00:00:00 | 00:00:00 | |
| 9A1FER-15 | 2026-09-01 12:24:33 | 46.16522 | 15.31347 | 89° | 69km/h | 15657m | 5.2m/s | 0°C | 0% | 0hPa | 0V | 00:00:00 | 00:00:00 | 00:00:00 | |
| 9A1FER-3 | 2026-09-01 12:24:27 | 46.16521 | 15.31196 | 86° | 73km/h | 15629m | 6.4m/s | 0°C | 0% | 0hPa | 0V | 00:00:00 | 00:00:00 | 00:00:00 | |
| PETON7-10 | 2026-09-01 12:24:21 | 46.16521 | 15.31039 | 96° | 75km/h | 15601m | 3.3m/s | 0°C | 0% | 0hPa | 0V | 00:00:00 | 00:00:00 | 00:00:00 | |
| 9A1FER-10 | 2026-09-01 12:24:20 | 46.16523 | 15.31012 | 97° | 73km/h | 15598m | 4.6m/s | 0°C | 0% | 0hPa | 0V | 00:00:00 | 00:00:00 | 00:00:00 | |
| 9A1FER-15 | 2026-09-01 12:24:18 | 46.16525 | 15.30962 | 88° | 75km/h | 15589m | 5.8m/s | 0°C | 0% | 0hPa | 0V | 00:00:00 | 00:00:00 | 00:00:00 | |
| 9A1FER-3 | 2026-09-01 12:24:12 | 46.16521 | 15.30801 | 95° | 77km/h | 15561m | 5.3m/s | 0°C | 0% | 0hPa | 0V | 00:00:00 | 00:00:00 | 00:00:00 | |
| 9A1FER-10 | 2026-09-01 12:24:05 | 46.16527 | 15.30608 | 90° | 77km/h | 15528m | 4.6m/s | 0°C | 0% | 0hPa | 0V | 00:00:00 | 00:00:00 | 00:00:00 | |
| 9A1FER-15 | 2026-09-01 12:24:03 | 46.16529 | 15.30553 | 94° | 78km/h | 15519m | 5.2m/s | 0°C | 0% | 0hPa | 0V | 00:00:00 | 00:00:00 | 00:00:00 | |
| 9A1FER-3 | 2026-09-01 12:23:57 | 46.16542 | 15.30383 | 100° | 77km/h | 15492m | 3.2m/s | 0°C | 0% | 0hPa | 0V | 00:00:00 | 00:00:00 | 00:00:00 | |
| 9A1FER-10 | 2026-09-01 12:23:50 | 46.16553 | 15.30184 | 95° | 78km/h | 15460m | 4.1m/s | 0°C | 0% | 0hPa | 0V | 00:00:00 | 00:00:00 | 00:00:00 | |
| 9A1FER-15 | 2026-09-01 12:23:48 | 46.16556 | 15.30128 | 96° | 78km/h | 15451m | 4.5m/s | 0°C | 0% | 0hPa | 0V | 00:00:00 | 00:00:00 | 00:00:00 | |
| 9A1FER-3 | 2026-09-01 12:23:42 | 46.16558 | 15.29964 | 88° | 78km/h | 15423m | 4.6m/s | 0°C | 0% | 0hPa | 0V | 00:00:00 | 00:00:00 | 00:00:00 | |
| 9A1FER-10 | 2026-09-01 12:23:35 | 46.16570 | 15.29760 | 100° | 77km/h | 15388m | 4.0m/s | 0°C | 0% | 0hPa | 0V | 00:00:00 | 00:00:00 | 00:00:00 | |
| 9A1FER-15 | 2026-09-01 12:23:33 | 46.16574 | 15.29703 | 91° | 75km/h | 15379m | 4.6m/s | 0°C | 0% | 0hPa | 0V | 00:00:00 | 00:00:00 | 00:00:00 | |
| 9A1FER-3 | 2026-09-01 12:23:27 | 46.16565 | 15.29535 | 92° | 75km/h | 15351m | 4.7m/s | 0°C | 0% | 0hPa | 0V | 00:00:00 | 00:00:00 | 00:00:00 | |
| 9A1FER-10 | 2026-09-01 12:23:20 | 46.16563 | 15.29346 | 82° | 75km/h | 15319m | 5.3m/s | 0°C | 0% | 0hPa | 0V | 00:00:00 | 00:00:00 | 00:00:00 | |
| 9A1FER-15 | 2026-09-01 12:23:18 | 46.16559 | 15.29293 | 88° | 75km/h | 15311m | 5.3m/s | 0°C | 0% | 0hPa | 0V | 00:00:00 | 00:00:00 | 00:00:00 | |
| PETON7-10 | 2026-09-01 12:23:15 | 46.16561 | 15.29208 | 94° | 77km/h | 15297m | 5.4m/s | 0°C | 0% | 0hPa | 0V | 00:00:00 | 00:00:00 | 00:00:00 | |
| 9A1FER-3 | 2026-09-01 12:23:12 | 46.16563 | 15.29127 | 90° | 73km/h | 15283m | 3.4m/s | 0°C | 0% | 0hPa | 0V | 00:00:00 | 00:00:00 | 00:00:00 | |
| 9A1FER-10 | 2026-09-01 12:23:05 | 46.16557 | 15.28939 | 93° | 73km/h | 15250m | 5.6m/s | 0°C | 0% | 0hPa | 0V | 00:00:00 | 00:00:00 | 00:00:00 | |
| 9A1FER-15 | 2026-09-01 12:23:03 | 46.16558 | 15.28886 | 90° | 73km/h | 15241m | 6.1m/s | 0°C | 0% | 0hPa | 0V | 00:00:00 | 00:00:00 | 00:00:00 | |
| 9A1FER-3 | 2026-09-01 12:22:57 | 46.16547 | 15.28734 | 92° | 75km/h | 15214m | 3.9m/s | 0°C | 0% | 0hPa | 0V | 00:00:00 | 00:00:00 | 00:00:00 | |
| 9A1FER-10 | 2026-09-01 12:22:50 | 46.16552 | 15.28545 | 86° | 77km/h | 15181m | 4.1m/s | 0°C | 0% | 0hPa | 0V | 00:00:00 | 00:00:00 | 00:00:00 | |
| 9A1FER-15 | 2026-09-01 12:22:48 | 46.16549 | 15.28491 | 89° | 77km/h | 15173m | 3.5m/s | 0°C | 0% | 0hPa | 0V | 00:00:00 | 00:00:00 | 00:00:00 | |
| 9A1FER-3 | 2026-09-01 12:22:43 | 46.16548 | 15.28323 | 89° | 78km/h | 15144m | 5.3m/s | 0°C | 0% | 0hPa | 0V | 00:00:00 | 00:00:00 | 00:00:00 | |
| 9A1FER-10 | 2026-09-01 12:22:35 | 46.16545 | 15.28129 | 91° | 80km/h | 15112m | 4.9m/s | 0°C | 0% | 0hPa | 0V | 00:00:00 | 00:00:00 | 00:00:00 | |
| 9A1FER-15 | 2026-09-01 12:22:33 | 46.16546 | 15.28073 | 93° | 80km/h | 15103m | 6.3m/s | 0°C | 0% | 0hPa | 0V | 00:00:00 | 00:00:00 | 00:00:00 | |
| PETON7-10 | 2026-09-01 12:22:30 | 46.16546 | 15.27986 | 88° | 78km/h | 15088m | 4.1m/s | 0°C | 0% | 0hPa | 0V | 00:00:00 | 00:00:00 | 00:00:00 | |
| 9A1FER-3 | 2026-09-01 12:22:27 | 46.16544 | 15.27896 | 88° | 78km/h | 15073m | 5.4m/s | 0°C | 0% | 0hPa | 0V | 00:00:00 | 00:00:00 | 00:00:00 | |
| 9A1FER-10 | 2026-09-01 12:22:21 | 46.16536 | 15.27694 | 88° | 77km/h | 15040m | 6.0m/s | 0°C | 0% | 0hPa | 0V | 00:00:00 | 00:00:00 | 00:00:00 | |
| 9A1FER-15 | 2026-09-01 12:22:18 | 46.16534 | 15.27636 | 86° | 78km/h | 15030m | 5.8m/s | 0°C | 0% | 0hPa | 0V | 00:00:00 | 00:00:00 | 00:00:00 | |
| 9A1FER-3 | 2026-09-01 12:22:12 | 46.16527 | 15.27465 | 91° | 77km/h | 15000m | 4.1m/s | 0°C | 0% | 0hPa | 0V | 00:00:00 | 00:00:00 | 00:00:00 | |
| PETON7-10 | 2026-09-01 12:22:12 | 46.16527 | 15.27465 | 91° | 77km/h | 15000m | 4.1m/s | 0°C | 0% | 0hPa | 0V | 00:00:00 | 00:00:00 | 00:00:00 | |
| 9A1FER-10 | 2026-09-01 12:22:06 | 46.16517 | 15.27271 | 81° | 77km/h | 14967m | 5.7m/s | 0°C | 0% | 0hPa | 0V | 00:00:00 | 00:00:00 | 00:00:00 | |
| 9A1FER-15 | 2026-09-01 12:22:03 | 46.16511 | 15.27213 | 83° | 77km/h | 14957m | 5.9m/s | 0°C | 0% | 0hPa | 0V | 00:00:00 | 00:00:00 | 00:00:00 | |
| 9A1FER-3 | 2026-09-01 12:21:57 | 46.16505 | 15.27052 | 86° | 78km/h | 14927m | 5.8m/s | 0°C | 0% | 0hPa | 0V | 00:00:00 | 00:00:00 | 00:00:00 | |
| PETON7-10 | 2026-09-01 12:21:51 | 46.16499 | 15.26883 | 92° | 78km/h | 14897m | 4.5m/s | 0°C | 0% | 0hPa | 0V | 00:00:00 | 00:00:00 | 00:00:00 | |
| 9A1FER-10 | 2026-09-01 12:21:50 | 46.16500 | 15.26854 | 93° | 78km/h | 14892m | 5.6m/s | 0°C | 0% | 0hPa | 0V | 00:00:00 | 00:00:00 | 00:00:00 | |
| 9A1FER-15 | 2026-09-01 12:21:48 | 46.16503 | 15.26799 | 93° | 80km/h | 14883m | 6.8m/s | 0°C | 0% | 0hPa | 0V | 00:00:00 | 00:00:00 | 00:00:00 | |
| 9A1FER-3 | 2026-09-01 12:21:42 | 46.16505 | 15.26625 | 90° | 82km/h | 14853m | 5.0m/s | 0°C | 0% | 0hPa | 0V | 00:00:00 | 00:00:00 | 00:00:00 | |
| 9A1FER-10 | 2026-09-01 12:21:35 | 46.16513 | 15.26420 | 96° | 82km/h | 14819m | 5.6m/s | 0°C | 0% | 0hPa | 0V | 00:00:00 | 00:00:00 | 00:00:00 | |
| 9A1FER-15 | 2026-09-01 12:21:33 | 46.16518 | 15.26359 | 96° | 82km/h | 14811m | 4.9m/s | 0°C | 0% | 0hPa | 0V | 00:00:00 | 00:00:00 | 00:00:00 | |
| 9A1FER-3 | 2026-09-01 12:21:27 | 46.16529 | 15.26178 | 92° | 84km/h | 14785m | 3.7m/s | 0°C | 0% | 0hPa | 0V | 00:00:00 | 00:00:00 | 00:00:00 | |
| 9A1FER-10 | 2026-09-01 12:21:20 | 46.16525 | 15.25971 | 89° | 89km/h | 14753m | 5.7m/s | 0°C | 0% | 0hPa | 0V | 00:00:00 | 00:00:00 | 00:00:00 | |
| 9A1FER-15 | 2026-09-01 12:21:18 | 46.16526 | 15.25909 | 94° | 91km/h | 14743m | 4.5m/s | 0°C | 0% | 0hPa | 0V | 00:00:00 | 00:00:00 | 00:00:00 | |
| 9A1FER-3 | 2026-09-01 12:21:12 | 46.16526 | 15.25716 | 88° | 97km/h | 14715m | 4.1m/s | 0°C | 0% | 0hPa | 0V | 00:00:00 | 00:00:00 | 00:00:00 | |
| 9A1FER-10 | 2026-09-01 12:21:05 | 46.16520 | 15.25479 | 88° | 99km/h | 14681m | 4.9m/s | 0°C | 0% | 0hPa | 0V | 00:00:00 | 00:00:00 | 00:00:00 | |
| 9A1FER-15 | 2026-09-01 12:21:04 | 46.16517 | 15.25408 | 87° | 100km/h | 14671m | 4.3m/s | 0°C | 0% | 0hPa | 0V | 00:00:00 | 00:00:00 | 00:00:00 | |
| 9A1FER-3 | 2026-09-01 12:20:57 | 46.16508 | 15.25190 | 89° | 99km/h | 14643m | 5.7m/s | 0°C | 0% | 0hPa | 0V | 00:00:00 | 00:00:00 | 00:00:00 | |
| 9A1FER-10 | 2026-09-01 12:20:50 | 46.16505 | 15.24937 | 88° | 99km/h | 14610m | 4.7m/s | 0°C | 0% | 0hPa | 0V | 00:00:00 | 00:00:00 | 00:00:00 | |
| 9A1FER-15 | 2026-09-01 12:20:47 | 46.16500 | 15.24829 | 88° | 99km/h | 14597m | 3.5m/s | 0°C | 0% | 0hPa | 0V | 00:00:00 | 00:00:00 | 00:00:00 | |
| 9A1FER-3 | 2026-09-01 12:20:42 | 46.16494 | 15.24648 | 88° | 97km/h | 14572m | 6.0m/s | 0°C | 0% | 0hPa | 0V | 00:00:00 | 00:00:00 | 00:00:00 | |
| 9A1FER-10 | 2026-09-01 12:20:36 | 46.16486 | 15.24400 | 85° | 99km/h | 14539m | 4.6m/s | 0°C | 0% | 0hPa | 0V | 00:00:00 | 00:00:00 | 00:00:00 | |
| 9A1FER-15 | 2026-09-01 12:20:32 | 46.16478 | 15.24293 | 85° | 99km/h | 14524m | 5.6m/s | 0°C | 0% | 0hPa | 0V | 00:00:00 | 00:00:00 | 00:00:00 | |
| 9A1FER-3 | 2026-09-01 12:20:27 | 46.16468 | 15.24115 | 86° | 97km/h | 14501m | 3.9m/s | 0°C | 0% | 0hPa | 0V | 00:00:00 | 00:00:00 | 00:00:00 | |
| 9A1FER-10 | 2026-09-01 12:20:20 | 46.16455 | 15.23866 | 84° | 93km/h | 14471m | 5.1m/s | 0°C | 0% | 0hPa | 0V | 00:00:00 | 00:00:00 | 00:00:00 | |
| 9A1FER-15 | 2026-09-01 12:20:17 | 46.16446 | 15.23764 | 83° | 93km/h | 14457m | 4.5m/s | 0°C | 0% | 0hPa | 0V | 00:00:00 | 00:00:00 | 00:00:00 | |
| 9A1FER-3 | 2026-09-01 12:20:12 | 46.16429 | 15.23596 | 85° | 93km/h | 14433m | 4.3m/s | 0°C | 0% | 0hPa | 0V | 00:00:00 | 00:00:00 | 00:00:00 | |
| 9A1FER-10 | 2026-09-01 12:20:05 | 46.16418 | 15.23361 | 83° | 95km/h | 14398m | 5.4m/s | 0°C | 0% | 0hPa | 0V | 00:00:00 | 00:00:00 | 00:00:00 | |
| 9A1FER-15 | 2026-09-01 12:20:02 | 46.16407 | 15.23258 | 83° | 91km/h | 14384m | 6.1m/s | 0°C | 0% | 0hPa | 0V | 00:00:00 | 00:00:00 | 00:00:00 | |
| 9A1FER-3 | 2026-09-01 12:19:57 | 46.16396 | 15.23090 | 85° | 93km/h | 14362m | 5.4m/s | 0°C | 0% | 0hPa | 0V | 00:00:00 | 00:00:00 | 00:00:00 | |
| 9A1FER-10 | 2026-09-01 12:19:50 | 46.16369 | 15.22852 | 83° | 93km/h | 14331m | 5.7m/s | 0°C | 0% | 0hPa | 0V | 00:00:00 | 00:00:00 | 00:00:00 | |
| 9A1FER-15 | 2026-09-01 12:19:46 | 46.16358 | 15.22721 | 82° | 95km/h | 14313m | 3.1m/s | 0°C | 0% | 0hPa | 0V | 00:00:00 | 00:00:00 | 00:00:00 | |
| 9A1FER-3 | 2026-09-01 12:19:42 | 46.16338 | 15.22584 | 79° | 97km/h | 14296m | 3.9m/s | 0°C | 0% | 0hPa | 0V | 00:00:00 | 00:00:00 | 00:00:00 | |
| 9A1FER-10 | 2026-09-01 12:19:35 | 46.16313 | 15.22349 | 82° | 99km/h | 14260m | 4.5m/s | 0°C | 0% | 0hPa | 0V | 00:00:00 | 00:00:00 | 00:00:00 | |
| 9A1FER-3 | 2026-09-01 12:19:27 | 46.16288 | 15.22065 | 85° | 99km/h | 14224m | 5.3m/s | 0°C | 0% | 0hPa | 0V | 00:00:00 | 00:00:00 | 00:00:00 | |
| 9A1FER-10 | 2026-09-01 12:19:20 | 46.16272 | 15.21811 | 84° | 100km/h | 14189m | 6.2m/s | 0°C | 0% | 0hPa | 0V | 00:00:00 | 00:00:00 | 00:00:00 | |
| 9A1FER-15 | 2026-09-01 12:19:15 | 46.16263 | 15.21633 | 87° | 102km/h | 14166m | 3.7m/s | 0°C | 0% | 0hPa | 0V | 00:00:00 | 00:00:00 | 00:00:00 | |
| 9A1FER-3 | 2026-09-01 12:19:12 | 46.16259 | 15.21522 | 86° | 102km/h | 14151m | 5.9m/s | 0°C | 0% | 0hPa | 0V | 00:00:00 | 00:00:00 | 00:00:00 | |
| 9A1FER-10 | 2026-09-01 12:19:05 | 46.16244 | 15.21264 | 86° | 100km/h | 14120m | 3.5m/s | 0°C | 0% | 0hPa | 0V | 00:00:00 | 00:00:00 | 00:00:00 | |
| 9A1FER-15 | 2026-09-01 12:19:00 | 46.16231 | 15.21080 | 85° | 100km/h | 14097m | 5.3m/s | 0°C | 0% | 0hPa | 0V | 00:00:00 | 00:00:00 | 00:00:00 | |
| 9A1FER-3 | 2026-09-01 12:18:57 | 46.16221 | 15.20969 | 82° | 99km/h | 14083m | 4.5m/s | 0°C | 0% | 0hPa | 0V | 00:00:00 | 00:00:00 | 00:00:00 | |
| 9A1FER-10 | 2026-09-01 12:18:50 | 46.16192 | 15.20718 | 80° | 99km/h | 14051m | 5.4m/s | 0°C | 0% | 0hPa | 0V | 00:00:00 | 00:00:00 | 00:00:00 | |
| 9A1FER-15 | 2026-09-01 12:18:45 | 46.16171 | 15.20542 | 81° | 99km/h | 14030m | 3.8m/s | 0°C | 0% | 0hPa | 0V | 00:00:00 | 00:00:00 | 00:00:00 | |
| 9A1FER-3 | 2026-09-01 12:18:42 | 46.16161 | 15.20440 | 81° | 99km/h | 14018m | 5.2m/s | 0°C | 0% | 0hPa | 0V | 00:00:00 | 00:00:00 | 00:00:00 | |
| 9A1FER-10 | 2026-09-01 12:18:35 | 46.16125 | 15.20188 | 80° | 100km/h | 13985m | 4.7m/s | 0°C | 0% | 0hPa | 0V | 00:00:00 | 00:00:00 | 00:00:00 | |
| 9A1FER-15 | 2026-09-01 12:18:30 | 46.16100 | 15.20013 | 79° | 102km/h | 13961m | 4.7m/s | 0°C | 0% | 0hPa | 0V | 00:00:00 | 00:00:00 | 00:00:00 | |
| 9A1FER-3 | 2026-09-01 12:18:27 | 46.16082 | 15.19908 | 77° | 102km/h | 13949m | 6.3m/s | 0°C | 0% | 0hPa | 0V | 00:00:00 | 00:00:00 | 00:00:00 | |
| 9A1FER-10 | 2026-09-01 12:18:21 | 46.16041 | 15.19650 | 78° | 102km/h | 13919m | 3.0m/s | 0°C | 0% | 0hPa | 0V | 00:00:00 | 00:00:00 | 00:00:00 | |
| 9A1FER-15 | 2026-09-01 12:18:15 | 46.16018 | 15.19469 | 81° | 102km/h | 13896m | 4.8m/s | 0°C | 0% | 0hPa | 0V | 00:00:00 | 00:00:00 | 00:00:00 | |
| 9A1FER-3 | 2026-09-01 12:18:12 | 46.16006 | 15.19356 | 81° | 100km/h | 13883m | 4.8m/s | 0°C | 0% | 0hPa | 0V | 00:00:00 | 00:00:00 | 00:00:00 | |
| 9A1FER-10 | 2026-09-01 12:18:05 | 46.15976 | 15.19102 | 83° | 100km/h | 13851m | 4.5m/s | 0°C | 0% | 0hPa | 0V | 00:00:00 | 00:00:00 | 00:00:00 | |
| 9A1FER-15 | 2026-09-01 12:17:59 | 46.15953 | 15.18884 | 78° | 100km/h | 13823m | 3.8m/s | 0°C | 0% | 0hPa | 0V | 00:00:00 | 00:00:00 | 00:00:00 | |
| 9A1FER-3 | 2026-09-01 12:17:57 | 46.15944 | 15.18814 | 83° | 102km/h | 13814m | 3.4m/s | 0°C | 0% | 0hPa | 0V | 00:00:00 | 00:00:00 | 00:00:00 | |
| 9A1FER-10 | 2026-09-01 12:17:50 | 46.15920 | 15.18562 | 81° | 104km/h | 13784m | 2.8m/s | 0°C | 0% | 0hPa | 0V | 00:00:00 | 00:00:00 | 00:00:00 | |
| 9A1FER-15 | 2026-09-01 12:17:44 | 46.15897 | 15.18336 | 83° | 106km/h | 13757m | 3.1m/s | 0°C | 0% | 0hPa | 0V | 00:00:00 | 00:00:00 | 00:00:00 | |
| 9A1FER-3 | 2026-09-01 12:17:42 | 46.15889 | 15.18263 | 83° | 106km/h | 13748m | 3.6m/s | 0°C | 0% | 0hPa | 0V | 00:00:00 | 00:00:00 | 00:00:00 | |
| 9A1FER-10 | 2026-09-01 12:17:35 | 46.15866 | 15.17998 | 79° | 104km/h | 13716m | 5.3m/s | 0°C | 0% | 0hPa | 0V | 00:00:00 | 00:00:00 | 00:00:00 | |
| OE3JTB-15 | 2026-09-01 12:17:31 | 46.15847 | 15.17843 | 84° | 111km/h | 13699m | 4.8m/s | 0°C | 0% | 0hPa | 0V | 00:00:00 | 00:00:00 | 00:00:00 | |
| 9A1FER-15 | 2026-09-01 12:17:29 | 46.15842 | 15.17767 | 85° | 102km/h | 13688m | 3.7m/s | 0°C | 0% | 0hPa | 0V | 00:00:00 | 00:00:00 | 00:00:00 | |
| 9A1FER-3 | 2026-09-01 12:17:26 | 46.15833 | 15.17653 | 83° | 100km/h | 13674m | 5.6m/s | 0°C | 0% | 0hPa | 0V | 00:00:00 | 00:00:00 | 00:00:00 | |
| 9A1FER-10 | 2026-09-01 12:17:20 | 46.15812 | 15.17433 | 82° | 99km/h | 13643m | 4.6m/s | 0°C | 0% | 0hPa | 0V | 00:00:00 | 00:00:00 | 00:00:00 | |
| 9A1FER-15 | 2026-09-01 12:17:15 | 46.15793 | 15.17213 | 86° | 97km/h | 13613m | 5.0m/s | 0°C | 0% | 0hPa | 0V | 00:00:00 | 00:00:00 | 00:00:00 | |
| 9A1FER-3 | 2026-09-01 12:17:10 | 46.15788 | 15.17078 | 86° | 99km/h | 13595m | 4.5m/s | 0°C | 0% | 0hPa | 0V | 00:00:00 | 00:00:00 | 00:00:00 | |
| 9A1FER-10 | 2026-09-01 12:17:06 | 46.15775 | 15.16900 | 84° | 97km/h | 13573m | 5.1m/s | 0°C | 0% | 0hPa | 0V | 00:00:00 | 00:00:00 | 00:00:00 | |
| 9A1FER-15 | 2026-09-01 12:16:59 | 46.15768 | 15.16684 | 89° | 99km/h | 13546m | 4.1m/s | 0°C | 0% | 0hPa | 0V | 00:00:00 | 00:00:00 | 00:00:00 | |
| 9A1FER-3 | 2026-09-01 12:16:55 | 46.15761 | 15.16545 | 85° | 102km/h | 13528m | 4.0m/s | 0°C | 0% | 0hPa | 0V | 00:00:00 | 00:00:00 | 00:00:00 | |
| 9A1FER-15 | 2026-09-01 12:16:44 | 46.15728 | 15.16146 | 83° | 108km/h | 13476m | 5.2m/s | 0°C | 0% | 0hPa | 0V | 00:00:00 | 00:00:00 | 00:00:00 | |
| 9A1FER-3 | 2026-09-01 12:16:40 | 46.15718 | 15.15992 | 86° | 108km/h | 13457m | 5.6m/s | 0°C | 0% | 0hPa | 0V | 00:00:00 | 00:00:00 | 00:00:00 | |
| 9A1FER-10 | 2026-09-01 12:16:35 | 46.15701 | 15.15793 | 83° | 110km/h | 13435m | 4.6m/s | 0°C | 0% | 0hPa | 0V | 00:00:00 | 00:00:00 | 00:00:00 | |
| 9A1FER-15 | 2026-09-01 12:16:30 | 46.15686 | 15.15563 | 85° | 111km/h | 13408m | 4.9m/s | 0°C | 0% | 0hPa | 0V | 00:00:00 | 00:00:00 | 00:00:00 | |
| 9A1FER-15 | 2026-09-01 12:16:14 | 46.15649 | 15.14953 | 87° | 117km/h | 13334m | 4.7m/s | 0°C | 0% | 0hPa | 0V | 00:00:00 | 00:00:00 | 00:00:00 | |
| OE3JTB-15 | 2026-09-01 12:16:12 | 46.15645 | 15.14868 | 86° | 120km/h | 13325m | 5.4m/s | 0°C | 0% | 0hPa | 0V | 00:00:00 | 00:00:00 | 00:00:00 | |
| 9A1FER-3 | 2026-09-01 12:16:10 | 46.15641 | 15.14785 | 87° | 117km/h | 13315m | 5.8m/s | 0°C | 0% | 0hPa | 0V | 00:00:00 | 00:00:00 | 00:00:00 | |
| 9A1FER-10 | 2026-09-01 12:16:05 | 46.15631 | 15.14577 | 86° | 119km/h | 13293m | 4.6m/s | 0°C | 0% | 0hPa | 0V | 00:00:00 | 00:00:00 | 00:00:00 | |
| 9A1FER-15 | 2026-09-01 12:15:59 | 46.15613 | 15.14319 | 84° | 122km/h | 13265m | 5.2m/s | 0°C | 0% | 0hPa | 0V | 00:00:00 | 00:00:00 | 00:00:00 | |
| 9A1FER-3 | 2026-09-01 12:15:55 | 46.15597 | 15.14145 | 83° | 124km/h | 13246m | 6.7m/s | 0°C | 0% | 0hPa | 0V | 00:00:00 | 00:00:00 | 00:00:00 | |
| 9A1FER-10 | 2026-09-01 12:15:50 | 46.15573 | 15.13931 | 81° | 128km/h | 13223m | 3.0m/s | 0°C | 0% | 0hPa | 0V | 00:00:00 | 00:00:00 | 00:00:00 | |
| 9A1FER-15 | 2026-09-01 12:15:44 | 46.15542 | 15.13653 | 82° | 128km/h | 13196m | 4.2m/s | 0°C | 0% | 0hPa | 0V | 00:00:00 | 00:00:00 | 00:00:00 | |
| 9A1FER-3 | 2026-09-01 12:15:40 | 46.15524 | 15.13477 | 82° | 133km/h | 13179m | 4.6m/s | 0°C | 0% | 0hPa | 0V | 00:00:00 | 00:00:00 | 00:00:00 | |
| 9A1FER-10 | 2026-09-01 12:15:35 | 46.15499 | 15.13239 | 82° | 133km/h | 13155m | 4.7m/s | 0°C | 0% | 0hPa | 0V | 00:00:00 | 00:00:00 | 00:00:00 | |
| OE3JTB-15 | 2026-09-01 12:15:32 | 46.15477 | 15.13052 | 81° | 135km/h | 13137m | 3.8m/s | 0°C | 0% | 0hPa | 0V | 00:00:00 | 00:00:00 | 00:00:00 | |
| 9A1FER-15 | 2026-09-01 12:15:31 | 46.15464 | 15.12955 | 79° | 133km/h | 13127m | 3.9m/s | 0°C | 0% | 0hPa | 0V | 00:00:00 | 00:00:00 | 00:00:00 | |
| 9A1FER-3 | 2026-09-01 12:15:25 | 46.15438 | 15.12761 | 80° | 133km/h | 13109m | 5.5m/s | 0°C | 0% | 0hPa | 0V | 00:00:00 | 00:00:00 | 00:00:00 | |
| 9A1FER-10 | 2026-09-01 12:15:21 | 46.15409 | 15.12523 | 81° | 135km/h | 13086m | 3.8m/s | 0°C | 0% | 0hPa | 0V | 00:00:00 | 00:00:00 | 00:00:00 | |
| 9A1FER-15 | 2026-09-01 12:15:13 | 46.15367 | 15.12186 | 80° | 133km/h | 13052m | 5.8m/s | 0°C | 0% | 0hPa | 0V | 00:00:00 | 00:00:00 | 00:00:00 | |
| 9A1FER-3 | 2026-09-01 12:15:10 | 46.15348 | 15.12043 | 79° | 133km/h | 13038m | 4.0m/s | 0°C | 0% | 0hPa | 0V | 00:00:00 | 00:00:00 | 00:00:00 | |
| 9A1FER-10 | 2026-09-01 12:15:05 | 46.15317 | 15.11799 | 78° | 133km/h | 13017m | 3.9m/s | 0°C | 0% | 0hPa | 0V | 00:00:00 | 00:00:00 | 00:00:00 | |
| 9A1FER-15 | 2026-09-01 12:14:59 | 46.15271 | 15.11468 | 80° | 133km/h | 12988m | 3.3m/s | 0°C | 0% | 0hPa | 0V | 00:00:00 | 00:00:00 | 00:00:00 | |
| 9A1FER-3 | 2026-09-01 12:14:55 | 46.15252 | 15.11324 | 81° | 133km/h | 12975m | 5.1m/s | 0°C | 0% | 0hPa | 0V | 00:00:00 | 00:00:00 | 00:00:00 | |
| 9A1FER-10 | 2026-09-01 12:14:50 | 46.15223 | 15.11084 | 80° | 131km/h | 12951m | 6.0m/s | 0°C | 0% | 0hPa | 0V | 00:00:00 | 00:00:00 | 00:00:00 | |
| 9A1FER-3 | 2026-09-01 12:14:40 | 46.15163 | 15.10611 | 79° | 131km/h | 12907m | 5.0m/s | 0°C | 0% | 0hPa | 0V | 00:00:00 | 00:00:00 | 00:00:00 | |
| 9A1FER-10 | 2026-09-01 12:14:35 | 46.15127 | 15.10379 | 77° | 131km/h | 12885m | 3.7m/s | 0°C | 0% | 0hPa | 0V | 00:00:00 | 00:00:00 | 00:00:00 | |
| OE3JTB-15 | 2026-09-01 12:14:28 | 46.15076 | 15.10047 | 79° | 133km/h | 12856m | 6.2m/s | 0°C | 0% | 0hPa | 0V | 00:00:00 | 00:00:00 | 00:00:00 | |
| 9A1FER-3 | 2026-09-01 12:14:25 | 46.15058 | 15.09906 | 79° | 133km/h | 12843m | 4.2m/s | 0°C | 0% | 0hPa | 0V | 00:00:00 | 00:00:00 | 00:00:00 | |
| 9A1FER-10 | 2026-09-01 12:14:20 | 46.15026 | 15.09672 | 78° | 135km/h | 12819m | 5.8m/s | 0°C | 0% | 0hPa | 0V | 00:00:00 | 00:00:00 | 00:00:00 | |
| 9A1FER-3 | 2026-09-01 12:14:10 | 46.14956 | 15.09192 | 78° | 133km/h | 12774m | 4.6m/s | 0°C | 0% | 0hPa | 0V | 00:00:00 | 00:00:00 | 00:00:00 | |
| 9A1FER-10 | 2026-09-01 12:14:05 | 46.14922 | 15.08954 | 80° | 135km/h | 12754m | 3.6m/s | 0°C | 0% | 0hPa | 0V | 00:00:00 | 00:00:00 | 00:00:00 | |
| OE3JTB-15 | 2026-09-01 12:13:59 | 46.14884 | 15.08668 | 80° | 135km/h | 12728m | 5.4m/s | 0°C | 0% | 0hPa | 0V | 00:00:00 | 00:00:00 | 00:00:00 | |
| 9A1FER-3 | 2026-09-01 12:13:55 | 46.14860 | 15.08472 | 81° | 135km/h | 12709m | 3.9m/s | 0°C | 0% | 0hPa | 0V | 00:00:00 | 00:00:00 | 00:00:00 | |
| 9A1FER-10 | 2026-09-01 12:13:50 | 46.14827 | 15.08232 | 79° | 135km/h | 12686m | 6.3m/s | 0°C | 0% | 0hPa | 0V | 00:00:00 | 00:00:00 | 00:00:00 | |
| 9A1FER-3 | 2026-09-01 12:13:40 | 46.14771 | 15.07747 | 80° | 139km/h | 12642m | 5.5m/s | 0°C | 0% | 0hPa | 0V | 00:00:00 | 00:00:00 | 00:00:00 | |
| 9A1FER-10 | 2026-09-01 12:13:35 | 46.14745 | 15.07503 | 84° | 139km/h | 12620m | 3.0m/s | 0°C | 0% | 0hPa | 0V | 00:00:00 | 00:00:00 | 00:00:00 | |
| OE3JTB-15 | 2026-09-01 12:13:30 | 46.14718 | 15.07254 | 80° | 142km/h | 12598m | 5.4m/s | 0°C | 0% | 0hPa | 0V | 00:00:00 | 00:00:00 | 00:00:00 | |
| 9A1FER-3 | 2026-09-01 12:13:25 | 46.14688 | 15.07003 | 79° | 141km/h | 12576m | 3.1m/s | 0°C | 0% | 0hPa | 0V | 00:00:00 | 00:00:00 | 00:00:00 | |
| 9A1FER-10 | 2026-09-01 12:13:20 | 46.14652 | 15.06754 | 79° | 142km/h | 12554m | 5.3m/s | 0°C | 0% | 0hPa | 0V | 00:00:00 | 00:00:00 | 00:00:00 | |
| 9A1FER-3 | 2026-09-01 12:13:11 | 46.14579 | 15.06249 | 77° | 144km/h | 12506m | 3.5m/s | 0°C | 0% | 0hPa | 0V | 00:00:00 | 00:00:00 | 00:00:00 | |
| 9A1FER-10 | 2026-09-01 12:13:05 | 46.14539 | 15.05992 | 78° | 146km/h | 12481m | 4.4m/s | 0°C | 0% | 0hPa | 0V | 00:00:00 | 00:00:00 | 00:00:00 | |
| OE3JTB-15 | 2026-09-01 12:13:01 | 46.14508 | 15.05787 | 77° | 144km/h | 12462m | 5.3m/s | 0°C | 0% | 0hPa | 0V | 00:00:00 | 00:00:00 | 00:00:00 | |
| 9A1FER-3 | 2026-09-01 12:12:55 | 46.14458 | 15.05476 | 79° | 144km/h | 12436m | 5.7m/s | 0°C | 0% | 0hPa | 0V | 00:00:00 | 00:00:00 | 00:00:00 | |
| 9A1FER-10 | 2026-09-01 12:12:50 | 46.14421 | 15.05217 | 79° | 144km/h | 12411m | 3.4m/s | 0°C | 0% | 0hPa | 0V | 00:00:00 | 00:00:00 | 00:00:00 | |
| 9A1FER-3 | 2026-09-01 12:12:40 | 46.14352 | 15.04703 | 81° | 142km/h | 12365m | 3.2m/s | 0°C | 0% | 0hPa | 0V | 00:00:00 | 00:00:00 | 00:00:00 | |
| 9A1FER-10 | 2026-09-01 12:12:35 | 46.14316 | 15.04449 | 79° | 142km/h | 12343m | 5.3m/s | 0°C | 0% | 0hPa | 0V | 00:00:00 | 00:00:00 | 00:00:00 | |
| OE3JTB-15 | 2026-09-01 12:12:32 | 46.14296 | 15.04294 | 81° | 142km/h | 12329m | 5.1m/s | 0°C | 0% | 0hPa | 0V | 00:00:00 | 00:00:00 | 00:00:00 | |
| 9A1FER-10 | 2026-09-01 12:12:20 | 46.14219 | 15.03684 | 81° | 141km/h | 12272m | 3.6m/s | 0°C | 0% | 0hPa | 0V | 00:00:00 | 00:00:00 | 00:00:00 | |
| 9A1FER-3 | 2026-09-01 12:12:10 | 46.14157 | 15.03182 | 77° | 144km/h | 12229m | 4.0m/s | 0°C | 0% | 0hPa | 0V | 00:00:00 | 00:00:00 | 00:00:00 | |
| 9A1FER-10 | 2026-09-01 12:12:05 | 46.14122 | 15.02927 | 80° | 146km/h | 12205m | 5.5m/s | 0°C | 0% | 0hPa | 0V | 00:00:00 | 00:00:00 | 00:00:00 | |
| 9A1FER-3 | 2026-09-01 12:11:55 | 46.14048 | 15.02411 | 79° | 148km/h | 12160m | 5.6m/s | 0°C | 0% | 0hPa | 0V | 00:00:00 | 00:00:00 | 00:00:00 | |
| 9A1FER-10 | 2026-09-01 12:11:50 | 46.14012 | 15.02145 | 78° | 148km/h | 12138m | 3.6m/s | 0°C | 0% | 0hPa | 0V | 00:00:00 | 00:00:00 | 00:00:00 | |
| 9A1FER-3 | 2026-09-01 12:11:40 | 46.13938 | 15.01620 | 78° | 144km/h | 12092m | 5.6m/s | 0°C | 0% | 0hPa | 0V | 00:00:00 | 00:00:00 | 00:00:00 | |
| 9A1FER-10 | 2026-09-01 12:11:35 | 46.13895 | 15.01356 | 79° | 141km/h | 12068m | 3.5m/s | 0°C | 0% | 0hPa | 0V | 00:00:00 | 00:00:00 | 00:00:00 | |
| 9A1FER-3 | 2026-09-01 12:11:25 | 46.13825 | 15.00850 | 81° | 137km/h | 12022m | 5.2m/s | 0°C | 0% | 0hPa | 0V | 00:00:00 | 00:00:00 | 00:00:00 | |
| OE3JTB-15 | 2026-09-01 12:11:24 | 46.13820 | 15.00800 | 82° | 133km/h | 12017m | 3.6m/s | 0°C | 0% | 0hPa | 0V | 00:00:00 | 00:00:00 | 00:00:00 | |
| 9A1FER-10 | 2026-09-01 12:11:20 | 46.13795 | 15.00606 | 79° | 135km/h | 11999m | 3.8m/s | 0°C | 0% | 0hPa | 0V | 00:00:00 | 00:00:00 | 00:00:00 | |
| 9A1FER-3 | 2026-09-01 12:11:10 | 46.13727 | 15.00118 | 80° | 131km/h | 11952m | 4.8m/s | 0°C | 0% | 0hPa | 0V | 00:00:00 | 00:00:00 | 00:00:00 | |
| 9A1FER-10 | 2026-09-01 12:11:05 | 46.13698 | 14.99884 | 81° | 128km/h | 11930m | 3.5m/s | 0°C | 0% | 0hPa | 0V | 00:00:00 | 00:00:00 | 00:00:00 | |
| 9A1FER-3 | 2026-09-01 12:10:55 | 46.13643 | 14.99416 | 81° | 126km/h | 11886m | 5.7m/s | 0°C | 0% | 0hPa | 0V | 00:00:00 | 00:00:00 | 00:00:00 | |
| OE3JTB-15 | 2026-09-01 12:10:53 | 46.13633 | 14.99326 | 82° | 130km/h | 11877m | 4.9m/s | 0°C | 0% | 0hPa | 0V | 00:00:00 | 00:00:00 | 00:00:00 | |
| 9A1FER-10 | 2026-09-01 12:10:50 | 46.13621 | 14.99194 | 84° | 130km/h | 11865m | 3.3m/s | 0°C | 0% | 0hPa | 0V | 00:00:00 | 00:00:00 | 00:00:00 | |
| 9A1FER-3 | 2026-09-01 12:10:40 | 46.13573 | 14.98732 | 83° | 133km/h | 11822m | 3.4m/s | 0°C | 0% | 0hPa | 0V | 00:00:00 | 00:00:00 | 00:00:00 | |
| 9A1FER-10 | 2026-09-01 12:10:35 | 46.13545 | 14.98491 | 80° | 133km/h | 11800m | 4.4m/s | 0°C | 0% | 0hPa | 0V | 00:00:00 | 00:00:00 | 00:00:00 | |
| 9A1FER-3 | 2026-09-01 12:10:25 | 46.13488 | 14.98013 | 80° | 131km/h | 11757m | 4.7m/s | 0°C | 0% | 0hPa | 0V | 00:00:00 | 00:00:00 | 00:00:00 | |
| 9A1FER-10 | 2026-09-01 12:10:20 | 46.13460 | 14.97773 | 81° | 133km/h | 11737m | 3.8m/s | 0°C | 0% | 0hPa | 0V | 00:00:00 | 00:00:00 | 00:00:00 | |
| 9A1FER-3 | 2026-09-01 12:10:11 | 46.13409 | 14.97298 | 80° | 133km/h | 11695m | 3.6m/s | 0°C | 0% | 0hPa | 0V | 00:00:00 | 00:00:00 | 00:00:00 | |
| 9A1FER-10 | 2026-09-01 12:10:05 | 46.13382 | 14.97056 | 82° | 133km/h | 11674m | 4.6m/s | 0°C | 0% | 0hPa | 0V | 00:00:00 | 00:00:00 | 00:00:00 | |
| 9A1FER-3 | 2026-09-01 12:09:55 | 46.13328 | 14.96576 | 81° | 133km/h | 11632m | 3.7m/s | 0°C | 0% | 0hPa | 0V | 00:00:00 | 00:00:00 | 00:00:00 | |
| 9A1FER-10 | 2026-09-01 12:09:50 | 46.13302 | 14.96332 | 83° | 133km/h | 11611m | 3.2m/s | 0°C | 0% | 0hPa | 0V | 00:00:00 | 00:00:00 | 00:00:00 | |
| 9A1FER-3 | 2026-09-01 12:09:40 | 46.13254 | 14.95853 | 83° | 131km/h | 11567m | 3.7m/s | 0°C | 0% | 0hPa | 0V | 00:00:00 | 00:00:00 | 00:00:00 | |
| 9A1FER-10 | 2026-09-01 12:09:35 | 46.13229 | 14.95618 | 82° | 131km/h | 11547m | 3.9m/s | 0°C | 0% | 0hPa | 0V | 00:00:00 | 00:00:00 | 00:00:00 | |
| 9A1FER-3 | 2026-09-01 12:09:25 | 46.13178 | 14.95144 | 81° | 131km/h | 11505m | 4.0m/s | 0°C | 0% | 0hPa | 0V | 00:00:00 | 00:00:00 | 00:00:00 | |
| 9A1FER-10 | 2026-09-01 12:09:20 | 46.13150 | 14.94910 | 81° | 133km/h | 11484m | 5.3m/s | 0°C | 0% | 0hPa | 0V | 00:00:00 | 00:00:00 | 00:00:00 | |
| OE3JTB-15 | 2026-09-01 12:09:18 | 46.13139 | 14.94813 | 81° | 131km/h | 11475m | 4.9m/s | 0°C | 0% | 0hPa | 0V | 00:00:00 | 00:00:00 | 00:00:00 | |
| 9A1FER-3 | 2026-09-01 12:09:10 | 46.13092 | 14.94432 | 82° | 131km/h | 11441m | 3.9m/s | 0°C | 0% | 0hPa | 0V | 00:00:00 | 00:00:00 | 00:00:00 | |
| 9A1FER-10 | 2026-09-01 12:09:05 | 46.13068 | 14.94197 | 82° | 131km/h | 11421m | 5.8m/s | 0°C | 0% | 0hPa | 0V | 00:00:00 | 00:00:00 | 00:00:00 | |
| 9A1FER-3 | 2026-09-01 12:08:56 | 46.13011 | 14.93724 | 81° | 130km/h | 11378m | 3.7m/s | 0°C | 0% | 0hPa | 0V | 00:00:00 | 00:00:00 | 00:00:00 | |
| 9A1FER-10 | 2026-09-01 12:08:50 | 46.12984 | 14.93489 | 81° | 130km/h | 11358m | 3.0m/s | 0°C | 0% | 0hPa | 0V | 00:00:00 | 00:00:00 | 00:00:00 | |
| 9A1FER-3 | 2026-09-01 12:08:40 | 46.12931 | 14.93025 | 81° | 128km/h | 11316m | 3.4m/s | 0°C | 0% | 0hPa | 0V | 00:00:00 | 00:00:00 | 00:00:00 | |
| 9A1FER-10 | 2026-09-01 12:08:35 | 46.12900 | 14.92796 | 79° | 128km/h | 11295m | 6.0m/s | 0°C | 0% | 0hPa | 0V | 00:00:00 | 00:00:00 | 00:00:00 | |
| OE3JTB-15 | 2026-09-01 12:08:29 | 46.12869 | 14.92517 | 80° | 126km/h | 11270m | 4.1m/s | 0°C | 0% | 0hPa | 0V | 00:00:00 | 00:00:00 | 00:00:00 | |
| 9A1FER-3 | 2026-09-01 12:08:25 | 46.12842 | 14.92337 | 77° | 126km/h | 11252m | 4.1m/s | 0°C | 0% | 0hPa | 0V | 00:00:00 | 00:00:00 | 00:00:00 | |
| 9A1FER-10 | 2026-09-01 12:08:21 | 46.12813 | 14.92109 | 83° | 124km/h | 11231m | 5.2m/s | 0°C | 0% | 0hPa | 0V | 00:00:00 | 00:00:00 | 00:00:00 | |
| 9A1FER-3 | 2026-09-01 12:08:10 | 46.12753 | 14.91666 | 81° | 122km/h | 11190m | 3.6m/s | 0°C | 0% | 0hPa | 0V | 00:00:00 | 00:00:00 | 00:00:00 | |
| 9A1FER-10 | 2026-09-01 12:08:06 | 46.12727 | 14.91445 | 77° | 122km/h | 11168m | 4.6m/s | 0°C | 0% | 0hPa | 0V | 00:00:00 | 00:00:00 | 00:00:00 | |
| OE3JTB-15 | 2026-09-01 12:08:00 | 46.12690 | 14.91226 | 79° | 122km/h | 11147m | 5.3m/s | 0°C | 0% | 0hPa | 0V | 00:00:00 | 00:00:00 | 00:00:00 | |
| 9A1FER-3 | 2026-09-01 12:07:55 | 46.12659 | 14.91008 | 76° | 122km/h | 11124m | 3.7m/s | 0°C | 0% | 0hPa | 0V | 00:00:00 | 00:00:00 | 00:00:00 | |
| 9A1FER-10 | 2026-09-01 12:07:50 | 46.12622 | 14.90791 | 77° | 120km/h | 11104m | 5.3m/s | 0°C | 0% | 0hPa | 0V | 00:00:00 | 00:00:00 | 00:00:00 | |
| 9A1FER-3 | 2026-09-01 12:07:40 | 46.12558 | 14.90355 | 78° | 120km/h | 11062m | 3.9m/s | 0°C | 0% | 0hPa | 0V | 00:00:00 | 00:00:00 | 00:00:00 | |
| 9A1FER-10 | 2026-09-01 12:07:34 | 46.12518 | 14.90055 | 77° | 122km/h | 11033m | 4.8m/s | 0°C | 0% | 0hPa | 0V | 00:00:00 | 00:00:00 | 00:00:00 | |
| OE3JTB-15 | 2026-09-01 12:07:30 | 46.12496 | 14.89924 | 78° | 122km/h | 11019m | 3.9m/s | 0°C | 0% | 0hPa | 0V | 00:00:00 | 00:00:00 | 00:00:00 | |
| 9A1FER-3 | 2026-09-01 12:07:25 | 46.12461 | 14.89709 | 77° | 122km/h | 10998m | 4.6m/s | 0°C | 0% | 0hPa | 0V | 00:00:00 | 00:00:00 | 00:00:00 | |
| 9A1FER-10 | 2026-09-01 12:07:18 | 46.12412 | 14.89402 | 79° | 120km/h | 10969m | 3.4m/s | 0°C | 0% | 0hPa | 0V | 00:00:00 | 00:00:00 | 00:00:00 | |
| 9A1FER-3 | 2026-09-01 12:07:10 | 46.12358 | 14.89060 | 80° | 122km/h | 10934m | 3.8m/s | 0°C | 0% | 0hPa | 0V | 00:00:00 | 00:00:00 | 00:00:00 | |
| 9A1FER-10 | 2026-09-01 12:07:03 | 46.12310 | 14.88757 | 78° | 122km/h | 10905m | 6.0m/s | 0°C | 0% | 0hPa | 0V | 00:00:00 | 00:00:00 | 00:00:00 | |
| OE3JTB-15 | 2026-09-01 12:07:01 | 46.12296 | 14.88668 | 78° | 119km/h | 10896m | 4.7m/s | 0°C | 0% | 0hPa | 0V | 00:00:00 | 00:00:00 | 00:00:00 | |
| 9A1FER-3 | 2026-09-01 12:06:56 | 46.12253 | 14.88411 | 75° | 120km/h | 10870m | 5.5m/s | 0°C | 0% | 0hPa | 0V | 00:00:00 | 00:00:00 | 00:00:00 | |
| 9A1FER-10 | 2026-09-01 12:06:48 | 46.12203 | 14.88112 | 78° | 120km/h | 10841m | 4.1m/s | 0°C | 0% | 0hPa | 0V | 00:00:00 | 00:00:00 | 00:00:00 | |
| 9A1FER-3 | 2026-09-01 12:06:40 | 46.12144 | 14.87774 | 77° | 120km/h | 10803m | 4.9m/s | 0°C | 0% | 0hPa | 0V | 00:00:00 | 00:00:00 | 00:00:00 | |
| 9A1FER-3 | 2026-09-01 12:06:25 | 46.12036 | 14.87137 | 76° | 117km/h | 10737m | 4.8m/s | 0°C | 0% | 0hPa | 0V | 00:00:00 | 00:00:00 | 00:00:00 | |
| 9A1FER-10 | 2026-09-01 12:06:18 | 46.11985 | 14.86851 | 79° | 115km/h | 10707m | 4.3m/s | 0°C | 0% | 0hPa | 0V | 00:00:00 | 00:00:00 | 00:00:00 | |
| 9A1FER-3 | 2026-09-01 12:06:11 | 46.11926 | 14.86524 | 74° | 113km/h | 10676m | 5.1m/s | 0°C | 0% | 0hPa | 0V | 00:00:00 | 00:00:00 | 00:00:00 | |
| 9A1FER-10 | 2026-09-01 12:06:03 | 46.11880 | 14.86241 | 79° | 113km/h | 10647m | 3.4m/s | 0°C | 0% | 0hPa | 0V | 00:00:00 | 00:00:00 | 00:00:00 | |
| 9A1FER-3 | 2026-09-01 12:05:55 | 46.11831 | 14.85919 | 77° | 113km/h | 10611m | 5.1m/s | 0°C | 0% | 0hPa | 0V | 00:00:00 | 00:00:00 | 00:00:00 | |
| 9A1FER-10 | 2026-09-01 12:05:48 | 46.11786 | 14.85634 | 79° | 113km/h | 10580m | 5.2m/s | 0°C | 0% | 0hPa | 0V | 00:00:00 | 00:00:00 | 00:00:00 | |
| 9A1FER-3 | 2026-09-01 12:05:40 | 46.11734 | 14.85311 | 77° | 113km/h | 10544m | 4.2m/s | 0°C | 0% | 0hPa | 0V | 00:00:00 | 00:00:00 | 00:00:00 | |
| 9A1FER-10 | 2026-09-01 12:05:33 | 46.11686 | 14.85032 | 76° | 113km/h | 10512m | 5.1m/s | 0°C | 0% | 0hPa | 0V | 00:00:00 | 00:00:00 | 00:00:00 | |
| 9A1FER-10 | 2026-09-01 12:05:18 | 46.11586 | 14.84430 | 78° | 111km/h | 10445m | 4.0m/s | 0°C | 0% | 0hPa | 0V | 00:00:00 | 00:00:00 | 00:00:00 | |
| 9A1FER-3 | 2026-09-01 12:05:07 | 46.11510 | 14.83997 | 75° | 111km/h | 10396m | 4.3m/s | 0°C | 0% | 0hPa | 0V | 00:00:00 | 00:00:00 | 00:00:00 | |
| 9A1FER-10 | 2026-09-01 12:05:03 | 46.11483 | 14.83841 | 78° | 113km/h | 10379m | 4.9m/s | 0°C | 0% | 0hPa | 0V | 00:00:00 | 00:00:00 | 00:00:00 | |
| 9A1FER-3 | 2026-09-01 12:04:52 | 46.11411 | 14.83406 | 77° | 111km/h | 10329m | 3.9m/s | 0°C | 0% | 0hPa | 0V | 00:00:00 | 00:00:00 | 00:00:00 | |
| 9A1FER-10 | 2026-09-01 12:04:48 | 46.11386 | 14.83244 | 77° | 110km/h | 10310m | 4.5m/s | 0°C | 0% | 0hPa | 0V | 00:00:00 | 00:00:00 | 00:00:00 | |
| 9A1FER-3 | 2026-09-01 12:04:37 | 46.11317 | 14.82815 | 76° | 110km/h | 10260m | 4.2m/s | 0°C | 0% | 0hPa | 0V | 00:00:00 | 00:00:00 | 00:00:00 | |
| 9A1FER-10 | 2026-09-01 12:04:33 | 46.11294 | 14.82657 | 79° | 108km/h | 10242m | 4.7m/s | 0°C | 0% | 0hPa | 0V | 00:00:00 | 00:00:00 | 00:00:00 | |
| 9A1FER-3 | 2026-09-01 12:04:22 | 46.11218 | 14.82234 | 76° | 108km/h | 10194m | 5.0m/s | 0°C | 0% | 0hPa | 0V | 00:00:00 | 00:00:00 | 00:00:00 | |
| 9A1FER-10 | 2026-09-01 12:04:18 | 46.11191 | 14.82084 | 74° | 108km/h | 10176m | 3.4m/s | 0°C | 0% | 0hPa | 0V | 00:00:00 | 00:00:00 | 00:00:00 | |
| 9A1FER-3 | 2026-09-01 12:04:07 | 46.11115 | 14.81668 | 77° | 104km/h | 10128m | 4.2m/s | 0°C | 0% | 0hPa | 0V | 00:00:00 | 00:00:00 | 00:00:00 | |
| 9A1FER-10 | 2026-09-01 12:04:04 | 46.11089 | 14.81517 | 77° | 110km/h | 10111m | 4.3m/s | 0°C | 0% | 0hPa | 0V | 00:00:00 | 00:00:00 | 00:00:00 | |
| 9A1FER-10 | 2026-09-01 12:03:48 | 46.10993 | 14.80949 | 77° | 102km/h | 10042m | 4.3m/s | 0°C | 0% | 0hPa | 0V | 00:00:00 | 00:00:00 | 00:00:00 | |
| 9A1FER-3 | 2026-09-01 12:03:32 | 46.10905 | 14.80369 | 78° | 99km/h | 9975m | 3.5m/s | 0°C | 0% | 0hPa | 0V | 00:00:00 | 00:00:00 | 00:00:00 | |
| 9A1FER-10 | 2026-09-01 12:03:17 | 46.10827 | 14.79841 | 79° | 99km/h | 9907m | 3.4m/s | 0°C | 0% | 0hPa | 0V | 00:00:00 | 00:00:00 | 00:00:00 | |
| 9A1FER-3 | 2026-09-01 12:03:02 | 46.10759 | 14.79314 | 81° | 97km/h | 9839m | 5.0m/s | 0°C | 0% | 0hPa | 0V | 00:00:00 | 00:00:00 | 00:00:00 | |
| 9A1FER-10 | 2026-09-01 12:02:44 | 46.10677 | 14.78691 | 80° | 95km/h | 9758m | 2.5m/s | 0°C | 0% | 0hPa | 0V | 00:00:00 | 00:00:00 | 00:00:00 | |
| 9A1FER-3 | 2026-09-01 12:02:31 | 46.10619 | 14.78249 | 81° | 95km/h | 9703m | 4.5m/s | 0°C | 0% | 0hPa | 0V | 00:00:00 | 00:00:00 | 00:00:00 | |
| 9A1FER-3 | 2026-09-01 12:02:16 | 46.10543 | 14.77739 | 79° | 93km/h | 9640m | 5.9m/s | 0°C | 0% | 0hPa | 0V | 00:00:00 | 00:00:00 | 00:00:00 | |
| 9A1FER-3 | 2026-09-01 12:02:01 | 46.10469 | 14.77203 | 77° | 88km/h | 9565m | 5.4m/s | 0°C | 0% | 0hPa | 0V | 00:00:00 | 00:00:00 | 00:00:00 | |
| 9A1FER-10 | 2026-09-01 12:01:53 | 46.10437 | 14.76969 | 76° | 93km/h | 9535m | 4.3m/s | 0°C | 0% | 0hPa | 0V | 00:00:00 | 00:00:00 | 00:00:00 | |
| 9A1FER-10 | 2026-09-01 12:01:37 | 46.10351 | 14.76447 | 79° | 91km/h | 9470m | 5.2m/s | 0°C | 0% | 0hPa | 0V | 00:00:00 | 00:00:00 | 00:00:00 | |
| 9A1FER-10 | 2026-09-01 12:00:51 | 46.10124 | 14.74977 | 80° | 88km/h | 9263m | 3.0m/s | 0°C | 0% | 0hPa | 0V | 00:00:00 | 00:00:00 | 00:00:00 | |
| 9A1FER-10 | 2026-09-01 12:00:36 | 46.10051 | 14.74511 | 76° | 88km/h | 9195m | 5.2m/s | 0°C | 0% | 0hPa | 0V | 00:00:00 | 00:00:00 | 00:00:00 | |
| 9A1FER-3 | 2026-09-01 12:00:18 | 46.09956 | 14.73910 | 79° | 82km/h | 9114m | 5.6m/s | 0°C | 0% | 0hPa | 0V | 00:00:00 | 00:00:00 | 00:00:00 | |
| 9A1FER-3 | 2026-09-01 12:00:01 | 46.09885 | 14.73479 | 75° | 82km/h | 9046m | 4.8m/s | 0°C | 0% | 0hPa | 0V | 00:00:00 | 00:00:00 | 00:00:00 | |
| 9A1FER-3 | 2026-09-01 11:59:46 | 46.09824 | 14.73039 | 79° | 82km/h | 8988m | 3.3m/s | 0°C | 0% | 0hPa | 0V | 00:00:00 | 00:00:00 | 00:00:00 | |
| OE3JTB-15 | 2026-09-01 11:59:41 | 46.09793 | 14.72836 | 79° | 78km/h | 8960m | 4.2m/s | 0°C | 0% | 0hPa | 0V | 00:00:00 | 00:00:00 | 00:00:00 | |
| 9A1FER-10 | 2026-09-01 11:59:19 | 46.09707 | 14.72245 | 75° | 73km/h | 8867m | 5.1m/s | 0°C | 0% | 0hPa | 0V | 00:00:00 | 00:00:00 | 00:00:00 | |
| 9A1FER-3 | 2026-09-01 11:58:54 | 46.09602 | 14.71494 | 79° | 75km/h | 8761m | 6.1m/s | 0°C | 0% | 0hPa | 0V | 00:00:00 | 00:00:00 | 00:00:00 | |
| OE3JTB-15 | 2026-09-01 11:58:25 | 46.09498 | 14.70670 | 83° | 75km/h | 8636m | 5.0m/s | 0°C | 0% | 0hPa | 0V | 00:00:00 | 00:00:00 | 00:00:00 | |
| OE3JTB-15 | 2026-09-01 11:57:48 | 46.09362 | 14.69683 | 76° | 71km/h | 8457m | 6.7m/s | 0°C | 0% | 0hPa | 0V | 00:00:00 | 00:00:00 | 00:00:00 | |
| OE3JTB-15 | 2026-09-01 11:56:57 | 46.09166 | 14.68388 | 78° | 71km/h | 8204m | 6.3m/s | 0°C | 0% | 0hPa | 0V | 00:00:00 | 00:00:00 | 00:00:00 | |
| 9A1FER-3 | 2026-09-01 11:55:41 | 46.08893 | 14.66433 | 78° | 73km/h | 7866m | 3.5m/s | 0°C | 0% | 0hPa | 0V | 00:00:00 | 00:00:00 | 00:00:00 | |
| 9A1FER-3 | 2026-09-01 11:55:25 | 46.08832 | 14.66020 | 84° | 68km/h | 7782m | 5.8m/s | 0°C | 0% | 0hPa | 0V | 00:00:00 | 00:00:00 | 00:00:00 | |
| 9A1FER-10 | 2026-09-01 11:55:15 | 46.08797 | 14.65781 | 78° | 69km/h | 7730m | 5.8m/s | 0°C | 0% | 0hPa | 0V | 00:00:00 | 00:00:00 | 00:00:00 | |
| OE3JTB-15 | 2026-09-01 11:55:11 | 46.08782 | 14.65682 | 84° | 69km/h | 7711m | 5.0m/s | 0°C | 0% | 0hPa | 0V | 00:00:00 | 00:00:00 | 00:00:00 | |
| 9A1FER-3 | 2026-09-01 11:55:10 | 46.08781 | 14.65657 | 87° | 71km/h | 7706m | 3.9m/s | 0°C | 0% | 0hPa | 0V | 00:00:00 | 00:00:00 | 00:00:00 | |
| 9A1FER-3 | 2026-09-01 11:54:55 | 46.08724 | 14.65279 | 81° | 68km/h | 7627m | 6.2m/s | 0°C | 0% | 0hPa | 0V | 00:00:00 | 00:00:00 | 00:00:00 | |
| 9A1FER-10 | 2026-09-01 11:54:50 | 46.08704 | 14.65159 | 80° | 69km/h | 7600m | 2.5m/s | 0°C | 0% | 0hPa | 0V | 00:00:00 | 00:00:00 | 00:00:00 | |
| 9A1FER-3 | 2026-09-01 11:54:40 | 46.08668 | 14.64916 | 80° | 58km/h | 7557m | 4.1m/s | 0°C | 0% | 0hPa | 0V | 00:00:00 | 00:00:00 | 00:00:00 | |
| 9A1FER-10 | 2026-09-01 11:54:35 | 46.08651 | 14.64793 | 74° | 68km/h | 7538m | 2.9m/s | 0°C | 0% | 0hPa | 0V | 00:00:00 | 00:00:00 | 00:00:00 | |
| 9A1FER-10 | 2026-09-01 11:54:21 | 46.08586 | 14.64435 | 73° | 66km/h | 7472m | 1.6m/s | 0°C | 0% | 0hPa | 0V | 00:00:00 | 00:00:00 | 00:00:00 | |
| 9A1FER-10 | 2026-09-01 11:54:05 | 46.08512 | 14.64093 | 74° | 62km/h | 7412m | 5.1m/s | 0°C | 0% | 0hPa | 0V | 00:00:00 | 00:00:00 | 00:00:00 |